Darstellungsparameter: Aktuell verwendete Einstellungen:
Skalierung der Graphiken ... ?
xyx+y,   Skalierungsfaktor:      Skalierung: Modus: x, Faktor: 1
Darstellungszeitraum ... ?
Vom - - bis: - -   Zeitraum: 07.05.2009 - 06.06.2009
Min/Max/Avg-Anzeige ... ?
Zeige MMA aktuell
Zeige MMA Monat
Zeige MMA alles
Zeige --A aktuell
Zeige --A Monat
Zeige --A alles
Keine MMA-Anzeige
MMA:
Keine MMA-Graphiken
MMA-Basis: 07.05.2009 - 06.06.2009
Quicknavigation für Darstellung... ?
Tage:      1T, 2T, 3T, 5T -1T -2T -3T -5T +1T +2T +3T +5T
Wochen: 1W, 2W, 3W -1W -2W -3W +1W +2W +3W
Monate: 1M, 3M, 6M -1M -3M -6M +1M +3M +6M
Jahre:    1J, 3J, 5J, 10J -1J -3J -5J -10J +1J +3J +5J +10J
Nutze für die Darstellung ... ?
Originaldaten oder Mittelwerte auf ...
Stundenbasis Tagesbasis Wochenbasis
Monatsbasis Jahresbasis      Datenbasis: Original-Daten
Darstellen als:
Statistik (Auto) Statistik J:M      Darstellung:
Zur Graphik,    zurück zur Übersicht aller Sensoren.
 
Tabellarische Datenbersicht: ?
 
Sensor: Nr:Datum:Temp:Abs-Feuchte:Windchill:Wind:
Aussen-T/F 1 07-05-2009 00:03:37 13.5 C 7.13 g/m*3 13.5 C 0 km/h
2 07-05-2009 00:18:37 13.4 C 7.09 g/m*3 13.4 C 0 km/h
3 07-05-2009 00:33:37 13.1 C 7.19 g/m*3 13.1 C 0 km/h
4 07-05-2009 00:48:37 12.8 C 7.28 g/m*3 12.8 C 0 km/h
5 07-05-2009 01:03:37 12.4 C 7.21 g/m*3 12.4 C 0 km/h
6 07-05-2009 01:18:37 12.1 C 7.29 g/m*3 12.1 C 0 km/h
7 07-05-2009 01:33:37 11.8 C 7.37 g/m*3 11.8 C 0 km/h
8 07-05-2009 01:48:37 11.6 C 7.38 g/m*3 11.6 C 0 km/h
9 07-05-2009 02:03:37 11.3 C 7.34 g/m*3 11.3 C 0 km/h
10 07-05-2009 02:18:37 11 C 7.31 g/m*3 11 C 0 km/h
11 07-05-2009 02:33:37 11 C 7.41 g/m*3 11 C 0 km/h
12 07-05-2009 02:48:37 10.9 C 7.46 g/m*3 10.9 C 0 km/h
13 07-05-2009 03:03:37 10.8 C 7.41 g/m*3 10.8 C 0 km/h
14 07-05-2009 03:18:37 10.7 C 7.37 g/m*3 10.7 C 0 km/h
15 07-05-2009 03:33:37 10.5 C 7.37 g/m*3 10.5 C 0 km/h
16 07-05-2009 03:48:37 10.3 C 7.28 g/m*3 10.3 C 0 km/h
17 07-05-2009 04:03:37 10.2 C 7.23 g/m*3 10.2 C 0 km/h
18 07-05-2009 04:18:37 10.2 C 7.33 g/m*3 10.2 C 0 km/h
19 07-05-2009 04:33:38 9.7 C 7.19 g/m*3 9.7 C 0 km/h
20 07-05-2009 04:48:38 9.3 C 7.1 g/m*3 9.3 C 0 km/h
21 07-05-2009 05:03:38 8.9 C 7.01 g/m*3 8.9 C 0 km/h
22 07-05-2009 05:18:38 8.7 C 7.01 g/m*3 8.7 C 0 km/h
23 07-05-2009 05:33:38 8.5 C 7 g/m*3 8.5 C 0 km/h
24 07-05-2009 05:48:38 8.4 C 7.04 g/m*3 8.4 C 0 km/h
25 07-05-2009 06:03:38 8.3 C 7.08 g/m*3 8.3 C 0 km/h
Sensor: Nr:Datum:Temp:Abs-Feuchte:Windchill:Wind:
Aussen-T/F 26 07-05-2009 06:18:38 8.2 C 7.03 g/m*3 8.2 C 0 km/h
27 07-05-2009 06:33:38 8.2 C 7.03 g/m*3 8.2 C 0 km/h
28 07-05-2009 06:48:38 8.3 C 7.16 g/m*3 8.3 C 0 km/h
29 07-05-2009 07:03:36 8.5 C 7.26 g/m*3 8.5 C 0 km/h
30 07-05-2009 07:18:36 8.6 C 7.39 g/m*3 8.6 C 0 km/h
31 07-05-2009 07:33:35 9.2 C 7.59 g/m*3 9.2 C 0 km/h
32 07-05-2009 07:48:36 9.9 C 7.84 g/m*3 9.9 C 0 km/h
33 07-05-2009 08:03:35 10.1 C 7.47 g/m*3 10.1 C 0 km/h
34 07-05-2009 08:18:35 10.2 C 7.52 g/m*3 10.2 C 0 km/h
35 07-05-2009 08:33:35 10.7 C 7.66 g/m*3 10.7 C 0 km/h
36 07-05-2009 08:56:02 11.4 C 7.6 g/m*3 11.4 C 0 km/h
37 07-05-2009 09:11:02 11.9 C 7.63 g/m*3 11.9 C 0 km/h
38 07-05-2009 09:26:02 12.5 C 7.48 g/m*3 12.5 C 0 km/h
39 07-05-2009 09:41:02 13 C 7.37 g/m*3 13 C 0 km/h
40 07-05-2009 09:56:02 13.5 C 7.49 g/m*3 13.5 C 0 km/h
41 07-05-2009 10:11:02 13.8 C 7.51 g/m*3 13.8 C 0 km/h
42 07-05-2009 10:26:02 14.6 C 7.38 g/m*3 14.6 C 0 km/h
43 07-05-2009 10:41:02 15 C 7.05 g/m*3 15 C 0 km/h
44 07-05-2009 10:56:02 15.4 C 7.36 g/m*3 15.4 C 0 km/h
45 07-05-2009 11:11:03 16.1 C 6.99 g/m*3 16.1 C 0 km/h
46 07-05-2009 11:26:03 16.4 C 6.98 g/m*3 16.4 C 0 km/h
47 07-05-2009 11:41:03 16.7 C 7.11 g/m*3 16.7 C 0 km/h
48 07-05-2009 11:56:03 17 C 6.66 g/m*3 17 C 0 km/h
49 07-05-2009 12:11:03 17.6 C 6.45 g/m*3 17.6 C 0 km/h
50 07-05-2009 12:26:03 17.7 C 6.49 g/m*3 17.7 C 0 km/h
Sensor: Nr:Datum:Temp:Abs-Feuchte:Windchill:Wind:
Aussen-T/F 51 07-05-2009 12:41:03 17.2 C 6.3 g/m*3 17.2 C 0 km/h
52 07-05-2009 12:56:03 18.5 C 6.65 g/m*3 18.5 C 0 km/h
53 07-05-2009 13:11:03 19.3 C 6.47 g/m*3 19.3 C 0 km/h
54 07-05-2009 13:26:03 19.7 C 6.28 g/m*3 19.7 C 0 km/h
55 07-05-2009 13:41:03 20.5 C 5.69 g/m*3 20.5 C 0 km/h
56 07-05-2009 13:56:03 20.5 C 5.69 g/m*3 20.5 C 0 km/h
57 07-05-2009 14:11:03 20.5 C 5.52 g/m*3 20.5 C 0 km/h
58 07-05-2009 14:26:03 20.3 C 5.45 g/m*3 20.3 C 0 km/h
59 07-05-2009 14:41:03 20.9 C 5.83 g/m*3 20.9 C 0 km/h
60 07-05-2009 14:56:03 21.5 C 5.85 g/m*3 21.5 C 0 km/h
61 07-05-2009 15:11:03 21.9 C 5.79 g/m*3 21.9 C 0 km/h
62 07-05-2009 15:26:03 22.7 C 5.66 g/m*3 22.7 C 0 km/h
63 07-05-2009 15:41:03 23.1 C 5.17 g/m*3 23.1 C 0 km/h
64 07-05-2009 15:56:04 24.1 C 5.47 g/m*3 24.1 C 0 km/h
65 07-05-2009 16:11:04 23.6 C 5.1 g/m*3 23.6 C 0 km/h
66 07-05-2009 16:26:04 24.5 C 5.6 g/m*3 24.5 C 0 km/h
67 07-05-2009 16:41:04 24.5 C 5.6 g/m*3 24.5 C 0 km/h
68 07-05-2009 16:56:04 24.1 C 5.47 g/m*3 24.1 C 0 km/h
69 07-05-2009 17:11:04 25.1 C 5.56 g/m*3 25.1 C 0 km/h
70 07-05-2009 17:26:04 25.4 C 5.41 g/m*3 25.4 C 0 km/h
71 07-05-2009 17:41:04 24.9 C 5.72 g/m*3 24.9 C 0 km/h
72 07-05-2009 17:56:04 26.4 C 5.73 g/m*3 26.4 C 0 km/h
73 07-05-2009 18:11:04 26 C 5.11 g/m*3 26 C 0 km/h
74 07-05-2009 18:26:04 25.5 C 4.97 g/m*3 25.5 C 0 km/h
75 07-05-2009 18:41:04 25.1 C 5.09 g/m*3 25.1 C 0 km/h
Sensor: Nr:Datum:Temp:Abs-Feuchte:Windchill:Wind:
Aussen-T/F 76 07-05-2009 18:56:04 25 C 5.29 g/m*3 25 C 0 km/h
77 07-05-2009 19:11:04 25.7 C 5.99 g/m*3 25.7 C 0 km/h
78 07-05-2009 19:26:04 26.4 C 5.73 g/m*3 26.4 C 0 km/h
79 07-05-2009 19:41:04 25.9 C 5.57 g/m*3 25.9 C 0 km/h
80 07-05-2009 19:56:04 25.5 C 5.92 g/m*3 25.5 C 0 km/h
81 07-05-2009 20:11:04 25.1 C 6.48 g/m*3 25.1 C 0 km/h
82 07-05-2009 20:26:04 24.1 C 6.56 g/m*3 24.1 C 0 km/h
83 07-05-2009 20:41:04 22.4 C 6.55 g/m*3 22.4 C 0 km/h
84 07-05-2009 20:56:04 20.8 C 6.88 g/m*3 20.8 C 0 km/h
85 07-05-2009 21:11:05 19.9 C 7.39 g/m*3 19.9 C 0 km/h
86 07-05-2009 21:26:05 19.3 C 7.3 g/m*3 19.3 C 0 km/h
87 07-05-2009 21:41:05 18.9 C 7.29 g/m*3 18.9 C 0 km/h
88 07-05-2009 21:56:05 18.6 C 7.32 g/m*3 18.6 C 0 km/h
89 07-05-2009 22:11:05 18.1 C 7.26 g/m*3 18.1 C 0 km/h
90 07-05-2009 22:26:05 17.7 C 7.39 g/m*3 17.7 C 0 km/h
91 07-05-2009 22:41:05 17.2 C 7.47 g/m*3 17.2 C 0 km/h
92 07-05-2009 22:56:05 16.8 C 7.43 g/m*3 16.8 C 0 km/h
93 07-05-2009 23:11:05 16.6 C 7.49 g/m*3 16.6 C 0 km/h
94 07-05-2009 23:26:05 16.4 C 7.68 g/m*3 16.4 C 0 km/h
95 07-05-2009 23:41:05 16 C 7.49 g/m*3 16 C 0 km/h
96 07-05-2009 23:56:05 15.7 C 7.63 g/m*3 15.7 C 0 km/h
97 08-05-2009 00:11:05 15.4 C 7.75 g/m*3 15.4 C 0 km/h
98 08-05-2009 00:26:05 14.8 C 7.85 g/m*3 14.8 C 0 km/h
99 08-05-2009 00:41:05 14.6 C 7.88 g/m*3 14.6 C 0 km/h
100 08-05-2009 00:56:05 14.4 C 7.79 g/m*3 14.4 C 0 km/h
Sensor: Nr:Datum:Temp:Abs-Feuchte:Windchill:Wind:
Aussen-T/F 101 08-05-2009 01:11:05 14.2 C 7.94 g/m*3 14.2 C 0 km/h
102 08-05-2009 01:26:05 13.9 C 8.15 g/m*3 13.9 C 0 km/h
103 08-05-2009 01:41:05 14 C 7.96 g/m*3 14 C 0 km/h
104 08-05-2009 01:56:05 13.6 C 8 g/m*3 13.6 C 0 km/h
105 08-05-2009 02:11:06 13.2 C 7.92 g/m*3 13.2 C 0 km/h
106 08-05-2009 02:26:06 13.1 C 7.99 g/m*3 13.1 C 0 km/h
107 08-05-2009 02:41:06 12.8 C 8.06 g/m*3 12.8 C 0 km/h
108 08-05-2009 02:56:06 12.7 C 8.01 g/m*3 12.7 C 0 km/h
109 08-05-2009 03:11:06 12.5 C 8.03 g/m*3 12.5 C 0 km/h
110 08-05-2009 03:26:06 12.4 C 8.09 g/m*3 12.4 C 0 km/h
111 08-05-2009 03:41:06 12.2 C 8.09 g/m*3 12.2 C 0 km/h
112 08-05-2009 03:56:06 12.4 C 8.09 g/m*3 12.4 C 0 km/h
113 08-05-2009 04:11:06 12.1 C 8.04 g/m*3 12.1 C 0 km/h
114 08-05-2009 04:26:06 12.1 C 8.04 g/m*3 12.1 C 0 km/h
115 08-05-2009 04:41:06 12.4 C 8.19 g/m*3 12.4 C 0 km/h
116 08-05-2009 04:56:06 12.2 C 8.2 g/m*3 12.2 C 0 km/h
117 08-05-2009 05:11:06 11.5 C 8.57 g/m*3 11.5 C 0 km/h
118 08-05-2009 05:26:06 11.7 C 9.2 g/m*3 11.7 C 0 km/h
119 08-05-2009 05:41:06 12 C 9.48 g/m*3 12 C 0 km/h
120 08-05-2009 05:56:06 12.6 C 10.07 g/m*3 12.6 C 0 km/h
121 08-05-2009 06:11:06 13.3 C 10.4 g/m*3 13.3 C 0 km/h
122 08-05-2009 06:26:06 13.5 C 10.18 g/m*3 13.5 C 0 km/h
123 08-05-2009 06:41:06 13.3 C 9.94 g/m*3 13.3 C 0 km/h
124 08-05-2009 06:56:06 13.2 C 9.99 g/m*3 13.2 C 0 km/h
125 08-05-2009 07:11:06 13 C 9.98 g/m*3 13 C 0 km/h
Sensor: Nr:Datum:Temp:Abs-Feuchte:Windchill:Wind:
Aussen-T/F 126 08-05-2009 07:26:07 13.1 C 10.16 g/m*3 13.1 C 0 km/h
127 08-05-2009 07:41:07 12.6 C 10.07 g/m*3 12.6 C 0 km/h
128 08-05-2009 07:56:07 13.4 C 10.58 g/m*3 13.4 C 0 km/h
129 08-05-2009 08:11:07 13.9 C 10.91 g/m*3 13.9 C 0 km/h
130 08-05-2009 08:26:07 14.4 C 11.13 g/m*3 14.4 C 0 km/h
131 08-05-2009 08:41:07 15 C 11.28 g/m*3 15 C 0 km/h
132 08-05-2009 08:56:07 15.5 C 11.24 g/m*3 15.5 C 0 km/h
133 08-05-2009 09:11:07 16.2 C 11.17 g/m*3 16.2 C 0 km/h
134 08-05-2009 09:26:07 16.6 C 11.3 g/m*3 16.6 C 0 km/h
135 08-05-2009 09:41:07 15.2 C 10.12 g/m*3 15.2 C 0 km/h
136 08-05-2009 09:56:07 15.1 C 10.45 g/m*3 15.1 C 0 km/h
137 08-05-2009 10:11:07 16 C 10.63 g/m*3 16 C 0 km/h
138 08-05-2009 10:26:07 16.3 C 10.41 g/m*3 16.3 C 0 km/h
139 08-05-2009 10:41:07 17 C 10.56 g/m*3 17 C 0 km/h
140 08-05-2009 10:56:07 18.1 C 10.35 g/m*3 18.1 C 0 km/h
141 08-05-2009 11:11:07 18.4 C 10.38 g/m*3 18.4 C 0 km/h
142 08-05-2009 11:26:07 18.9 C 10.04 g/m*3 18.9 C 0 km/h
143 08-05-2009 11:41:07 19.4 C 9.51 g/m*3 19.4 C 0 km/h
144 08-05-2009 11:56:07 19.5 C 9.4 g/m*3 19.5 C 0 km/h
145 08-05-2009 12:11:07 19.9 C 9.45 g/m*3 19.9 C 0 km/h
146 08-05-2009 12:26:08 20.5 C 9.25 g/m*3 20.5 C 0 km/h
147 08-05-2009 12:41:08 20 C 9.16 g/m*3 20 C 0 km/h
148 08-05-2009 12:56:08 20.1 C 9.04 g/m*3 20.1 C 0 km/h
149 08-05-2009 13:11:08 20 C 8.99 g/m*3 20 C 0 km/h
150 08-05-2009 13:26:08 20.2 C 8.92 g/m*3 20.2 C 0 km/h
Sensor: Nr:Datum:Temp:Abs-Feuchte:Windchill:Wind:
Aussen-T/F 151 08-05-2009 13:41:08 19.9 C 9.11 g/m*3 19.9 C 0 km/h
152 08-05-2009 13:56:08 21 C 8.98 g/m*3 21 C 0 km/h
153 08-05-2009 14:11:08 21 C 8.79 g/m*3 21 C 0 km/h
154 08-05-2009 14:26:08 21.2 C 8.52 g/m*3 21.2 C 0 km/h
155 08-05-2009 14:41:08 22.3 C 8.49 g/m*3 22.3 C 0 km/h
156 08-05-2009 14:56:08 22 C 8.15 g/m*3 22 C 0 km/h
157 08-05-2009 15:11:08 21.9 C 8.1 g/m*3 21.9 C 0 km/h
158 08-05-2009 15:26:08 22 C 7.96 g/m*3 22 C 0 km/h
159 08-05-2009 15:41:08 21.9 C 7.72 g/m*3 21.9 C 0 km/h
160 08-05-2009 15:56:08 21.1 C 7 g/m*3 21.1 C 0 km/h
161 08-05-2009 16:11:08 21.8 C 7.1 g/m*3 21.8 C 0 km/h
162 08-05-2009 16:26:08 21.3 C 6.71 g/m*3 21.3 C 0 km/h
163 08-05-2009 16:41:08 22.4 C 6.36 g/m*3 22.4 C 0 km/h
164 08-05-2009 16:56:08 22.2 C 6.48 g/m*3 22.2 C 0 km/h
165 08-05-2009 17:11:08 21.5 C 6.03 g/m*3 21.5 C 0 km/h
166 08-05-2009 17:26:08 20.9 C 6.37 g/m*3 20.9 C 0 km/h
167 08-05-2009 17:41:09 20.8 C 6.52 g/m*3 20.8 C 0 km/h
168 08-05-2009 17:56:09 21.1 C 6.45 g/m*3 21.1 C 0 km/h
169 08-05-2009 18:11:09 21.7 C 6.29 g/m*3 21.7 C 0 km/h
170 08-05-2009 18:26:09 21.4 C 6.37 g/m*3 21.4 C 0 km/h
171 08-05-2009 18:41:09 20.7 C 6.3 g/m*3 20.7 C 0 km/h
172 08-05-2009 18:56:09 19.6 C 6.42 g/m*3 19.6 C 0 km/h
173 08-05-2009 19:11:09 20.2 C 6.47 g/m*3 20.2 C 0 km/h
174 08-05-2009 19:26:09 20 C 6.39 g/m*3 20 C 0 km/h
175 08-05-2009 19:41:09 19.1 C 6.23 g/m*3 19.1 C 0 km/h
Sensor: Nr:Datum:Temp:Abs-Feuchte:Windchill:Wind:
Aussen-T/F 176 08-05-2009 19:56:09 18.3 C 5.79 g/m*3 18.3 C 0 km/h
177 08-05-2009 20:11:09 17.8 C 5.01 g/m*3 17.8 C 0 km/h
178 08-05-2009 20:26:09 17.7 C 5.28 g/m*3 17.7 C 0 km/h
179 08-05-2009 20:41:09 17.3 C 5.6 g/m*3 17.3 C 0 km/h
180 08-05-2009 20:56:09 16.9 C 5.75 g/m*3 16.9 C 0 km/h
181 08-05-2009 21:11:09 16.3 C 5.83 g/m*3 16.3 C 0 km/h
182 08-05-2009 21:26:09 15.8 C 6.19 g/m*3 15.8 C 0 km/h
183 08-05-2009 21:41:09 15.4 C 6.44 g/m*3 15.4 C 0 km/h
184 08-05-2009 21:56:09 14.7 C 6.55 g/m*3 14.7 C 0 km/h
185 08-05-2009 22:11:09 14.3 C 6.76 g/m*3 14.3 C 0 km/h
186 08-05-2009 22:26:10 14.1 C 6.67 g/m*3 14.1 C 0 km/h
187 08-05-2009 22:41:10 14.2 C 6.47 g/m*3 14.2 C 0 km/h
188 08-05-2009 22:56:10 13.9 C 6.23 g/m*3 13.9 C 0 km/h
189 08-05-2009 23:11:10 13.5 C 6.55 g/m*3 13.5 C 0 km/h
190 08-05-2009 23:26:10 13 C 6.24 g/m*3 13 C 0 km/h
191 08-05-2009 23:41:10 12.7 C 6.23 g/m*3 12.7 C 0 km/h
192 08-05-2009 23:56:10 12.4 C 6.12 g/m*3 12.4 C 0 km/h
193 09-05-2009 00:11:10 12.1 C 6.11 g/m*3 12.1 C 0 km/h
194 09-05-2009 00:26:10 11.7 C 6.38 g/m*3 11.7 C 0 km/h
195 09-05-2009 00:41:10 11.4 C 6.57 g/m*3 11.4 C 0 km/h
196 09-05-2009 00:56:10 11 C 6.71 g/m*3 11 C 0 km/h
197 09-05-2009 01:11:10 10.8 C 6.72 g/m*3 10.8 C 0 km/h
198 09-05-2009 01:26:10 10.5 C 6.6 g/m*3 10.5 C 0 km/h
199 09-05-2009 01:41:10 10.2 C 6.66 g/m*3 10.2 C 0 km/h
200 09-05-2009 01:56:10 9.9 C 6.82 g/m*3 9.9 C 0 km/h
Sensor: Nr:Datum:Temp:Abs-Feuchte:Windchill:Wind:
Aussen-T/F 201 09-05-2009 02:11:10 9.7 C 6.82 g/m*3 9.7 C 0 km/h
202 09-05-2009 02:26:10 9.5 C 6.83 g/m*3 9.5 C 0 km/h
203 09-05-2009 02:41:10 9.3 C 6.74 g/m*3 9.3 C 0 km/h
204 09-05-2009 02:56:10 9.1 C 6.65 g/m*3 9.1 C 0 km/h
205 09-05-2009 03:11:11 8.9 C 6.75 g/m*3 8.9 C 0 km/h
206 09-05-2009 03:26:11 8.6 C 6.7 g/m*3 8.6 C 0 km/h
207 09-05-2009 03:41:11 8.4 C 6.7 g/m*3 8.4 C 0 km/h
208 09-05-2009 03:56:11 8.1 C 6.57 g/m*3 8.1 C 0 km/h
209 09-05-2009 04:11:11 8 C 6.53 g/m*3 8 C 0 km/h
210 09-05-2009 04:26:11 7.9 C 6.65 g/m*3 7.9 C 0 km/h
211 09-05-2009 04:41:11 7.8 C 6.61 g/m*3 7.8 C 0 km/h
212 09-05-2009 04:56:11 7.5 C 6.64 g/m*3 7.5 C 0 km/h
213 09-05-2009 05:11:11 7.4 C 6.6 g/m*3 7.4 C 0 km/h
214 09-05-2009 05:26:11 7.5 C 6.64 g/m*3 7.5 C 0 km/h
215 09-05-2009 05:41:11 7.4 C 6.68 g/m*3 7.4 C 0 km/h
216 09-05-2009 05:56:11 7.2 C 6.59 g/m*3 7.2 C 0 km/h
217 09-05-2009 06:11:11 7.1 C 6.55 g/m*3 7.1 C 0 km/h
218 09-05-2009 06:26:11 7.2 C 6.59 g/m*3 7.2 C 0 km/h
219 09-05-2009 06:41:11 7.3 C 6.64 g/m*3 7.3 C 0 km/h
220 09-05-2009 06:56:11 7.7 C 6.81 g/m*3 7.7 C 0 km/h
221 09-05-2009 07:11:11 7.8 C 6.77 g/m*3 7.8 C 0 km/h
222 09-05-2009 07:26:11 8 C 6.78 g/m*3 8 C 0 km/h
223 09-05-2009 07:41:11 7.8 C 6.77 g/m*3 7.8 C 0 km/h
224 09-05-2009 07:56:12 8.3 C 6.91 g/m*3 8.3 C 0 km/h
225 09-05-2009 08:11:12 9 C 6.96 g/m*3 9 C 0 km/h
Sensor: Nr:Datum:Temp:Abs-Feuchte:Windchill:Wind:
Aussen-T/F 226 09-05-2009 08:26:12 9.5 C 6.92 g/m*3 9.5 C 0 km/h
227 09-05-2009 08:41:12 10.2 C 6.95 g/m*3 10.2 C 0 km/h
228 09-05-2009 08:56:12 10.7 C 6.97 g/m*3 10.7 C 0 km/h
229 09-05-2009 09:11:12 11.4 C 7.19 g/m*3 11.4 C 0 km/h
230 09-05-2009 09:26:12 12.1 C 7.18 g/m*3 12.1 C 0 km/h
231 09-05-2009 09:41:12 11.9 C 7.1 g/m*3 11.9 C 0 km/h
232 09-05-2009 09:56:12 12.6 C 7.3 g/m*3 12.6 C 0 km/h
233 09-05-2009 10:11:12 13.5 C 7.25 g/m*3 13.5 C 0 km/h
234 09-05-2009 10:26:12 14.3 C 7.25 g/m*3 14.3 C 0 km/h
235 09-05-2009 10:41:12 15 C 7.31 g/m*3 15 C 0 km/h
236 09-05-2009 10:56:12 16.1 C 7.26 g/m*3 16.1 C 0 km/h
237 09-05-2009 11:11:12 16.4 C 6.98 g/m*3 16.4 C 0 km/h
238 09-05-2009 11:26:12 17.3 C 6.78 g/m*3 17.3 C 0 km/h
239 09-05-2009 11:41:12 18 C 6.6 g/m*3 18 C 0 km/h
240 09-05-2009 11:56:12 18.6 C 6.53 g/m*3 18.6 C 0 km/h
241 09-05-2009 12:11:12 18.4 C 6.76 g/m*3 18.4 C 0 km/h
242 09-05-2009 12:26:12 18.7 C 6.72 g/m*3 18.7 C 0 km/h
243 09-05-2009 12:41:12 19.5 C 7.05 g/m*3 19.5 C 0 km/h
244 09-05-2009 12:56:13 19.3 C 6.47 g/m*3 19.3 C 0 km/h
245 09-05-2009 13:11:13 19.5 C 6.71 g/m*3 19.5 C 0 km/h
246 09-05-2009 13:26:13 20.1 C 6.43 g/m*3 20.1 C 0 km/h
247 09-05-2009 13:41:13 20.4 C 6.55 g/m*3 20.4 C 0 km/h
248 09-05-2009 13:56:13 21.1 C 6.45 g/m*3 21.1 C 0 km/h
249 09-05-2009 14:11:13 20.1 C 6.43 g/m*3 20.1 C 0 km/h
250 09-05-2009 14:26:13 19.8 C 7 g/m*3 19.8 C 0 km/h
Sensor: Nr:Datum:Temp:Abs-Feuchte:Windchill:Wind:
Aussen-T/F 251 09-05-2009 14:41:13 20.6 C 6.62 g/m*3 20.6 C 0 km/h
252 09-05-2009 14:56:13 21.1 C 6.63 g/m*3 21.1 C 0 km/h
253 09-05-2009 15:11:13 20.8 C 6.7 g/m*3 20.8 C 0 km/h
254 09-05-2009 15:26:13 20.4 C 6.9 g/m*3 20.4 C 0 km/h
255 09-05-2009 15:41:13 20.1 C 6.95 g/m*3 20.1 C 0 km/h
256 09-05-2009 15:56:13 20.8 C 7.06 g/m*3 20.8 C 0 km/h
257 09-05-2009 16:11:13 22.6 C 7.23 g/m*3 22.6 C 0 km/h
258 09-05-2009 16:26:13 22.7 C 7.07 g/m*3 22.7 C 0 km/h
259 09-05-2009 16:41:13 22.7 C 7.07 g/m*3 22.7 C 0 km/h
260 09-05-2009 16:56:13 22.6 C 7.63 g/m*3 22.6 C 0 km/h
261 09-05-2009 17:11:13 23.4 C 7.36 g/m*3 23.4 C 0 km/h
262 09-05-2009 17:26:13 23.5 C 6.98 g/m*3 23.5 C 0 km/h
263 09-05-2009 17:41:13 23.2 C 7.28 g/m*3 23.2 C 0 km/h
264 09-05-2009 17:56:14 22.4 C 7.35 g/m*3 22.4 C 0 km/h
265 09-05-2009 18:11:14 21.2 C 7.78 g/m*3 21.2 C 0 km/h
266 09-05-2009 18:26:14 21.3 C 8.2 g/m*3 21.3 C 0 km/h
267 09-05-2009 18:41:14 21.8 C 7.87 g/m*3 21.8 C 0 km/h
268 09-05-2009 18:56:14 20.9 C 8.2 g/m*3 20.9 C 0 km/h
269 09-05-2009 19:11:14 20.1 C 8.69 g/m*3 20.1 C 0 km/h
270 09-05-2009 19:26:14 17.8 C 10.47 g/m*3 17.8 C 0 km/h
271 09-05-2009 19:41:14 17 C 10.56 g/m*3 17 C 0 km/h
272 09-05-2009 19:56:14 17 C 10.56 g/m*3 17 C 0 km/h
273 09-05-2009 20:11:14 16.8 C 10.72 g/m*3 16.8 C 0 km/h
274 09-05-2009 20:26:14 15.6 C 10.91 g/m*3 15.6 C 0 km/h
275 09-05-2009 20:41:14 15.3 C 11.1 g/m*3 15.3 C 0 km/h
Sensor: Nr:Datum:Temp:Abs-Feuchte:Windchill:Wind:
Aussen-T/F 276 09-05-2009 20:56:14 14.9 C 11.22 g/m*3 14.9 C 0 km/h
277 09-05-2009 21:11:14 13.9 C 10.67 g/m*3 13.9 C 0 km/h
278 09-05-2009 21:26:14 13.4 C 10.46 g/m*3 13.4 C 0 km/h
279 09-05-2009 21:41:14 13.4 C 10.69 g/m*3 13.4 C 0 km/h
280 09-05-2009 21:56:14 13.4 C 10.81 g/m*3 13.4 C 0 km/h
281 09-05-2009 22:11:14 13.5 C 10.88 g/m*3 13.5 C 0 km/h
282 09-05-2009 22:26:14 13.5 C 10.88 g/m*3 13.5 C 0 km/h
283 09-05-2009 22:41:14 13 C 10.55 g/m*3 13 C 0 km/h
284 09-05-2009 22:56:15 13.3 C 10.86 g/m*3 13.3 C 0 km/h
285 09-05-2009 23:11:15 13.2 C 10.79 g/m*3 13.2 C 0 km/h
286 09-05-2009 23:26:15 13.1 C 10.73 g/m*3 13.1 C 0 km/h
287 09-05-2009 23:41:15 13.1 C 10.73 g/m*3 13.1 C 0 km/h
288 09-05-2009 23:56:15 13.2 C 10.79 g/m*3 13.2 C 0 km/h
289 10-05-2009 00:11:15 13.1 C 10.73 g/m*3 13.1 C 0 km/h
290 10-05-2009 00:26:15 13 C 10.66 g/m*3 13 C 0 km/h
291 10-05-2009 00:41:15 13 C 10.66 g/m*3 13 C 0 km/h
292 10-05-2009 00:56:15 13 C 10.66 g/m*3 13 C 0 km/h
293 10-05-2009 01:11:15 13 C 10.66 g/m*3 13 C 0 km/h
294 10-05-2009 01:26:15 12.9 C 10.71 g/m*3 12.9 C 0 km/h
295 10-05-2009 01:41:15 12.9 C 10.71 g/m*3 12.9 C 0 km/h
296 10-05-2009 01:56:15 12.9 C 10.71 g/m*3 12.9 C 0 km/h
297 10-05-2009 02:11:15 12.8 C 10.64 g/m*3 12.8 C 0 km/h
298 10-05-2009 02:26:15 12.6 C 10.51 g/m*3 12.6 C 0 km/h
299 10-05-2009 02:41:15 12.6 C 10.51 g/m*3 12.6 C 0 km/h
300 10-05-2009 02:56:15 12.5 C 10.44 g/m*3 12.5 C 0 km/h
Sensor: Nr:Datum:Temp:Abs-Feuchte:Windchill:Wind:
Aussen-T/F 301 10-05-2009 03:11:15 12.5 C 10.44 g/m*3 12.5 C 0 km/h
302 10-05-2009 03:26:15 12.5 C 10.44 g/m*3 12.5 C 0 km/h
303 10-05-2009 03:41:15 12.3 C 10.32 g/m*3 12.3 C 0 km/h
304 10-05-2009 03:56:16 12.2 C 10.25 g/m*3 12.2 C 0 km/h
305 10-05-2009 04:11:16 12.2 C 10.25 g/m*3 12.2 C 0 km/h
306 10-05-2009 04:26:16 12.3 C 10.32 g/m*3 12.3 C 0 km/h
307 10-05-2009 04:41:16 12.2 C 10.25 g/m*3 12.2 C 0 km/h
308 10-05-2009 04:56:16 12.2 C 10.25 g/m*3 12.2 C 0 km/h
309 10-05-2009 05:11:16 12.2 C 10.25 g/m*3 12.2 C 0 km/h
310 10-05-2009 05:26:16 12 C 10.12 g/m*3 12 C 0 km/h
311 10-05-2009 05:41:16 11.8 C 10 g/m*3 11.8 C 0 km/h
312 10-05-2009 05:56:16 12 C 10.12 g/m*3 12 C 0 km/h
313 10-05-2009 06:11:16 12 C 10.12 g/m*3 12 C 0 km/h
314 10-05-2009 06:26:16 12.2 C 10.25 g/m*3 12.2 C 0 km/h
315 10-05-2009 06:41:16 12.4 C 10.38 g/m*3 12.4 C 0 km/h
316 10-05-2009 06:56:16 12.7 C 10.58 g/m*3 12.7 C 0 km/h
317 10-05-2009 07:11:16 12.9 C 10.71 g/m*3 12.9 C 0 km/h
318 10-05-2009 07:26:16 13.1 C 10.84 g/m*3 13.1 C 0 km/h
319 10-05-2009 07:41:16 13.1 C 10.84 g/m*3 13.1 C 0 km/h
320 10-05-2009 07:56:16 13.1 C 10.84 g/m*3 13.1 C 0 km/h
321 10-05-2009 08:11:16 13.3 C 10.98 g/m*3 13.3 C 0 km/h
322 10-05-2009 08:26:16 13.3 C 10.86 g/m*3 13.3 C 0 km/h
323 10-05-2009 08:41:16 13.4 C 10.81 g/m*3 13.4 C 0 km/h
324 10-05-2009 08:56:17 13.8 C 10.84 g/m*3 13.8 C 0 km/h
325 10-05-2009 09:11:17 14.4 C 10.38 g/m*3 14.4 C 0 km/h
Sensor: Nr:Datum:Temp:Abs-Feuchte:Windchill:Wind:
Aussen-T/F 326 10-05-2009 09:26:17 14.5 C 9.83 g/m*3 14.5 C 0 km/h
327 10-05-2009 09:41:17 15.4 C 9.99 g/m*3 15.4 C 0 km/h
328 10-05-2009 09:56:17 15.5 C 9.78 g/m*3 15.5 C 0 km/h
329 10-05-2009 10:11:17 15.5 C 9.78 g/m*3 15.5 C 0 km/h
330 10-05-2009 10:26:17 15.8 C 9.83 g/m*3 15.8 C 0 km/h
331 10-05-2009 10:41:17 16.3 C 9.99 g/m*3 16.3 C 0 km/h
332 10-05-2009 10:56:17 16.8 C 9.58 g/m*3 16.8 C 0 km/h
333 10-05-2009 11:11:17 17.5 C 9.69 g/m*3 17.5 C 0 km/h
334 10-05-2009 11:26:17 17.7 C 8.75 g/m*3 17.7 C 0 km/h
335 10-05-2009 11:41:17 18.5 C 7.28 g/m*3 18.5 C 0 km/h
336 10-05-2009 11:56:17 18.9 C 6.32 g/m*3 18.9 C 0 km/h
337 10-05-2009 12:11:17 19.3 C 5.97 g/m*3 19.3 C 0 km/h
338 10-05-2009 12:26:17 19.9 C 6.01 g/m*3 19.9 C 0 km/h
339 10-05-2009 12:41:17 20.8 C 5.79 g/m*3 20.8 C 0 km/h
340 10-05-2009 12:56:17 21.6 C 5.5 g/m*3 21.6 C 0 km/h
341 10-05-2009 13:11:17 22.2 C 4.91 g/m*3 22.2 C 0 km/h
342 10-05-2009 13:26:17 22.6 C 5.22 g/m*3 22.6 C 0 km/h
343 10-05-2009 13:41:17 22.5 C 5.19 g/m*3 22.5 C 0 km/h
344 10-05-2009 13:56:18 21.8 C 5.76 g/m*3 21.8 C 0 km/h
345 10-05-2009 14:11:18 22.4 C 5.76 g/m*3 22.4 C 0 km/h
346 10-05-2009 14:26:18 23.4 C 5.89 g/m*3 23.4 C 0 km/h
347 10-05-2009 14:41:18 23.5 C 5.5 g/m*3 23.5 C 0 km/h
348 10-05-2009 14:56:18 23.9 C 5.62 g/m*3 23.9 C 0 km/h
349 10-05-2009 15:11:18 24.9 C 5.72 g/m*3 24.9 C 0 km/h
350 10-05-2009 15:26:18 25.3 C 5.15 g/m*3 25.3 C 0 km/h
Sensor: Nr:Datum:Temp:Abs-Feuchte:Windchill:Wind:
Aussen-T/F 351 10-05-2009 15:41:18 25.4 C 5.41 g/m*3 25.4 C 0 km/h
352 10-05-2009 15:56:18 26.3 C 5.2 g/m*3 26.3 C 0 km/h
353 10-05-2009 16:11:18 25.8 C 4.82 g/m*3 25.8 C 0 km/h
354 10-05-2009 16:26:18 26.8 C 5.09 g/m*3 26.8 C 0 km/h
355 10-05-2009 16:41:18 27.9 C 5.41 g/m*3 27.9 C 0 km/h
356 10-05-2009 16:56:18 28.1 C 5.47 g/m*3 28.1 C 0 km/h
357 10-05-2009 17:11:18 28.3 C 5.53 g/m*3 28.3 C 0 km/h
358 10-05-2009 17:26:18 27.7 C 5.35 g/m*3 27.7 C 0 km/h
359 10-05-2009 17:41:18 27.4 C 5.26 g/m*3 27.4 C 0 km/h
360 10-05-2009 17:56:18 27.5 C 5.29 g/m*3 27.5 C 0 km/h
361 10-05-2009 18:11:18 26.6 C 5.03 g/m*3 26.6 C 0 km/h
362 10-05-2009 18:26:18 25.5 C 5.92 g/m*3 25.5 C 0 km/h
363 10-05-2009 18:41:19 24.6 C 6.98 g/m*3 24.6 C 0 km/h
364 10-05-2009 18:56:19 24.5 C 6.71 g/m*3 24.5 C 0 km/h
365 10-05-2009 19:11:19 23.4 C 6.94 g/m*3 23.4 C 0 km/h
366 10-05-2009 19:26:19 22.5 C 7.39 g/m*3 22.5 C 0 km/h
367 10-05-2009 19:41:19 21.5 C 7.73 g/m*3 21.5 C 0 km/h
368 10-05-2009 19:56:19 20.8 C 7.79 g/m*3 20.8 C 0 km/h
369 10-05-2009 20:11:19 20.1 C 7.65 g/m*3 20.1 C 0 km/h
370 10-05-2009 20:26:19 19.6 C 7.6 g/m*3 19.6 C 0 km/h
371 10-05-2009 20:41:19 19.2 C 7.75 g/m*3 19.2 C 0 km/h
372 10-05-2009 20:56:19 19.1 C 7.7 g/m*3 19.1 C 0 km/h
373 10-05-2009 21:11:19 18.9 C 7.78 g/m*3 18.9 C 0 km/h
374 10-05-2009 21:26:19 18.1 C 8.03 g/m*3 18.1 C 0 km/h
375 10-05-2009 21:41:19 18.3 C 8.29 g/m*3 18.3 C 0 km/h
Sensor: Nr:Datum:Temp:Abs-Feuchte:Windchill:Wind:
Aussen-T/F 376 10-05-2009 21:56:19 16.7 C 9.81 g/m*3 16.7 C 0 km/h
377 10-05-2009 22:11:19 15.7 C 10.44 g/m*3 15.7 C 0 km/h
378 10-05-2009 22:26:19 15.7 C 11.24 g/m*3 15.7 C 0 km/h
379 10-05-2009 22:41:19 15.6 C 11.57 g/m*3 15.6 C 0 km/h
380 10-05-2009 22:56:19 15.6 C 11.84 g/m*3 15.6 C 0 km/h
381 10-05-2009 23:11:19 15.4 C 11.82 g/m*3 15.4 C 0 km/h
382 10-05-2009 23:26:20 15.4 C 11.96 g/m*3 15.4 C 0 km/h
383 10-05-2009 23:41:20 15.2 C 11.81 g/m*3 15.2 C 0 km/h
384 10-05-2009 23:56:20 15.1 C 11.74 g/m*3 15.1 C 0 km/h
385 11-05-2009 00:11:20 15.1 C 11.87 g/m*3 15.1 C 0 km/h
386 11-05-2009 00:26:20 15.2 C 11.94 g/m*3 15.2 C 0 km/h
387 11-05-2009 00:41:20 14.8 C 11.78 g/m*3 14.8 C 0 km/h
388 11-05-2009 00:56:20 14.7 C 11.71 g/m*3 14.7 C 0 km/h
389 11-05-2009 01:11:20 14.5 C 11.57 g/m*3 14.5 C 0 km/h
390 11-05-2009 01:26:20 14.6 C 11.64 g/m*3 14.6 C 0 km/h
391 11-05-2009 01:41:20 14.6 C 11.64 g/m*3 14.6 C 0 km/h
392 11-05-2009 01:56:20 14.6 C 11.64 g/m*3 14.6 C 0 km/h
393 11-05-2009 02:11:20 14.5 C 11.57 g/m*3 14.5 C 0 km/h
394 11-05-2009 02:26:20 14.5 C 11.57 g/m*3 14.5 C 0 km/h
395 11-05-2009 02:41:20 14.4 C 11.5 g/m*3 14.4 C 0 km/h
396 11-05-2009 02:56:20 14.3 C 11.43 g/m*3 14.3 C 0 km/h
397 11-05-2009 03:11:20 14.4 C 11.5 g/m*3 14.4 C 0 km/h
398 11-05-2009 03:26:20 14.4 C 11.5 g/m*3 14.4 C 0 km/h
399 11-05-2009 03:41:20 14.4 C 11.62 g/m*3 14.4 C 0 km/h
400 11-05-2009 03:56:20 14 C 11.22 g/m*3 14 C 0 km/h
Sensor: Nr:Datum:Temp:Abs-Feuchte:Windchill:Wind:
Aussen-T/F 401 11-05-2009 04:11:20 13.7 C 11.13 g/m*3 13.7 C 0 km/h
402 11-05-2009 04:26:21 13.5 C 10.99 g/m*3 13.5 C 0 km/h
403 11-05-2009 04:41:21 13.5 C 10.99 g/m*3 13.5 C 0 km/h
404 11-05-2009 04:56:21 13.4 C 10.93 g/m*3 13.4 C 0 km/h
405 11-05-2009 05:11:21 13.5 C 10.99 g/m*3 13.5 C 0 km/h
406 11-05-2009 05:26:21 13.7 C 11.25 g/m*3 13.7 C 0 km/h
407 11-05-2009 05:41:21 13.6 C 11.18 g/m*3 13.6 C 0 km/h
408 11-05-2009 05:56:21 13.2 C 10.79 g/m*3 13.2 C 0 km/h
409 11-05-2009 06:11:21 13.1 C 10.73 g/m*3 13.1 C 0 km/h
410 11-05-2009 06:26:21 13.4 C 11.04 g/m*3 13.4 C 0 km/h
411 11-05-2009 06:41:21 13.3 C 10.98 g/m*3 13.3 C 0 km/h
412 11-05-2009 06:56:21 13.4 C 11.04 g/m*3 13.4 C 0 km/h
413 11-05-2009 07:11:21 13.4 C 11.04 g/m*3 13.4 C 0 km/h
414 11-05-2009 07:26:21 13.5 C 11.11 g/m*3 13.5 C 0 km/h
415 11-05-2009 07:41:21 13.7 C 11.25 g/m*3 13.7 C 0 km/h
416 11-05-2009 07:56:21 13.6 C 11.18 g/m*3 13.6 C 0 km/h
417 11-05-2009 08:11:21 13.6 C 11.18 g/m*3 13.6 C 0 km/h
418 11-05-2009 08:26:21 13.7 C 11.25 g/m*3 13.7 C 0 km/h
419 11-05-2009 08:41:21 13.6 C 11.18 g/m*3 13.6 C 0 km/h
420 11-05-2009 08:56:21 13.5 C 11.11 g/m*3 13.5 C 0 km/h
421 11-05-2009 09:11:21 13.7 C 11.25 g/m*3 13.7 C 0 km/h
422 11-05-2009 09:26:21 14 C 11.46 g/m*3 14 C 0 km/h
423 11-05-2009 09:41:22 14.1 C 11.53 g/m*3 14.1 C 0 km/h
424 11-05-2009 09:56:22 14.1 C 11.53 g/m*3 14.1 C 0 km/h
425 11-05-2009 10:11:22 14.2 C 11.6 g/m*3 14.2 C 0 km/h
Sensor: Nr:Datum:Temp:Abs-Feuchte:Windchill:Wind:
Aussen-T/F 426 11-05-2009 10:26:22 14.5 C 11.82 g/m*3 14.5 C 0 km/h
427 11-05-2009 10:41:22 14.1 C 11.53 g/m*3 14.1 C 0 km/h
428 11-05-2009 10:56:22 14 C 11.46 g/m*3 14 C 0 km/h
429 11-05-2009 11:11:22 14.4 C 11.74 g/m*3 14.4 C 0 km/h
430 11-05-2009 11:26:22 14.4 C 11.74 g/m*3 14.4 C 0 km/h
431 11-05-2009 11:41:22 14.5 C 11.82 g/m*3 14.5 C 0 km/h
432 11-05-2009 11:56:22 14.6 C 11.89 g/m*3 14.6 C 0 km/h
433 11-05-2009 12:11:22 14.6 C 11.76 g/m*3 14.6 C 0 km/h
434 11-05-2009 12:26:22 14.5 C 11.69 g/m*3 14.5 C 0 km/h
435 11-05-2009 12:41:22 14.5 C 11.69 g/m*3 14.5 C 0 km/h
436 11-05-2009 12:56:22 14.3 C 11.43 g/m*3 14.3 C 0 km/h
437 11-05-2009 13:11:22 14.1 C 11.41 g/m*3 14.1 C 0 km/h
438 11-05-2009 13:26:22 13.7 C 11.13 g/m*3 13.7 C 0 km/h
439 11-05-2009 13:41:22 13.8 C 11.2 g/m*3 13.8 C 0 km/h
440 11-05-2009 13:56:22 13.8 C 11.2 g/m*3 13.8 C 0 km/h
441 11-05-2009 14:11:22 14 C 11.34 g/m*3 14 C 0 km/h
442 11-05-2009 14:26:22 13.8 C 11.2 g/m*3 13.8 C 0 km/h
443 11-05-2009 14:41:23 13.9 C 11.27 g/m*3 13.9 C 0 km/h
444 11-05-2009 14:56:23 13.7 C 11.13 g/m*3 13.7 C 0 km/h
445 11-05-2009 15:11:23 13.5 C 10.99 g/m*3 13.5 C 0 km/h
446 11-05-2009 15:26:23 13.3 C 10.74 g/m*3 13.3 C 0 km/h
447 11-05-2009 15:41:23 13.3 C 10.74 g/m*3 13.3 C 0 km/h
448 11-05-2009 15:56:23 13.2 C 10.68 g/m*3 13.2 C 0 km/h
449 11-05-2009 16:11:23 13.4 C 10.81 g/m*3 13.4 C 0 km/h
450 11-05-2009 16:26:23 13.6 C 10.95 g/m*3 13.6 C 0 km/h
Sensor: Nr:Datum:Temp:Abs-Feuchte:Windchill:Wind:
Aussen-T/F 451 11-05-2009 16:41:23 13.7 C 11.01 g/m*3 13.7 C 0 km/h
452 11-05-2009 16:56:23 13.6 C 10.95 g/m*3 13.6 C 0 km/h
453 11-05-2009 17:11:23 13.5 C 10.88 g/m*3 13.5 C 0 km/h
454 11-05-2009 17:26:23 13.5 C 10.88 g/m*3 13.5 C 0 km/h
455 11-05-2009 17:41:23 13.4 C 10.93 g/m*3 13.4 C 0 km/h
456 11-05-2009 17:56:23 13.1 C 10.73 g/m*3 13.1 C 0 km/h
457 11-05-2009 18:11:23 13.2 C 10.79 g/m*3 13.2 C 0 km/h
458 11-05-2009 18:26:23 13.2 C 10.79 g/m*3 13.2 C 0 km/h
459 11-05-2009 18:41:23 13.2 C 10.79 g/m*3 13.2 C 0 km/h
460 11-05-2009 18:56:23 13 C 10.66 g/m*3 13 C 0 km/h
461 11-05-2009 19:11:23 13 C 10.66 g/m*3 13 C 0 km/h
462 11-05-2009 19:26:23 13 C 10.66 g/m*3 13 C 0 km/h
463 11-05-2009 19:41:24 12.8 C 10.64 g/m*3 12.8 C 0 km/h
464 11-05-2009 19:56:24 12.7 C 10.58 g/m*3 12.7 C 0 km/h
465 11-05-2009 20:11:24 12.3 C 10.32 g/m*3 12.3 C 0 km/h
466 11-05-2009 20:26:24 12.3 C 10.32 g/m*3 12.3 C 0 km/h
467 11-05-2009 20:41:24 12.4 C 10.38 g/m*3 12.4 C 0 km/h
468 11-05-2009 20:56:24 12.5 C 10.44 g/m*3 12.5 C 0 km/h
469 11-05-2009 21:11:24 12.6 C 10.51 g/m*3 12.6 C 0 km/h
470 11-05-2009 21:26:24 12.6 C 10.51 g/m*3 12.6 C 0 km/h
471 11-05-2009 21:41:24 12.4 C 10.38 g/m*3 12.4 C 0 km/h
472 11-05-2009 21:56:24 12.3 C 10.32 g/m*3 12.3 C 0 km/h
473 11-05-2009 22:11:24 12.1 C 10.19 g/m*3 12.1 C 0 km/h
474 11-05-2009 22:26:24 12.1 C 10.19 g/m*3 12.1 C 0 km/h
475 11-05-2009 22:41:24 12 C 10.12 g/m*3 12 C 0 km/h
Sensor: Nr:Datum:Temp:Abs-Feuchte:Windchill:Wind:
Aussen-T/F 476 11-05-2009 22:56:24 11.9 C 10.06 g/m*3 11.9 C 0 km/h
477 11-05-2009 23:11:24 12 C 10.12 g/m*3 12 C 0 km/h
478 11-05-2009 23:26:24 12 C 10.12 g/m*3 12 C 0 km/h
479 11-05-2009 23:41:24 12 C 10.12 g/m*3 12 C 0 km/h
480 11-05-2009 23:56:24 12 C 10.12 g/m*3 12 C 0 km/h
481 12-05-2009 00:11:24 11.8 C 10 g/m*3 11.8 C 0 km/h
482 12-05-2009 00:26:24 11.8 C 10 g/m*3 11.8 C 0 km/h
483 12-05-2009 00:41:25 11.8 C 10 g/m*3 11.8 C 0 km/h
484 12-05-2009 00:56:25 11.8 C 10 g/m*3 11.8 C 0 km/h
485 12-05-2009 01:11:25 11.7 C 9.94 g/m*3 11.7 C 0 km/h
486 12-05-2009 01:26:25 11.8 C 10 g/m*3 11.8 C 0 km/h
487 12-05-2009 01:41:25 11.7 C 9.94 g/m*3 11.7 C 0 km/h
488 12-05-2009 01:56:25 11.7 C 9.83 g/m*3 11.7 C 0 km/h
489 12-05-2009 02:11:25 11.7 C 9.83 g/m*3 11.7 C 0 km/h
490 12-05-2009 02:26:25 11.6 C 9.67 g/m*3 11.6 C 0 km/h
491 12-05-2009 02:41:25 11.6 C 9.56 g/m*3 11.6 C 0 km/h
492 12-05-2009 02:56:25 11.5 C 9.5 g/m*3 11.5 C 0 km/h
493 12-05-2009 03:11:25 11.5 C 9.4 g/m*3 11.5 C 0 km/h
494 12-05-2009 03:26:25 11.4 C 9.34 g/m*3 11.4 C 0 km/h
495 12-05-2009 03:41:25 11.4 C 9.14 g/m*3 11.4 C 0 km/h
496 12-05-2009 03:56:25 11.3 C 8.98 g/m*3 11.3 C 0 km/h
497 12-05-2009 04:11:25 11.2 C 8.82 g/m*3 11.2 C 0 km/h
498 12-05-2009 04:26:25 11.1 C 8.66 g/m*3 11.1 C 0 km/h
499 12-05-2009 04:41:25 11.1 C 8.56 g/m*3 11.1 C 0 km/h
500 12-05-2009 04:56:25 11 C 8.41 g/m*3 11 C 0 km/h
Sensor: Nr:Datum:Temp:Abs-Feuchte:Windchill:Wind:
Aussen-T/F 501 12-05-2009 05:11:25 11 C 8.31 g/m*3 11 C 0 km/h
502 12-05-2009 05:26:26 10.9 C 8.16 g/m*3 10.9 C 0 km/h
503 12-05-2009 05:41:26 10.8 C 8.01 g/m*3 10.8 C 0 km/h
504 12-05-2009 05:56:26 10.6 C 8 g/m*3 10.6 C 0 km/h
505 12-05-2009 06:11:26 10.6 C 8 g/m*3 10.6 C 0 km/h
506 12-05-2009 06:26:26 10.7 C 8.05 g/m*3 10.7 C 0 km/h
507 12-05-2009 06:41:26 10.9 C 8.06 g/m*3 10.9 C 0 km/h
508 12-05-2009 06:56:26 11.1 C 8.06 g/m*3 11.1 C 0 km/h
509 12-05-2009 07:11:26 11.4 C 8.11 g/m*3 11.4 C 0 km/h
510 12-05-2009 07:26:26 11.5 C 8.06 g/m*3 11.5 C 0 km/h
511 12-05-2009 07:41:26 11.7 C 8.05 g/m*3 11.7 C 0 km/h
512 12-05-2009 07:56:26 12.1 C 8.04 g/m*3 12.1 C 0 km/h
513 12-05-2009 08:11:26 12.2 C 7.99 g/m*3 12.2 C 0 km/h
514 12-05-2009 08:26:26 12.3 C 7.93 g/m*3 12.3 C 0 km/h
515 12-05-2009 08:41:26 12.6 C 7.97 g/m*3 12.6 C 0 km/h
516 12-05-2009 08:56:26 12.7 C 8.01 g/m*3 12.7 C 0 km/h
517 12-05-2009 09:11:26 12.9 C 8 g/m*3 12.9 C 0 km/h
518 12-05-2009 09:26:26 13.5 C 7.95 g/m*3 13.5 C 0 km/h
519 12-05-2009 09:41:26 14.1 C 7.77 g/m*3 14.1 C 0 km/h
520 12-05-2009 09:56:26 13.6 C 7.77 g/m*3 13.6 C 0 km/h
521 12-05-2009 10:11:27 13.5 C 7.95 g/m*3 13.5 C 0 km/h
522 12-05-2009 10:26:27 13.2 C 7.92 g/m*3 13.2 C 0 km/h
523 12-05-2009 10:41:27 12.5 C 8.36 g/m*3 12.5 C 0 km/h
524 12-05-2009 10:56:27 12 C 8.53 g/m*3 12 C 0 km/h
525 12-05-2009 11:11:27 11.4 C 8.93 g/m*3 11.4 C 0 km/h
Sensor: Nr:Datum:Temp:Abs-Feuchte:Windchill:Wind:
Aussen-T/F 526 12-05-2009 11:26:27 11.4 C 9.24 g/m*3 11.4 C 0 km/h
527 12-05-2009 11:41:27 11.6 C 9.46 g/m*3 11.6 C 0 km/h
528 12-05-2009 11:56:27 11.7 C 9.52 g/m*3 11.7 C 0 km/h
529 12-05-2009 12:11:27 11.8 C 9.68 g/m*3 11.8 C 0 km/h
530 12-05-2009 12:26:27 11.9 C 9.74 g/m*3 11.9 C 0 km/h
531 12-05-2009 12:41:27 11.7 C 9.62 g/m*3 11.7 C 0 km/h
532 12-05-2009 12:56:27 11.8 C 9.68 g/m*3 11.8 C 0 km/h
533 12-05-2009 13:11:27 12.1 C 9.87 g/m*3 12.1 C 0 km/h
534 12-05-2009 13:26:27 12 C 9.8 g/m*3 12 C 0 km/h
535 12-05-2009 13:41:27 11.8 C 9.79 g/m*3 11.8 C 0 km/h
536 12-05-2009 13:56:27 12.1 C 9.97 g/m*3 12.1 C 0 km/h
537 12-05-2009 14:11:27 12.3 C 10.1 g/m*3 12.3 C 0 km/h
538 12-05-2009 14:26:27 12 C 9.91 g/m*3 12 C 0 km/h
539 12-05-2009 14:41:27 11.8 C 9.79 g/m*3 11.8 C 0 km/h
540 12-05-2009 14:56:28 12.2 C 10.04 g/m*3 12.2 C 0 km/h
541 12-05-2009 15:11:28 12.3 C 9.99 g/m*3 12.3 C 0 km/h
542 12-05-2009 15:26:28 12.5 C 9.89 g/m*3 12.5 C 0 km/h
543 12-05-2009 15:41:28 12.6 C 9.51 g/m*3 12.6 C 0 km/h
544 12-05-2009 15:56:28 12.5 C 9.35 g/m*3 12.5 C 0 km/h
545 12-05-2009 16:11:28 12.4 C 9.18 g/m*3 12.4 C 0 km/h
546 12-05-2009 16:26:28 12.2 C 9.17 g/m*3 12.2 C 0 km/h
547 12-05-2009 16:41:28 12 C 9.17 g/m*3 12 C 0 km/h
548 12-05-2009 16:56:28 12 C 9.38 g/m*3 12 C 0 km/h
549 12-05-2009 17:11:28 11.9 C 9.43 g/m*3 11.9 C 0 km/h
550 12-05-2009 17:26:28 11.8 C 9.47 g/m*3 11.8 C 0 km/h
Sensor: Nr:Datum:Temp:Abs-Feuchte:Windchill:Wind:
Aussen-T/F 551 12-05-2009 17:41:28 12.1 C 9.54 g/m*3 12.1 C 0 km/h
552 12-05-2009 17:56:28 12.4 C 9.72 g/m*3 12.4 C 0 km/h
553 12-05-2009 18:11:28 12.4 C 9.51 g/m*3 12.4 C 0 km/h
554 12-05-2009 18:26:28 11.8 C 9.16 g/m*3 11.8 C 0 km/h
555 12-05-2009 18:41:28 11.7 C 9.31 g/m*3 11.7 C 0 km/h
556 12-05-2009 18:56:28 11.6 C 9.46 g/m*3 11.6 C 0 km/h
557 12-05-2009 19:11:28 11.7 C 9.62 g/m*3 11.7 C 0 km/h
558 12-05-2009 19:26:29 12 C 9.8 g/m*3 12 C 0 km/h
559 12-05-2009 19:41:29 12.2 C 9.82 g/m*3 12.2 C 0 km/h
560 12-05-2009 19:56:29 12.3 C 9.88 g/m*3 12.3 C 0 km/h
561 12-05-2009 20:11:29 12.2 C 9.82 g/m*3 12.2 C 0 km/h
562 12-05-2009 20:26:29 12.1 C 9.76 g/m*3 12.1 C 0 km/h
563 12-05-2009 20:41:29 12.1 C 9.65 g/m*3 12.1 C 0 km/h
564 12-05-2009 20:56:29 11.9 C 9.64 g/m*3 11.9 C 0 km/h
565 12-05-2009 21:11:29 12 C 9.59 g/m*3 12 C 0 km/h
566 12-05-2009 21:26:29 11.7 C 9.52 g/m*3 11.7 C 0 km/h
567 12-05-2009 21:41:29 11.6 C 9.46 g/m*3 11.6 C 0 km/h
568 12-05-2009 21:56:29 11.6 C 9.46 g/m*3 11.6 C 0 km/h
569 12-05-2009 22:11:29 11.4 C 9.34 g/m*3 11.4 C 0 km/h
570 12-05-2009 22:26:29 11.4 C 9.44 g/m*3 11.4 C 0 km/h
571 12-05-2009 22:41:29 11.4 C 9.44 g/m*3 11.4 C 0 km/h
572 12-05-2009 22:56:29 11.3 C 9.38 g/m*3 11.3 C 0 km/h
573 12-05-2009 23:11:29 11.2 C 9.33 g/m*3 11.2 C 0 km/h
574 12-05-2009 23:26:29 11.1 C 9.27 g/m*3 11.1 C 0 km/h
575 12-05-2009 23:41:29 11.1 C 9.27 g/m*3 11.1 C 0 km/h
Sensor: Nr:Datum:Temp:Abs-Feuchte:Windchill:Wind:
Aussen-T/F 576 12-05-2009 23:56:29 11 C 9.21 g/m*3 11 C 0 km/h
577 13-05-2009 00:11:30 11 C 9.21 g/m*3 11 C 0 km/h
578 13-05-2009 00:26:30 11 C 9.21 g/m*3 11 C 0 km/h
579 13-05-2009 00:41:30 10.9 C 9.15 g/m*3 10.9 C 0 km/h
580 13-05-2009 00:56:30 10.9 C 9.15 g/m*3 10.9 C 0 km/h
581 13-05-2009 01:11:30 10.8 C 8.99 g/m*3 10.8 C 0 km/h
582 13-05-2009 01:26:30 10.8 C 8.9 g/m*3 10.8 C 0 km/h
583 13-05-2009 01:41:30 10.7 C 8.84 g/m*3 10.7 C 0 km/h
584 13-05-2009 01:56:30 10.7 C 8.84 g/m*3 10.7 C 0 km/h
585 13-05-2009 02:11:30 10.6 C 8.59 g/m*3 10.6 C 0 km/h
586 13-05-2009 02:26:30 10.5 C 8.53 g/m*3 10.5 C 0 km/h
587 13-05-2009 02:41:30 10.5 C 8.53 g/m*3 10.5 C 0 km/h
588 13-05-2009 02:56:30 10.4 C 8.48 g/m*3 10.4 C 0 km/h
589 13-05-2009 03:11:30 10.2 C 8.37 g/m*3 10.2 C 0 km/h
590 13-05-2009 03:26:30 10.2 C 8.28 g/m*3 10.2 C 0 km/h
591 13-05-2009 03:41:30 10.1 C 8.23 g/m*3 10.1 C 0 km/h
592 13-05-2009 03:56:30 10.1 C 8.13 g/m*3 10.1 C 0 km/h
593 13-05-2009 04:11:30 10.2 C 8.18 g/m*3 10.2 C 0 km/h
594 13-05-2009 04:26:30 10.2 C 8.18 g/m*3 10.2 C 0 km/h
595 13-05-2009 04:41:30 10.1 C 8.13 g/m*3 10.1 C 0 km/h
596 13-05-2009 04:56:31 10.1 C 8.13 g/m*3 10.1 C 0 km/h
597 13-05-2009 05:11:31 10.1 C 8.13 g/m*3 10.1 C 0 km/h
598 13-05-2009 05:26:31 10.2 C 8.18 g/m*3 10.2 C 0 km/h
599 13-05-2009 05:41:31 10.1 C 8.13 g/m*3 10.1 C 0 km/h
600 13-05-2009 05:56:31 10.2 C 8.18 g/m*3 10.2 C 0 km/h
Sensor: Nr:Datum:Temp:Abs-Feuchte:Windchill:Wind:
Aussen-T/F 601 13-05-2009 06:11:31 10.2 C 8.18 g/m*3 10.2 C 0 km/h
602 13-05-2009 06:26:31 10.3 C 8.24 g/m*3 10.3 C 0 km/h
603 13-05-2009 06:41:31 10.5 C 8.34 g/m*3 10.5 C 0 km/h
604 13-05-2009 06:56:31 10.7 C 8.45 g/m*3 10.7 C 0 km/h
605 13-05-2009 07:11:31 11 C 8.51 g/m*3 11 C 0 km/h
606 13-05-2009 07:26:31 11.2 C 8.51 g/m*3 11.2 C 0 km/h
607 13-05-2009 07:41:31 11.8 C 8.53 g/m*3 11.8 C 0 km/h
608 13-05-2009 07:56:31 12.4 C 7.65 g/m*3 12.4 C 0 km/h
609 13-05-2009 08:11:31 12.9 C 7.66 g/m*3 12.9 C 0 km/h
610 13-05-2009 08:26:31 13 C 7.48 g/m*3 13 C 0 km/h
611 13-05-2009 08:41:31 13.4 C 7.79 g/m*3 13.4 C 0 km/h
612 13-05-2009 08:56:31 13.3 C 7.51 g/m*3 13.3 C 0 km/h
613 13-05-2009 09:11:31 13.4 C 7.56 g/m*3 13.4 C 0 km/h
614 13-05-2009 09:26:31 13.6 C 7.65 g/m*3 13.6 C 0 km/h
615 13-05-2009 09:41:32 13.8 C 7.51 g/m*3 13.8 C 0 km/h
616 13-05-2009 09:56:32 14.1 C 7.4 g/m*3 14.1 C 0 km/h
617 13-05-2009 10:11:32 15.3 C 7.44 g/m*3 15.3 C 0 km/h
618 13-05-2009 10:26:32 15.8 C 7.54 g/m*3 15.8 C 0 km/h
619 13-05-2009 10:41:32 15.9 C 7.31 g/m*3 15.9 C 0 km/h
620 13-05-2009 10:56:32 16.7 C 7.53 g/m*3 16.7 C 0 km/h
621 13-05-2009 11:11:32 17.4 C 7.56 g/m*3 17.4 C 0 km/h
622 13-05-2009 11:26:32 18.8 C 7.73 g/m*3 18.8 C 0 km/h
623 13-05-2009 11:41:32 19.3 C 7.46 g/m*3 19.3 C 0 km/h
624 13-05-2009 11:56:32 19.1 C 7.87 g/m*3 19.1 C 0 km/h
625 13-05-2009 12:11:32 19.5 C 7.72 g/m*3 19.5 C 0 km/h
Sensor: Nr:Datum:Temp:Abs-Feuchte:Windchill:Wind:
Aussen-T/F 626 13-05-2009 12:26:32 20.1 C 7.82 g/m*3 20.1 C 0 km/h
627 13-05-2009 12:41:32 20.5 C 7.83 g/m*3 20.5 C 0 km/h
628 13-05-2009 12:56:32 21.1 C 7.55 g/m*3 21.1 C 0 km/h
629 13-05-2009 13:11:32 21.3 C 7.83 g/m*3 21.3 C 0 km/h
630 13-05-2009 13:26:32 21.1 C 7.55 g/m*3 21.1 C 0 km/h
631 13-05-2009 13:41:32 21.4 C 7.87 g/m*3 21.4 C 0 km/h
632 13-05-2009 13:56:32 22 C 7.38 g/m*3 22 C 0 km/h
633 13-05-2009 14:11:32 22.2 C 7.85 g/m*3 22.2 C 0 km/h
634 13-05-2009 14:26:33 22.4 C 7.94 g/m*3 22.4 C 0 km/h
635 13-05-2009 14:41:33 22.9 C 7.97 g/m*3 22.9 C 0 km/h
636 13-05-2009 14:56:33 22.7 C 8.28 g/m*3 22.7 C 0 km/h
637 13-05-2009 15:11:33 23.3 C 7.74 g/m*3 23.3 C 0 km/h
638 13-05-2009 15:26:33 22.7 C 8.08 g/m*3 22.7 C 0 km/h
639 13-05-2009 15:41:33 22.7 C 8.28 g/m*3 22.7 C 0 km/h
640 13-05-2009 15:56:33 21.7 C 8.2 g/m*3 21.7 C 0 km/h
641 13-05-2009 16:11:33 22 C 7.96 g/m*3 22 C 0 km/h
642 13-05-2009 16:26:33 21.1 C 8.48 g/m*3 21.1 C 0 km/h
643 13-05-2009 16:41:33 20.7 C 9.36 g/m*3 20.7 C 0 km/h
644 13-05-2009 16:56:33 20.4 C 9.91 g/m*3 20.4 C 0 km/h
645 13-05-2009 17:11:33 20.2 C 8.74 g/m*3 20.2 C 0 km/h
646 13-05-2009 17:26:33 19.7 C 9.68 g/m*3 19.7 C 0 km/h
647 13-05-2009 17:41:33 19.3 C 9.62 g/m*3 19.3 C 0 km/h
648 13-05-2009 17:56:33 19.1 C 9.18 g/m*3 19.1 C 0 km/h
649 13-05-2009 18:11:33 19.1 C 9.34 g/m*3 19.1 C 0 km/h
650 13-05-2009 18:26:33 18.7 C 9.29 g/m*3 18.7 C 0 km/h
Sensor: Nr:Datum:Temp:Abs-Feuchte:Windchill:Wind:
Aussen-T/F 651 13-05-2009 18:41:33 18.3 C 9.22 g/m*3 18.3 C 0 km/h
652 13-05-2009 18:56:33 18.3 C 9.54 g/m*3 18.3 C 0 km/h
653 13-05-2009 19:11:34 18.3 C 9.54 g/m*3 18.3 C 0 km/h
654 13-05-2009 19:26:34 18.4 C 9.91 g/m*3 18.4 C 0 km/h
655 13-05-2009 19:41:34 18.5 C 9.97 g/m*3 18.5 C 0 km/h
656 13-05-2009 19:56:34 18.4 C 10.22 g/m*3 18.4 C 0 km/h
657 13-05-2009 20:11:34 17.9 C 10.38 g/m*3 17.9 C 0 km/h
658 13-05-2009 20:26:34 17.5 C 10.29 g/m*3 17.5 C 0 km/h
659 13-05-2009 20:41:34 17.1 C 10.34 g/m*3 17.1 C 0 km/h
660 13-05-2009 20:56:34 16.8 C 10.29 g/m*3 16.8 C 0 km/h
661 13-05-2009 21:11:34 16.2 C 10.07 g/m*3 16.2 C 0 km/h
662 13-05-2009 21:26:34 15.9 C 10.16 g/m*3 15.9 C 0 km/h
663 13-05-2009 21:41:34 15.6 C 10.11 g/m*3 15.6 C 0 km/h
664 13-05-2009 21:56:34 15.1 C 9.93 g/m*3 15.1 C 0 km/h
665 13-05-2009 22:11:34 14.8 C 10.01 g/m*3 14.8 C 0 km/h
666 13-05-2009 22:26:34 14.6 C 10.01 g/m*3 14.6 C 0 km/h
667 13-05-2009 22:41:34 14.5 C 9.95 g/m*3 14.5 C 0 km/h
668 13-05-2009 22:56:34 14.4 C 10.01 g/m*3 14.4 C 0 km/h
669 13-05-2009 23:11:34 14.4 C 10.01 g/m*3 14.4 C 0 km/h
670 13-05-2009 23:26:34 14.2 C 9.89 g/m*3 14.2 C 0 km/h
671 13-05-2009 23:41:34 14 C 9.89 g/m*3 14 C 0 km/h
672 13-05-2009 23:56:34 14.1 C 9.95 g/m*3 14.1 C 0 km/h
673 14-05-2009 00:11:35 14 C 10.01 g/m*3 14 C 0 km/h
674 14-05-2009 00:26:35 14 C 10.01 g/m*3 14 C 0 km/h
675 14-05-2009 00:41:35 13.8 C 9.89 g/m*3 13.8 C 0 km/h
Sensor: Nr:Datum:Temp:Abs-Feuchte:Windchill:Wind:
Aussen-T/F 676 14-05-2009 00:56:35 13.8 C 9.89 g/m*3 13.8 C 0 km/h
677 14-05-2009 01:11:35 13.7 C 9.83 g/m*3 13.7 C 0 km/h
678 14-05-2009 01:26:35 13.5 C 9.71 g/m*3 13.5 C 0 km/h
679 14-05-2009 01:41:35 13.4 C 9.65 g/m*3 13.4 C 0 km/h
680 14-05-2009 01:56:35 13.2 C 9.53 g/m*3 13.2 C 0 km/h
681 14-05-2009 02:11:35 13.1 C 9.59 g/m*3 13.1 C 0 km/h
682 14-05-2009 02:26:35 13 C 9.53 g/m*3 13 C 0 km/h
683 14-05-2009 02:41:35 12.9 C 9.58 g/m*3 12.9 C 0 km/h
684 14-05-2009 02:56:35 13 C 9.53 g/m*3 13 C 0 km/h
685 14-05-2009 03:11:35 13.3 C 9.7 g/m*3 13.3 C 0 km/h
686 14-05-2009 03:26:35 13.4 C 9.65 g/m*3 13.4 C 0 km/h
687 14-05-2009 03:41:35 13.2 C 9.42 g/m*3 13.2 C 0 km/h
688 14-05-2009 03:56:35 13.1 C 9.36 g/m*3 13.1 C 0 km/h
689 14-05-2009 04:11:35 13.1 C 9.13 g/m*3 13.1 C 0 km/h
690 14-05-2009 04:26:35 13.2 C 8.84 g/m*3 13.2 C 0 km/h
691 14-05-2009 04:41:35 13.4 C 8.6 g/m*3 13.4 C 0 km/h
692 14-05-2009 04:56:36 13.4 C 8.49 g/m*3 13.4 C 0 km/h
693 14-05-2009 05:11:36 13.5 C 8.66 g/m*3 13.5 C 0 km/h
694 14-05-2009 05:26:36 13.5 C 8.54 g/m*3 13.5 C 0 km/h
695 14-05-2009 05:41:36 13.4 C 8.72 g/m*3 13.4 C 0 km/h
696 14-05-2009 05:56:36 13.3 C 8.66 g/m*3 13.3 C 0 km/h
697 14-05-2009 06:11:36 13.2 C 8.73 g/m*3 13.2 C 0 km/h
698 14-05-2009 06:26:36 13.3 C 8.66 g/m*3 13.3 C 0 km/h
699 14-05-2009 06:41:36 13.4 C 8.6 g/m*3 13.4 C 0 km/h
700 14-05-2009 06:56:36 13.6 C 8.36 g/m*3 13.6 C 0 km/h
Sensor: Nr:Datum:Temp:Abs-Feuchte:Windchill:Wind:
Aussen-T/F 701 14-05-2009 07:11:36 13.7 C 8.64 g/m*3 13.7 C 0 km/h
702 14-05-2009 07:26:36 13.8 C 8.82 g/m*3 13.8 C 0 km/h
703 14-05-2009 07:41:36 13.8 C 8.82 g/m*3 13.8 C 0 km/h
704 14-05-2009 07:56:36 13.7 C 8.76 g/m*3 13.7 C 0 km/h
705 14-05-2009 08:11:36 13.7 C 8.76 g/m*3 13.7 C 0 km/h
706 14-05-2009 08:26:36 13.9 C 8.75 g/m*3 13.9 C 0 km/h
707 14-05-2009 08:41:36 14.4 C 8.53 g/m*3 14.4 C 0 km/h
708 14-05-2009 08:56:36 14.5 C 8.71 g/m*3 14.5 C 0 km/h
709 14-05-2009 09:11:36 14.7 C 8.81 g/m*3 14.7 C 0 km/h
710 14-05-2009 09:26:36 15 C 8.59 g/m*3 15 C 0 km/h
711 14-05-2009 09:41:37 15.1 C 7.74 g/m*3 15.1 C 0 km/h
712 14-05-2009 09:56:37 15.5 C 8.06 g/m*3 15.5 C 0 km/h
713 14-05-2009 10:11:37 15.5 C 8.06 g/m*3 15.5 C 0 km/h
714 14-05-2009 10:26:37 15.5 C 8.46 g/m*3 15.5 C 0 km/h
715 14-05-2009 10:41:37 15.6 C 8.11 g/m*3 15.6 C 0 km/h
716 14-05-2009 10:56:37 15.6 C 7.98 g/m*3 15.6 C 0 km/h
717 14-05-2009 11:11:37 15.8 C 7.94 g/m*3 15.8 C 0 km/h
718 14-05-2009 11:26:37 16.3 C 8.19 g/m*3 16.3 C 0 km/h
719 14-05-2009 11:41:37 16.9 C 8.2 g/m*3 16.9 C 0 km/h
720 14-05-2009 11:56:37 17.2 C 8.2 g/m*3 17.2 C 0 km/h
721 14-05-2009 12:11:37 17 C 8.39 g/m*3 17 C 0 km/h
722 14-05-2009 12:26:37 17 C 8.54 g/m*3 17 C 0 km/h
723 14-05-2009 12:41:37 17.4 C 8.45 g/m*3 17.4 C 0 km/h
724 14-05-2009 12:56:37 17.5 C 8.8 g/m*3 17.5 C 0 km/h
725 14-05-2009 13:11:37 17.5 C 8.65 g/m*3 17.5 C 0 km/h
Sensor: Nr:Datum:Temp:Abs-Feuchte:Windchill:Wind:
Aussen-T/F 726 14-05-2009 13:26:37 17.9 C 8.7 g/m*3 17.9 C 0 km/h
727 14-05-2009 13:41:37 18.4 C 8.65 g/m*3 18.4 C 0 km/h
728 14-05-2009 13:56:37 18.9 C 8.59 g/m*3 18.9 C 0 km/h
729 14-05-2009 14:11:37 19.9 C 8.42 g/m*3 19.9 C 0 km/h
730 14-05-2009 14:26:38 21.1 C 8.29 g/m*3 21.1 C 0 km/h
731 14-05-2009 14:41:38 21.5 C 8.11 g/m*3 21.5 C 0 km/h
732 14-05-2009 14:56:38 22.3 C 7.9 g/m*3 22.3 C 0 km/h
733 14-05-2009 15:11:38 21.2 C 8.34 g/m*3 21.2 C 0 km/h
734 14-05-2009 15:26:38 21.1 C 8.29 g/m*3 21.1 C 0 km/h
735 14-05-2009 15:41:38 22 C 8.54 g/m*3 22 C 0 km/h
736 14-05-2009 15:56:38 24.9 C 8.01 g/m*3 24.9 C 0 km/h
737 14-05-2009 16:11:38 25.4 C 7.53 g/m*3 25.4 C 0 km/h
738 14-05-2009 16:26:38 23 C 7.81 g/m*3 23 C 0 km/h
739 14-05-2009 16:41:38 21.8 C 8.44 g/m*3 21.8 C 0 km/h
740 14-05-2009 16:56:38 20.5 C 8.54 g/m*3 20.5 C 0 km/h
741 14-05-2009 17:11:38 20.2 C 8.57 g/m*3 20.2 C 0 km/h
742 14-05-2009 17:26:38 19.6 C 8.95 g/m*3 19.6 C 0 km/h
743 14-05-2009 17:41:38 19.6 C 8.95 g/m*3 19.6 C 0 km/h
744 14-05-2009 17:56:38 19.3 C 9.29 g/m*3 19.3 C 0 km/h
745 14-05-2009 18:11:38 19.1 C 9.51 g/m*3 19.1 C 0 km/h
746 14-05-2009 18:26:38 19 C 9.13 g/m*3 19 C 0 km/h
747 14-05-2009 18:41:38 18.9 C 9.56 g/m*3 18.9 C 0 km/h
748 14-05-2009 18:56:38 18.7 C 9.77 g/m*3 18.7 C 0 km/h
749 14-05-2009 19:11:39 18.3 C 9.38 g/m*3 18.3 C 0 km/h
750 14-05-2009 19:26:39 18 C 9.52 g/m*3 18 C 0 km/h
Sensor: Nr:Datum:Temp:Abs-Feuchte:Windchill:Wind:
Aussen-T/F 751 14-05-2009 19:41:39 17.4 C 9.93 g/m*3 17.4 C 0 km/h
752 14-05-2009 19:56:39 16.4 C 10.61 g/m*3 16.4 C 0 km/h
753 14-05-2009 20:11:39 16 C 11.04 g/m*3 16 C 0 km/h
754 14-05-2009 20:26:39 15.6 C 11.3 g/m*3 15.6 C 0 km/h
755 14-05-2009 20:41:39 15.6 C 11.44 g/m*3 15.6 C 0 km/h
756 14-05-2009 20:56:39 15.3 C 11.36 g/m*3 15.3 C 0 km/h
757 14-05-2009 21:11:39 15.3 C 11.49 g/m*3 15.3 C 0 km/h
758 14-05-2009 21:26:39 15.1 C 11.35 g/m*3 15.1 C 0 km/h
759 14-05-2009 21:41:39 15 C 11.41 g/m*3 15 C 0 km/h
760 14-05-2009 21:56:39 14.5 C 11.19 g/m*3 14.5 C 0 km/h
761 14-05-2009 22:11:39 14.1 C 10.92 g/m*3 14.1 C 0 km/h
762 14-05-2009 22:26:39 14 C 10.98 g/m*3 14 C 0 km/h
763 14-05-2009 22:41:39 13.6 C 10.83 g/m*3 13.6 C 0 km/h
764 14-05-2009 22:56:39 13.6 C 10.83 g/m*3 13.6 C 0 km/h
765 14-05-2009 23:11:39 13.3 C 10.74 g/m*3 13.3 C 0 km/h
766 14-05-2009 23:26:39 13.2 C 10.68 g/m*3 13.2 C 0 km/h
767 14-05-2009 23:41:39 13.2 C 10.68 g/m*3 13.2 C 0 km/h
768 14-05-2009 23:56:40 13 C 10.55 g/m*3 13 C 0 km/h
769 15-05-2009 00:11:40 12.9 C 10.59 g/m*3 12.9 C 0 km/h
770 15-05-2009 00:26:40 12.9 C 10.59 g/m*3 12.9 C 0 km/h
771 15-05-2009 00:41:40 12.7 C 10.46 g/m*3 12.7 C 0 km/h
772 15-05-2009 00:56:40 12.8 C 10.53 g/m*3 12.8 C 0 km/h
773 15-05-2009 01:11:40 12.9 C 10.59 g/m*3 12.9 C 0 km/h
774 15-05-2009 01:26:40 13 C 10.43 g/m*3 13 C 0 km/h
775 15-05-2009 01:41:40 13.1 C 10.5 g/m*3 13.1 C 0 km/h
Sensor: Nr:Datum:Temp:Abs-Feuchte:Windchill:Wind:
Aussen-T/F 776 15-05-2009 01:56:40 13 C 10.43 g/m*3 13 C 0 km/h
777 15-05-2009 02:11:40 13.1 C 10.38 g/m*3 13.1 C 0 km/h
778 15-05-2009 02:26:40 13.1 C 10.38 g/m*3 13.1 C 0 km/h
779 15-05-2009 02:41:40 13.1 C 10.38 g/m*3 13.1 C 0 km/h
780 15-05-2009 02:56:40 13.1 C 10.38 g/m*3 13.1 C 0 km/h
781 15-05-2009 03:11:40 13.1 C 10.38 g/m*3 13.1 C 0 km/h
782 15-05-2009 03:26:40 13.2 C 10.45 g/m*3 13.2 C 0 km/h
783 15-05-2009 03:41:40 13.3 C 10.51 g/m*3 13.3 C 0 km/h
784 15-05-2009 03:56:40 13.2 C 10.45 g/m*3 13.2 C 0 km/h
785 15-05-2009 04:11:40 13.4 C 10.69 g/m*3 13.4 C 0 km/h
786 15-05-2009 04:26:40 13.4 C 10.58 g/m*3 13.4 C 0 km/h
787 15-05-2009 04:41:41 13.4 C 10.58 g/m*3 13.4 C 0 km/h
788 15-05-2009 04:56:41 13.4 C 10.69 g/m*3 13.4 C 0 km/h
789 15-05-2009 05:11:41 13.5 C 10.76 g/m*3 13.5 C 0 km/h
790 15-05-2009 05:26:41 13.6 C 10.83 g/m*3 13.6 C 0 km/h
791 15-05-2009 05:41:41 13.7 C 10.89 g/m*3 13.7 C 0 km/h
792 15-05-2009 05:56:41 13.8 C 10.96 g/m*3 13.8 C 0 km/h
793 15-05-2009 06:11:41 13.7 C 10.78 g/m*3 13.7 C 0 km/h
794 15-05-2009 06:26:41 13.8 C 10.84 g/m*3 13.8 C 0 km/h
795 15-05-2009 06:41:41 14.1 C 11.04 g/m*3 14.1 C 0 km/h
796 15-05-2009 06:56:41 14.4 C 11.13 g/m*3 14.4 C 0 km/h
797 15-05-2009 07:11:41 14.6 C 11.26 g/m*3 14.6 C 0 km/h
798 15-05-2009 07:26:41 14.6 C 11.14 g/m*3 14.6 C 0 km/h
799 15-05-2009 07:41:41 14.7 C 11.21 g/m*3 14.7 C 0 km/h
800 15-05-2009 07:56:41 15 C 11.41 g/m*3 15 C 0 km/h
Sensor: Nr:Datum:Temp:Abs-Feuchte:Windchill:Wind:
Aussen-T/F 801 15-05-2009 08:11:41 15.8 C 12.11 g/m*3 15.8 C 0 km/h
802 15-05-2009 08:26:41 16.3 C 11.93 g/m*3 16.3 C 0 km/h
803 15-05-2009 08:41:41 16.4 C 11.17 g/m*3 16.4 C 0 km/h
804 15-05-2009 08:56:41 16.5 C 10.67 g/m*3 16.5 C 0 km/h
805 15-05-2009 09:11:41 16.7 C 10.8 g/m*3 16.7 C 0 km/h
806 15-05-2009 09:26:41 16.7 C 10.23 g/m*3 16.7 C 0 km/h
807 15-05-2009 09:41:42 16.8 C 10.29 g/m*3 16.8 C 0 km/h
808 15-05-2009 09:56:02 17.2 C 9.96 g/m*3 17.2 C 0 km/h
809 15-05-2009 10:11:01 17.1 C 9.9 g/m*3 17.1 C 0 km/h
810 15-05-2009 10:26:02 17.9 C 9.77 g/m*3 17.9 C 0 km/h
811 15-05-2009 10:41:02 18.4 C 9.59 g/m*3 18.4 C 0 km/h
812 15-05-2009 10:56:01 18.6 C 9.71 g/m*3 18.6 C 0 km/h
813 15-05-2009 11:11:02 19.3 C 9.29 g/m*3 19.3 C 0 km/h
814 15-05-2009 11:26:02 20.1 C 9.04 g/m*3 20.1 C 0 km/h
815 15-05-2009 11:41:01 20.6 C 9.31 g/m*3 20.6 C 0 km/h
816 15-05-2009 11:56:01 20.6 C 8.95 g/m*3 20.6 C 0 km/h
817 15-05-2009 12:11:01 19.9 C 8.59 g/m*3 19.9 C 0 km/h
818 15-05-2009 12:26:00 20 C 8.64 g/m*3 20 C 0 km/h
819 15-05-2009 12:41:00 20.4 C 8.49 g/m*3 20.4 C 0 km/h
820 15-05-2009 12:56:00 19.2 C 8.9 g/m*3 19.2 C 0 km/h
821 15-05-2009 13:11:00 17.5 C 9.84 g/m*3 17.5 C 0 km/h
822 15-05-2009 13:26:00 17 C 10.42 g/m*3 17 C 0 km/h
823 15-05-2009 13:41:00 17.5 C 10.59 g/m*3 17.5 C 0 km/h
824 15-05-2009 13:56:59 18.2 C 10.26 g/m*3 18.2 C 0 km/h
825 15-05-2009 14:10:59 17.8 C 9.71 g/m*3 17.8 C 0 km/h
Sensor: Nr:Datum:Temp:Abs-Feuchte:Windchill:Wind:
Aussen-T/F 826 15-05-2009 14:26:00 17.9 C 10.08 g/m*3 17.9 C 0 km/h
827 15-05-2009 14:41:59 17.3 C 9.87 g/m*3 17.3 C 0 km/h
828 15-05-2009 14:56:59 16.9 C 9.49 g/m*3 16.9 C 0 km/h
829 15-05-2009 15:11:59 16.5 C 9.97 g/m*3 16.5 C 0 km/h
830 15-05-2009 15:26:59 15.9 C 10.43 g/m*3 15.9 C 0 km/h
831 15-05-2009 15:41:58 16.7 C 11.23 g/m*3 16.7 C 0 km/h
832 15-05-2009 15:56:59 17.6 C 11.4 g/m*3 17.6 C 0 km/h
833 15-05-2009 16:11:59 18.3 C 10.94 g/m*3 18.3 C 0 km/h
834 15-05-2009 16:26:58 18.4 C 10.7 g/m*3 18.4 C 0 km/h
835 15-05-2009 16:41:58 18.2 C 10.72 g/m*3 18.2 C 0 km/h
836 15-05-2009 16:56:58 18.3 C 10.79 g/m*3 18.3 C 0 km/h
837 15-05-2009 17:11:58 18 C 10.75 g/m*3 18 C 0 km/h
838 15-05-2009 17:26:57 16.3 C 9.43 g/m*3 16.3 C 0 km/h
839 15-05-2009 17:41:57 16.4 C 10.05 g/m*3 16.4 C 0 km/h
840 15-05-2009 17:49:57 16.2 C 10.2 g/m*3 16.2 C 0 km/h
841 15-05-2009 18:01:57 15.9 C 10.16 g/m*3 15.9 C 0 km/h
842 15-05-2009 18:13:57 15.7 C 10.17 g/m*3 15.7 C 0 km/h
843 15-05-2009 18:25:57 15.5 C 9.91 g/m*3 15.5 C 0 km/h
844 15-05-2009 18:37:56 15.3 C 9.92 g/m*3 15.3 C 0 km/h
845 15-05-2009 18:49:57 14.5 C 9.33 g/m*3 14.5 C 0 km/h
846 15-05-2009 19:01:56 14.1 C 9.22 g/m*3 14.1 C 0 km/h
847 15-05-2009 19:13:56 13.8 C 9.41 g/m*3 13.8 C 0 km/h
848 15-05-2009 19:25:56 13.7 C 9.59 g/m*3 13.7 C 0 km/h
849 15-05-2009 19:37:57 13.5 C 9.71 g/m*3 13.5 C 0 km/h
850 15-05-2009 19:49:56 13.5 C 9.83 g/m*3 13.5 C 0 km/h
Sensor: Nr:Datum:Temp:Abs-Feuchte:Windchill:Wind:
Aussen-T/F 851 15-05-2009 20:01:56 13.5 C 9.83 g/m*3 13.5 C 0 km/h
852 15-05-2009 20:13:56 13.3 C 9.82 g/m*3 13.3 C 0 km/h
853 15-05-2009 20:25:56 13.2 C 9.76 g/m*3 13.2 C 0 km/h
854 15-05-2009 20:37:56 13.2 C 9.76 g/m*3 13.2 C 0 km/h
855 15-05-2009 20:49:55 13.1 C 9.81 g/m*3 13.1 C 0 km/h
856 15-05-2009 21:01:56 12.8 C 9.74 g/m*3 12.8 C 0 km/h
857 15-05-2009 21:13:56 12.7 C 9.8 g/m*3 12.7 C 0 km/h
858 15-05-2009 21:25:55 12.5 C 9.68 g/m*3 12.5 C 0 km/h
859 15-05-2009 21:37:55 12.5 C 9.78 g/m*3 12.5 C 0 km/h
860 15-05-2009 21:49:55 12.5 C 9.78 g/m*3 12.5 C 0 km/h
861 15-05-2009 22:01:55 12.5 C 9.89 g/m*3 12.5 C 0 km/h
862 15-05-2009 22:13:55 12.5 C 9.89 g/m*3 12.5 C 0 km/h
863 15-05-2009 22:25:55 12.5 C 10 g/m*3 12.5 C 0 km/h
864 15-05-2009 22:37:54 12.5 C 10 g/m*3 12.5 C 0 km/h
865 15-05-2009 22:49:55 12.6 C 10.07 g/m*3 12.6 C 0 km/h
866 15-05-2009 23:01:54 12.6 C 10.07 g/m*3 12.6 C 0 km/h
867 15-05-2009 23:13:54 12.5 C 10 g/m*3 12.5 C 0 km/h
868 15-05-2009 23:25:54 12.4 C 9.94 g/m*3 12.4 C 0 km/h
869 15-05-2009 23:37:54 12.2 C 9.71 g/m*3 12.2 C 0 km/h
870 15-05-2009 23:49:54 12.4 C 9.4 g/m*3 12.4 C 0 km/h
871 16-05-2009 00:01:53 12.4 C 8.96 g/m*3 12.4 C 0 km/h
872 16-05-2009 00:13:53 12.3 C 8.8 g/m*3 12.3 C 0 km/h
873 16-05-2009 00:25:54 12.3 C 8.9 g/m*3 12.3 C 0 km/h
874 16-05-2009 00:37:53 12.3 C 8.9 g/m*3 12.3 C 0 km/h
875 16-05-2009 00:49:54 12.2 C 8.74 g/m*3 12.2 C 0 km/h
Sensor: Nr:Datum:Temp:Abs-Feuchte:Windchill:Wind:
Aussen-T/F 876 16-05-2009 01:01:53 12.1 C 8.58 g/m*3 12.1 C 0 km/h
877 16-05-2009 01:13:53 12 C 8.63 g/m*3 12 C 0 km/h
878 16-05-2009 01:25:53 11.4 C 8.52 g/m*3 11.4 C 0 km/h
879 16-05-2009 01:37:52 11.1 C 8.46 g/m*3 11.1 C 0 km/h
880 16-05-2009 01:49:53 10.8 C 8.3 g/m*3 10.8 C 0 km/h
881 16-05-2009 02:01:53 10.5 C 8.05 g/m*3 10.5 C 0 km/h
882 16-05-2009 02:13:53 10.3 C 8.04 g/m*3 10.3 C 0 km/h
883 16-05-2009 02:25:52 10 C 7.89 g/m*3 10 C 0 km/h
884 16-05-2009 02:37:53 9.7 C 8.02 g/m*3 9.7 C 0 km/h
885 16-05-2009 02:50:53 9.6 C 8.06 g/m*3 9.6 C 0 km/h
886 16-05-2009 03:02:53 9.6 C 8.15 g/m*3 9.6 C 0 km/h
887 16-05-2009 03:14:54 9.4 C 8.05 g/m*3 9.4 C 0 km/h
888 16-05-2009 03:26:54 9.3 C 8 g/m*3 9.3 C 0 km/h
889 16-05-2009 03:38:53 9.3 C 8.09 g/m*3 9.3 C 0 km/h
890 16-05-2009 03:50:53 9.2 C 8.04 g/m*3 9.2 C 0 km/h
891 16-05-2009 04:02:53 9.1 C 7.99 g/m*3 9.1 C 0 km/h
892 16-05-2009 04:14:53 9.1 C 7.99 g/m*3 9.1 C 0 km/h
893 16-05-2009 04:26:53 9.4 C 8.05 g/m*3 9.4 C 0 km/h
894 16-05-2009 04:38:53 9.4 C 7.96 g/m*3 9.4 C 0 km/h
895 16-05-2009 04:50:53 8.9 C 7.8 g/m*3 8.9 C 0 km/h
896 16-05-2009 05:02:52 8.7 C 7.7 g/m*3 8.7 C 0 km/h
897 16-05-2009 05:14:52 8.4 C 7.55 g/m*3 8.4 C 0 km/h
898 16-05-2009 05:26:52 8.3 C 7.5 g/m*3 8.3 C 0 km/h
899 16-05-2009 05:38:52 8.2 C 7.45 g/m*3 8.2 C 0 km/h
900 16-05-2009 05:50:52 8.1 C 7.41 g/m*3 8.1 C 0 km/h
Sensor: Nr:Datum:Temp:Abs-Feuchte:Windchill:Wind:
Aussen-T/F 901 16-05-2009 06:02:52 8 C 7.36 g/m*3 8 C 0 km/h
902 16-05-2009 06:14:51 8 C 7.36 g/m*3 8 C 0 km/h
903 16-05-2009 06:26:51 8 C 7.36 g/m*3 8 C 0 km/h
904 16-05-2009 06:38:52 8.2 C 7.45 g/m*3 8.2 C 0 km/h
905 16-05-2009 06:50:51 8.4 C 7.47 g/m*3 8.4 C 0 km/h
906 16-05-2009 07:02:52 8.6 C 7.48 g/m*3 8.6 C 0 km/h
907 16-05-2009 07:14:51 8.9 C 7.45 g/m*3 8.9 C 0 km/h
908 16-05-2009 07:26:51 8.9 C 7.53 g/m*3 8.9 C 0 km/h
909 16-05-2009 07:38:51 9 C 7.58 g/m*3 9 C 0 km/h
910 16-05-2009 07:50:51 9.2 C 7.59 g/m*3 9.2 C 0 km/h
911 16-05-2009 08:02:51 9.5 C 7.65 g/m*3 9.5 C 0 km/h
912 16-05-2009 08:14:50 9.8 C 7.7 g/m*3 9.8 C 0 km/h
913 16-05-2009 08:26:50 10.7 C 7.37 g/m*3 10.7 C 0 km/h
914 16-05-2009 08:38:50 10.9 C 6.96 g/m*3 10.9 C 0 km/h
915 16-05-2009 08:50:50 10.9 C 7.06 g/m*3 10.9 C 0 km/h
916 16-05-2009 09:02:50 10.9 C 7.06 g/m*3 10.9 C 0 km/h
917 16-05-2009 09:14:50 11.2 C 7.2 g/m*3 11.2 C 0 km/h
918 16-05-2009 09:26:50 11.7 C 7.22 g/m*3 11.7 C 0 km/h
919 16-05-2009 09:38:50 12 C 7.14 g/m*3 12 C 0 km/h
920 16-05-2009 09:50:50 12.6 C 7.19 g/m*3 12.6 C 0 km/h
921 16-05-2009 10:02:49 12.4 C 6.99 g/m*3 12.4 C 0 km/h
922 16-05-2009 10:14:49 12.8 C 6.61 g/m*3 12.8 C 0 km/h
923 16-05-2009 10:26:49 12.8 C 6.61 g/m*3 12.8 C 0 km/h
924 16-05-2009 10:38:49 13.6 C 6.59 g/m*3 13.6 C 0 km/h
925 16-05-2009 10:50:49 13.8 C 6.2 g/m*3 13.8 C 0 km/h
Sensor: Nr:Datum:Temp:Abs-Feuchte:Windchill:Wind:
Aussen-T/F 926 16-05-2009 11:02:48 13.7 C 6.39 g/m*3 13.7 C 0 km/h
927 16-05-2009 11:14:49 13.6 C 6.24 g/m*3 13.6 C 0 km/h
928 16-05-2009 11:26:49 13.6 C 6.24 g/m*3 13.6 C 0 km/h
929 16-05-2009 11:38:49 14.1 C 6.07 g/m*3 14.1 C 0 km/h
930 16-05-2009 11:50:48 14.6 C 6.13 g/m*3 14.6 C 0 km/h
931 16-05-2009 12:02:49 15.8 C 6.19 g/m*3 15.8 C 0 km/h
932 16-05-2009 12:14:48 15.8 C 5.65 g/m*3 15.8 C 0 km/h
933 16-05-2009 12:26:48 16.2 C 5.52 g/m*3 16.2 C 0 km/h
934 16-05-2009 12:38:48 17 C 5.5 g/m*3 17 C 0 km/h
935 16-05-2009 12:50:48 16.7 C 5.12 g/m*3 16.7 C 0 km/h
936 16-05-2009 13:02:48 16.8 C 5.29 g/m*3 16.8 C 0 km/h
937 16-05-2009 13:14:47 16.4 C 5.16 g/m*3 16.4 C 0 km/h
938 16-05-2009 13:26:47 15.8 C 5.52 g/m*3 15.8 C 0 km/h
939 16-05-2009 13:38:47 16.6 C 5.65 g/m*3 16.6 C 0 km/h
940 16-05-2009 13:50:47 17.1 C 5.39 g/m*3 17.1 C 0 km/h
941 16-05-2009 14:02:47 17.7 C 5.43 g/m*3 17.7 C 0 km/h
942 16-05-2009 14:14:47 17.1 C 5.39 g/m*3 17.1 C 0 km/h
943 16-05-2009 14:26:47 17 C 5.5 g/m*3 17 C 0 km/h
944 16-05-2009 14:38:47 17.4 C 5.48 g/m*3 17.4 C 0 km/h
945 16-05-2009 14:50:47 17.4 C 5.48 g/m*3 17.4 C 0 km/h
946 16-05-2009 15:02:46 17.8 C 5.77 g/m*3 17.8 C 0 km/h
947 16-05-2009 15:14:46 18.2 C 5.75 g/m*3 18.2 C 0 km/h
948 16-05-2009 15:26:46 17.6 C 5.55 g/m*3 17.6 C 0 km/h
949 16-05-2009 15:38:47 17.8 C 5.77 g/m*3 17.8 C 0 km/h
950 16-05-2009 15:50:46 17.6 C 6 g/m*3 17.6 C 0 km/h
Sensor: Nr:Datum:Temp:Abs-Feuchte:Windchill:Wind:
Aussen-T/F 951 16-05-2009 16:02:46 17.4 C 5.93 g/m*3 17.4 C 0 km/h
952 16-05-2009 16:14:46 17.7 C 6.04 g/m*3 17.7 C 0 km/h
953 16-05-2009 16:26:46 17.7 C 6.04 g/m*3 17.7 C 0 km/h
954 16-05-2009 16:38:46 19.1 C 5.9 g/m*3 19.1 C 0 km/h
955 16-05-2009 16:50:45 19 C 5.7 g/m*3 19 C 0 km/h
956 16-05-2009 17:02:46 19.1 C 6.07 g/m*3 19.1 C 0 km/h
957 16-05-2009 17:14:45 18.7 C 5.92 g/m*3 18.7 C 0 km/h
958 16-05-2009 17:26:45 18.2 C 5.91 g/m*3 18.2 C 0 km/h
959 16-05-2009 17:38:45 18.5 C 6.01 g/m*3 18.5 C 0 km/h
960 16-05-2009 17:50:45 18.2 C 6.06 g/m*3 18.2 C 0 km/h
961 16-05-2009 18:02:45 20.4 C 5.84 g/m*3 20.4 C 0 km/h
962 16-05-2009 18:14:45 20.7 C 5.76 g/m*3 20.7 C 0 km/h
963 16-05-2009 18:26:45 20.9 C 5.83 g/m*3 20.9 C 0 km/h
964 16-05-2009 18:38:48 21 C 5.68 g/m*3 21 C 0 km/h
965 16-05-2009 18:50:44 20.7 C 6.12 g/m*3 20.7 C 0 km/h
966 16-05-2009 19:02:44 21.6 C 6.07 g/m*3 21.6 C 0 km/h
967 16-05-2009 19:14:44 20.8 C 6.16 g/m*3 20.8 C 0 km/h
968 16-05-2009 19:26:44 20.7 C 5.94 g/m*3 20.7 C 0 km/h
969 16-05-2009 19:38:44 20.2 C 6.29 g/m*3 20.2 C 0 km/h
970 16-05-2009 19:50:43 19.3 C 7.13 g/m*3 19.3 C 0 km/h
971 16-05-2009 20:02:44 18.7 C 7.2 g/m*3 18.7 C 0 km/h
972 16-05-2009 20:14:44 17.7 C 7.69 g/m*3 17.7 C 0 km/h
973 16-05-2009 20:26:44 17.3 C 7.96 g/m*3 17.3 C 0 km/h
974 16-05-2009 20:38:43 16.7 C 7.82 g/m*3 16.7 C 0 km/h
975 16-05-2009 20:50:44 16.1 C 7.54 g/m*3 16.1 C 0 km/h
Sensor: Nr:Datum:Temp:Abs-Feuchte:Windchill:Wind:
Aussen-T/F 976 16-05-2009 21:02:43 15.6 C 7.71 g/m*3 15.6 C 0 km/h
977 16-05-2009 21:14:43 15.2 C 7.4 g/m*3 15.2 C 0 km/h
978 16-05-2009 21:26:43 14.4 C 7.54 g/m*3 14.4 C 0 km/h
979 16-05-2009 21:38:42 14.1 C 7.52 g/m*3 14.1 C 0 km/h
980 16-05-2009 21:50:43 13.5 C 7.49 g/m*3 13.5 C 0 km/h
981 16-05-2009 22:02:43 13.3 C 7.51 g/m*3 13.3 C 0 km/h
982 16-05-2009 22:14:42 13.3 C 7.51 g/m*3 13.3 C 0 km/h
983 16-05-2009 22:26:42 13.2 C 7.81 g/m*3 13.2 C 0 km/h
984 16-05-2009 22:38:43 13.1 C 7.76 g/m*3 13.1 C 0 km/h
985 16-05-2009 22:50:42 13.1 C 7.65 g/m*3 13.1 C 0 km/h
986 16-05-2009 23:02:42 13.1 C 7.65 g/m*3 13.1 C 0 km/h
987 16-05-2009 23:14:41 13.2 C 7.81 g/m*3 13.2 C 0 km/h
988 16-05-2009 23:26:41 13.5 C 7.49 g/m*3 13.5 C 0 km/h
989 16-05-2009 23:38:42 13.8 C 7.39 g/m*3 13.8 C 0 km/h
990 16-05-2009 23:50:41 14 C 7.12 g/m*3 14 C 0 km/h
991 17-05-2009 00:02:41 14 C 7 g/m*3 14 C 0 km/h
992 17-05-2009 00:14:41 13.9 C 7.19 g/m*3 13.9 C 0 km/h
993 17-05-2009 00:26:41 13.9 C 7.31 g/m*3 13.9 C 0 km/h
994 17-05-2009 00:38:41 13.9 C 7.31 g/m*3 13.9 C 0 km/h
995 17-05-2009 00:50:41 13.6 C 7.41 g/m*3 13.6 C 0 km/h
996 17-05-2009 01:02:41 13.4 C 7.32 g/m*3 13.4 C 0 km/h
997 17-05-2009 01:14:40 13.5 C 7.37 g/m*3 13.5 C 0 km/h
998 17-05-2009 01:26:40 13.7 C 7.22 g/m*3 13.7 C 0 km/h
999 17-05-2009 01:38:41 13.6 C 7.3 g/m*3 13.6 C 0 km/h
1000 17-05-2009 01:50:40 13.4 C 7.21 g/m*3 13.4 C 0 km/h
Sensor: Nr:Datum:Temp:Abs-Feuchte:Windchill:Wind:
Aussen-T/F 1001 17-05-2009 02:02:40 13.6 C 7.3 g/m*3 13.6 C 0 km/h
1002 17-05-2009 02:14:40 13.5 C 7.37 g/m*3 13.5 C 0 km/h
1003 17-05-2009 02:26:40 13.2 C 7.35 g/m*3 13.2 C 0 km/h
1004 17-05-2009 02:38:40 13.1 C 7.42 g/m*3 13.1 C 0 km/h
1005 17-05-2009 02:51:01 12.8 C 7.5 g/m*3 12.8 C 0 km/h
1006 17-05-2009 03:03:01 12.6 C 7.41 g/m*3 12.6 C 0 km/h
1007 17-05-2009 03:15:01 12.1 C 7.4 g/m*3 12.1 C 0 km/h
1008 17-05-2009 03:27:02 11.8 C 7.37 g/m*3 11.8 C 0 km/h
1009 17-05-2009 03:39:01 11.6 C 7.48 g/m*3 11.6 C 0 km/h
1010 17-05-2009 03:51:01 11.5 C 7.54 g/m*3 11.5 C 0 km/h
1011 17-05-2009 04:03:01 11.6 C 7.48 g/m*3 11.6 C 0 km/h
1012 17-05-2009 04:15:02 11.5 C 7.54 g/m*3 11.5 C 0 km/h
1013 17-05-2009 04:27:02 12.1 C 7.18 g/m*3 12.1 C 0 km/h
1014 17-05-2009 04:39:01 12.2 C 7.12 g/m*3 12.2 C 0 km/h
1015 17-05-2009 04:51:01 11.9 C 7.31 g/m*3 11.9 C 0 km/h
1016 17-05-2009 05:03:01 11.7 C 7.43 g/m*3 11.7 C 0 km/h
1017 17-05-2009 05:15:01 11.3 C 7.34 g/m*3 11.3 C 0 km/h
1018 17-05-2009 05:27:01 11 C 7.41 g/m*3 11 C 0 km/h
1019 17-05-2009 05:39:01 10.8 C 7.41 g/m*3 10.8 C 0 km/h
1020 17-05-2009 05:51:02 10.7 C 7.46 g/m*3 10.7 C 0 km/h
1021 17-05-2009 06:03:01 10.7 C 7.46 g/m*3 10.7 C 0 km/h
1022 17-05-2009 06:15:02 10.6 C 7.52 g/m*3 10.6 C 0 km/h
1023 17-05-2009 06:27:02 10.5 C 7.57 g/m*3 10.5 C 0 km/h
1024 17-05-2009 06:39:01 10.8 C 7.71 g/m*3 10.8 C 0 km/h
1025 17-05-2009 06:51:02 11.1 C 7.76 g/m*3 11.1 C 0 km/h
Sensor: Nr:Datum:Temp:Abs-Feuchte:Windchill:Wind:
Aussen-T/F 1026 17-05-2009 07:03:01 11.4 C 7.8 g/m*3 11.4 C 0 km/h
1027 17-05-2009 07:15:01 11.9 C 8.05 g/m*3 11.9 C 0 km/h
1028 17-05-2009 07:27:01 12.1 C 7.94 g/m*3 12.1 C 0 km/h
1029 17-05-2009 07:39:02 12.1 C 7.72 g/m*3 12.1 C 0 km/h
1030 17-05-2009 07:51:02 12.1 C 7.61 g/m*3 12.1 C 0 km/h
1031 17-05-2009 08:03:01 11.7 C 7.95 g/m*3 11.7 C 0 km/h
1032 17-05-2009 08:15:02 11.4 C 8.11 g/m*3 11.4 C 0 km/h
1033 17-05-2009 08:27:02 11.9 C 8.68 g/m*3 11.9 C 0 km/h
1034 17-05-2009 08:39:01 12.1 C 8.69 g/m*3 12.1 C 0 km/h
1035 17-05-2009 08:51:02 12.4 C 8.96 g/m*3 12.4 C 0 km/h
1036 17-05-2009 09:03:01 12.8 C 9.07 g/m*3 12.8 C 0 km/h
1037 17-05-2009 09:15:01 13.3 C 9.13 g/m*3 13.3 C 0 km/h
1038 17-05-2009 09:27:01 13.8 C 9.17 g/m*3 13.8 C 0 km/h
1039 17-05-2009 09:39:01 14.4 C 8.53 g/m*3 14.4 C 0 km/h
1040 17-05-2009 09:51:01 15.2 C 8.7 g/m*3 15.2 C 0 km/h
1041 17-05-2009 10:03:02 15.7 C 8.43 g/m*3 15.7 C 0 km/h
1042 17-05-2009 10:15:01 15.3 C 8.1 g/m*3 15.3 C 0 km/h
1043 17-05-2009 10:27:01 15.4 C 7.88 g/m*3 15.4 C 0 km/h
1044 17-05-2009 10:39:02 16.3 C 7.91 g/m*3 16.3 C 0 km/h
1045 17-05-2009 10:51:01 17.5 C 8.05 g/m*3 17.5 C 0 km/h
1046 17-05-2009 11:03:02 17.9 C 8.24 g/m*3 17.9 C 0 km/h
1047 17-05-2009 11:15:01 18.5 C 8.23 g/m*3 18.5 C 0 km/h
1048 17-05-2009 11:27:01 18.6 C 7.8 g/m*3 18.6 C 0 km/h
1049 17-05-2009 11:39:01 20 C 8.64 g/m*3 20 C 0 km/h
1050 17-05-2009 11:51:01 21.2 C 8.52 g/m*3 21.2 C 0 km/h
Sensor: Nr:Datum:Temp:Abs-Feuchte:Windchill:Wind:
Aussen-T/F 1051 17-05-2009 12:03:01 22.3 C 8.29 g/m*3 22.3 C 0 km/h
1052 17-05-2009 12:15:02 21.9 C 7.72 g/m*3 21.9 C 0 km/h
1053 17-05-2009 12:27:02 21.3 C 8.39 g/m*3 21.3 C 0 km/h
1054 17-05-2009 12:39:01 20.4 C 8.49 g/m*3 20.4 C 0 km/h
1055 17-05-2009 12:51:02 21.3 C 8.39 g/m*3 21.3 C 0 km/h
1056 17-05-2009 13:03:01 22 C 8.35 g/m*3 22 C 0 km/h
1057 17-05-2009 13:15:02 22.7 C 8.28 g/m*3 22.7 C 0 km/h
1058 17-05-2009 13:27:02 22.2 C 7.85 g/m*3 22.2 C 0 km/h
1059 17-05-2009 13:39:01 23.3 C 7.95 g/m*3 23.3 C 0 km/h
1060 17-05-2009 13:51:01 22.8 C 7.72 g/m*3 22.8 C 0 km/h
1061 17-05-2009 14:03:01 22.4 C 7.94 g/m*3 22.4 C 0 km/h
1062 17-05-2009 14:15:01 22 C 7.76 g/m*3 22 C 0 km/h
1063 17-05-2009 14:27:01 21.3 C 7.46 g/m*3 21.3 C 0 km/h
1064 17-05-2009 14:39:02 21.2 C 7.6 g/m*3 21.2 C 0 km/h
1065 17-05-2009 14:51:01 21.4 C 7.69 g/m*3 21.4 C 0 km/h
1066 17-05-2009 15:03:02 21.9 C 7.72 g/m*3 21.9 C 0 km/h
1067 17-05-2009 15:15:01 22.8 C 7.92 g/m*3 22.8 C 0 km/h
1068 17-05-2009 15:27:01 23 C 7.6 g/m*3 23 C 0 km/h
1069 17-05-2009 15:39:01 23.4 C 7.78 g/m*3 23.4 C 0 km/h
1070 17-05-2009 15:51:01 23.3 C 7.32 g/m*3 23.3 C 0 km/h
1071 17-05-2009 16:03:01 23.5 C 6.98 g/m*3 23.5 C 0 km/h
1072 17-05-2009 16:15:01 23.4 C 6.73 g/m*3 23.4 C 0 km/h
1073 17-05-2009 16:27:01 23.9 C 6.92 g/m*3 23.9 C 0 km/h
1074 17-05-2009 16:39:01 23.5 C 6.56 g/m*3 23.5 C 0 km/h
1075 17-05-2009 16:51:01 24.2 C 5.94 g/m*3 24.2 C 0 km/h
Sensor: Nr:Datum:Temp:Abs-Feuchte:Windchill:Wind:
Aussen-T/F 1076 17-05-2009 17:03:01 24.1 C 6.13 g/m*3 24.1 C 0 km/h
1077 17-05-2009 17:15:02 24.1 C 6.13 g/m*3 24.1 C 0 km/h
1078 17-05-2009 17:27:02 24.5 C 6.27 g/m*3 24.5 C 0 km/h
1079 17-05-2009 17:39:01 24 C 6.53 g/m*3 24 C 0 km/h
1080 17-05-2009 17:51:02 23.3 C 6.48 g/m*3 23.3 C 0 km/h
1081 17-05-2009 18:03:01 22.9 C 6.54 g/m*3 22.9 C 0 km/h
1082 17-05-2009 18:15:01 22.1 C 6.64 g/m*3 22.1 C 0 km/h
1083 17-05-2009 18:27:02 21 C 6.41 g/m*3 21 C 0 km/h
1084 17-05-2009 18:39:01 20.9 C 6.74 g/m*3 20.9 C 0 km/h
1085 17-05-2009 18:51:01 20.4 C 7.25 g/m*3 20.4 C 0 km/h
1086 17-05-2009 19:03:01 20.5 C 7.12 g/m*3 20.5 C 0 km/h
1087 17-05-2009 19:15:01 20.9 C 7.29 g/m*3 20.9 C 0 km/h
1088 17-05-2009 19:27:01 20.7 C 7.56 g/m*3 20.7 C 0 km/h
1089 17-05-2009 19:39:02 20.4 C 7.43 g/m*3 20.4 C 0 km/h
1090 17-05-2009 19:51:01 20.1 C 7.3 g/m*3 20.1 C 0 km/h
1091 17-05-2009 20:03:02 19.7 C 7.64 g/m*3 19.7 C 0 km/h
1092 17-05-2009 20:15:01 19.5 C 7.72 g/m*3 19.5 C 0 km/h
1093 17-05-2009 20:27:01 19.3 C 7.96 g/m*3 19.3 C 0 km/h
1094 17-05-2009 20:39:01 18.9 C 8.59 g/m*3 18.9 C 0 km/h
1095 17-05-2009 20:51:01 19 C 8.15 g/m*3 19 C 0 km/h
1096 17-05-2009 21:03:01 18.9 C 8.1 g/m*3 18.9 C 0 km/h
1097 17-05-2009 21:15:01 18.5 C 7.59 g/m*3 18.5 C 0 km/h
1098 17-05-2009 21:27:01 18.3 C 7.66 g/m*3 18.3 C 0 km/h
1099 17-05-2009 21:39:02 18 C 7.68 g/m*3 18 C 0 km/h
1100 17-05-2009 21:51:01 17.7 C 7.69 g/m*3 17.7 C 0 km/h
Sensor: Nr:Datum:Temp:Abs-Feuchte:Windchill:Wind:
Aussen-T/F 1101 17-05-2009 22:03:02 17.5 C 7.45 g/m*3 17.5 C 0 km/h
1102 17-05-2009 22:15:01 17.3 C 7.37 g/m*3 17.3 C 0 km/h
1103 17-05-2009 22:27:01 17.2 C 7.47 g/m*3 17.2 C 0 km/h
1104 17-05-2009 22:39:01 16.9 C 7.19 g/m*3 16.9 C 0 km/h
1105 17-05-2009 22:51:01 16.8 C 7.15 g/m*3 16.8 C 0 km/h
1106 17-05-2009 23:03:01 16.6 C 7.35 g/m*3 16.6 C 0 km/h
1107 17-05-2009 23:15:01 16.3 C 7.08 g/m*3 16.3 C 0 km/h
1108 17-05-2009 23:27:01 16.2 C 6.9 g/m*3 16.2 C 0 km/h
1109 17-05-2009 23:39:01 16.2 C 6.48 g/m*3 16.2 C 0 km/h
1110 17-05-2009 23:51:02 16.2 C 6.48 g/m*3 16.2 C 0 km/h
1111 18-05-2009 00:03:01 16.1 C 6.58 g/m*3 16.1 C 0 km/h
1112 18-05-2009 00:15:01 15.8 C 6.87 g/m*3 15.8 C 0 km/h
1113 18-05-2009 00:27:01 15.6 C 7.05 g/m*3 15.6 C 0 km/h
1114 18-05-2009 00:39:01 15.4 C 7.09 g/m*3 15.4 C 0 km/h
1115 18-05-2009 00:51:01 15.4 C 7.23 g/m*3 15.4 C 0 km/h
1116 18-05-2009 01:03:01 15.1 C 7.22 g/m*3 15.1 C 0 km/h
1117 18-05-2009 01:15:02 14.9 C 7.39 g/m*3 14.9 C 0 km/h
1118 18-05-2009 01:27:02 14.7 C 7.43 g/m*3 14.7 C 0 km/h
1119 18-05-2009 01:39:01 14.7 C 7.3 g/m*3 14.7 C 0 km/h
1120 18-05-2009 01:51:02 14.5 C 7.21 g/m*3 14.5 C 0 km/h
1121 18-05-2009 02:03:01 14.5 C 7.34 g/m*3 14.5 C 0 km/h
1122 18-05-2009 02:15:02 14.3 C 7.25 g/m*3 14.3 C 0 km/h
1123 18-05-2009 02:27:02 14.2 C 7.33 g/m*3 14.2 C 0 km/h
1124 18-05-2009 02:39:01 14 C 7.36 g/m*3 14 C 0 km/h
1125 18-05-2009 02:51:30 13.7 C 7.34 g/m*3 13.7 C 0 km/h
Sensor: Nr:Datum:Temp:Abs-Feuchte:Windchill:Wind:
Aussen-T/F 1126 18-05-2009 03:03:30 13.6 C 7.3 g/m*3 13.6 C 0 km/h
1127 18-05-2009 03:15:29 13.3 C 7.28 g/m*3 13.3 C 0 km/h
1128 18-05-2009 03:27:29 13 C 7.26 g/m*3 13 C 0 km/h
1129 18-05-2009 03:39:29 12.6 C 7.3 g/m*3 12.6 C 0 km/h
1130 18-05-2009 03:51:29 12.8 C 7.5 g/m*3 12.8 C 0 km/h
1131 18-05-2009 04:03:28 13 C 7.6 g/m*3 13 C 0 km/h
1132 18-05-2009 04:15:29 13.1 C 7.65 g/m*3 13.1 C 0 km/h
1133 18-05-2009 04:27:29 12.8 C 7.62 g/m*3 12.8 C 0 km/h
1134 18-05-2009 04:39:28 12.4 C 7.43 g/m*3 12.4 C 0 km/h
1135 18-05-2009 04:51:28 12 C 7.46 g/m*3 12 C 0 km/h
1136 18-05-2009 05:03:28 11.6 C 7.38 g/m*3 11.6 C 0 km/h
1137 18-05-2009 05:15:28 11.7 C 7.64 g/m*3 11.7 C 0 km/h
1138 18-05-2009 05:27:28 11.2 C 7.4 g/m*3 11.2 C 0 km/h
1139 18-05-2009 05:39:28 11 C 7.41 g/m*3 11 C 0 km/h
1140 18-05-2009 05:51:28 10.9 C 7.56 g/m*3 10.9 C 0 km/h
1141 18-05-2009 06:03:28 10.8 C 7.61 g/m*3 10.8 C 0 km/h
1142 18-05-2009 06:15:27 10.7 C 7.66 g/m*3 10.7 C 0 km/h
1143 18-05-2009 06:27:27 10.7 C 7.76 g/m*3 10.7 C 0 km/h
1144 18-05-2009 06:39:27 10.7 C 7.86 g/m*3 10.7 C 0 km/h
1145 18-05-2009 06:51:27 10.8 C 7.91 g/m*3 10.8 C 0 km/h
1146 18-05-2009 07:03:27 11 C 7.91 g/m*3 11 C 0 km/h
1147 18-05-2009 07:15:27 11.3 C 8.06 g/m*3 11.3 C 0 km/h
1148 18-05-2009 07:27:27 11.4 C 8.11 g/m*3 11.4 C 0 km/h
1149 18-05-2009 07:39:27 11.6 C 8.21 g/m*3 11.6 C 0 km/h
1150 18-05-2009 07:51:27 11.9 C 8.26 g/m*3 11.9 C 0 km/h
Sensor: Nr:Datum:Temp:Abs-Feuchte:Windchill:Wind:
Aussen-T/F 1151 18-05-2009 08:03:26 12.1 C 8.26 g/m*3 12.1 C 0 km/h
1152 18-05-2009 08:15:26 12.4 C 8.3 g/m*3 12.4 C 0 km/h
1153 18-05-2009 08:27:26 12.8 C 8.51 g/m*3 12.8 C 0 km/h
1154 18-05-2009 08:39:26 13.2 C 8.38 g/m*3 13.2 C 0 km/h
1155 18-05-2009 08:51:26 13.7 C 8.41 g/m*3 13.7 C 0 km/h
1156 18-05-2009 09:03:25 14.8 C 8.11 g/m*3 14.8 C 0 km/h
1157 18-05-2009 09:15:26 15.4 C 7.49 g/m*3 15.4 C 0 km/h
1158 18-05-2009 09:27:26 15.2 C 7.53 g/m*3 15.2 C 0 km/h
1159 18-05-2009 09:39:26 15.2 C 7.53 g/m*3 15.2 C 0 km/h
1160 18-05-2009 09:51:25 15.9 C 7.58 g/m*3 15.9 C 0 km/h
1161 18-05-2009 10:03:26 16.5 C 7.44 g/m*3 16.5 C 0 km/h
1162 18-05-2009 10:15:25 16.7 C 7.25 g/m*3 16.7 C 0 km/h
1163 18-05-2009 10:27:25 17.1 C 6.99 g/m*3 17.1 C 0 km/h
1164 18-05-2009 10:39:25 16.5 C 7.02 g/m*3 16.5 C 0 km/h
1165 18-05-2009 10:51:25 16.6 C 7.06 g/m*3 16.6 C 0 km/h
1166 18-05-2009 11:03:25 17 C 6.95 g/m*3 17 C 0 km/h
1167 18-05-2009 11:15:24 17.3 C 6.78 g/m*3 17.3 C 0 km/h
1168 18-05-2009 11:27:24 18 C 6.45 g/m*3 18 C 0 km/h
1169 18-05-2009 11:39:24 17.6 C 6.3 g/m*3 17.6 C 0 km/h
1170 18-05-2009 11:51:24 18.4 C 6.29 g/m*3 18.4 C 0 km/h
1171 18-05-2009 12:03:24 18.5 C 6.17 g/m*3 18.5 C 0 km/h
1172 18-05-2009 12:15:24 18.7 C 6.24 g/m*3 18.7 C 0 km/h
1173 18-05-2009 12:27:24 19.4 C 6.01 g/m*3 19.4 C 0 km/h
1174 18-05-2009 12:39:24 19.3 C 5.47 g/m*3 19.3 C 0 km/h
1175 18-05-2009 12:51:24 19.3 C 4.98 g/m*3 19.3 C 0 km/h
Sensor: Nr:Datum:Temp:Abs-Feuchte:Windchill:Wind:
Aussen-T/F 1176 18-05-2009 13:03:23 19.2 C 5.11 g/m*3 19.2 C 0 km/h
1177 18-05-2009 13:15:23 20.6 C 5.19 g/m*3 20.6 C 0 km/h
1178 18-05-2009 13:27:23 20.8 C 3.98 g/m*3 20.8 C 0 km/h
1179 18-05-2009 13:39:24 21.1 C 3.69 g/m*3 21.1 C 0 km/h
1180 18-05-2009 13:51:23 21.1 C 3.69 g/m*3 21.1 C 0 km/h
1181 18-05-2009 14:03:23 20.7 C 3.6 g/m*3 20.7 C 0 km/h
1182 18-05-2009 14:15:23 20.6 C 3.58 g/m*3 20.6 C 0 km/h
1183 18-05-2009 14:27:23 20.8 C 3.62 g/m*3 20.8 C 0 km/h
1184 18-05-2009 14:39:23 20.9 C 3.64 g/m*3 20.9 C 0 km/h
1185 18-05-2009 14:51:22 21.6 C 3.79 g/m*3 21.6 C 0 km/h
1186 18-05-2009 15:03:23 22.5 C 3.99 g/m*3 22.5 C 0 km/h
1187 18-05-2009 15:15:22 22.2 C 3.93 g/m*3 22.2 C 0 km/h
1188 18-05-2009 15:27:22 21.2 C 3.89 g/m*3 21.2 C 0 km/h
1189 18-05-2009 15:39:22 22.3 C 3.95 g/m*3 22.3 C 0 km/h
1190 18-05-2009 15:51:21 22.6 C 4.02 g/m*3 22.6 C 0 km/h
1191 18-05-2009 16:03:22 22 C 4.08 g/m*3 22 C 0 km/h
1192 18-05-2009 16:15:22 21.8 C 4.22 g/m*3 21.8 C 0 km/h
1193 18-05-2009 16:27:22 21.4 C 4.12 g/m*3 21.4 C 0 km/h
1194 18-05-2009 16:39:21 22.6 C 4.02 g/m*3 22.6 C 0 km/h
1195 18-05-2009 16:51:22 22 C 3.88 g/m*3 22 C 0 km/h
1196 18-05-2009 17:03:21 21.8 C 4.22 g/m*3 21.8 C 0 km/h
1197 18-05-2009 17:15:21 22.8 C 4.27 g/m*3 22.8 C 0 km/h
1198 18-05-2009 17:27:21 22.8 C 4.06 g/m*3 22.8 C 0 km/h
1199 18-05-2009 17:39:21 22.2 C 4.12 g/m*3 22.2 C 0 km/h
1200 18-05-2009 17:51:21 23.1 C 4.13 g/m*3 23.1 C 0 km/h
Sensor: Nr:Datum:Temp:Abs-Feuchte:Windchill:Wind:
Aussen-T/F 1201 18-05-2009 18:03:21 22.4 C 3.97 g/m*3 22.4 C 0 km/h
1202 18-05-2009 18:15:20 22.8 C 4.27 g/m*3 22.8 C 0 km/h
1203 18-05-2009 18:27:20 22.6 C 4.02 g/m*3 22.6 C 0 km/h
1204 18-05-2009 18:39:21 23.6 C 4.25 g/m*3 23.6 C 0 km/h
1205 18-05-2009 18:51:20 23.7 C 4.28 g/m*3 23.7 C 0 km/h
1206 18-05-2009 19:03:20 23.4 C 4.21 g/m*3 23.4 C 0 km/h
1207 18-05-2009 19:15:19 23.4 C 4.21 g/m*3 23.4 C 0 km/h
1208 18-05-2009 19:27:19 23.3 C 4.18 g/m*3 23.3 C 0 km/h
1209 18-05-2009 19:39:20 22.3 C 4.15 g/m*3 22.3 C 0 km/h
1210 18-05-2009 19:51:19 22.1 C 4.68 g/m*3 22.1 C 0 km/h
1211 18-05-2009 20:03:20 22.3 C 4.74 g/m*3 22.3 C 0 km/h
1212 18-05-2009 20:15:19 21.8 C 4.99 g/m*3 21.8 C 0 km/h
1213 18-05-2009 20:27:19 21.6 C 5.12 g/m*3 21.6 C 0 km/h
1214 18-05-2009 20:39:19 20.4 C 4.78 g/m*3 20.4 C 0 km/h
1215 18-05-2009 20:51:19 19.4 C 5.01 g/m*3 19.4 C 0 km/h
1216 18-05-2009 21:03:19 18.5 C 5.06 g/m*3 18.5 C 0 km/h
1217 18-05-2009 21:15:19 17.9 C 5.8 g/m*3 17.9 C 0 km/h
1218 18-05-2009 21:27:19 17.3 C 5.3 g/m*3 17.3 C 0 km/h
1219 18-05-2009 21:39:19 17 C 5.5 g/m*3 17 C 0 km/h
1220 18-05-2009 21:51:18 16.7 C 5.4 g/m*3 16.7 C 0 km/h
1221 18-05-2009 22:04:20 16.1 C 5.48 g/m*3 16.1 C 0 km/h
1222 18-05-2009 22:16:20 15.9 C 5.82 g/m*3 15.9 C 0 km/h
1223 18-05-2009 22:28:20 15.2 C 5.58 g/m*3 15.2 C 0 km/h
1224 18-05-2009 22:40:20 14.8 C 5.83 g/m*3 14.8 C 0 km/h
1225 18-05-2009 22:52:20 14.6 C 5.76 g/m*3 14.6 C 0 km/h
Sensor: Nr:Datum:Temp:Abs-Feuchte:Windchill:Wind:
Aussen-T/F 1226 18-05-2009 23:04:20 14 C 5.91 g/m*3 14 C 0 km/h
1227 18-05-2009 23:16:20 13.9 C 6.11 g/m*3 13.9 C 0 km/h
1228 18-05-2009 23:28:20 13.6 C 6.12 g/m*3 13.6 C 0 km/h
1229 18-05-2009 23:40:20 13.5 C 6.2 g/m*3 13.5 C 0 km/h
1230 18-05-2009 23:52:20 12.9 C 6.76 g/m*3 12.9 C 0 km/h
1231 19-05-2009 00:04:20 12.8 C 6.72 g/m*3 12.8 C 0 km/h
1232 19-05-2009 00:16:20 12.6 C 6.75 g/m*3 12.6 C 0 km/h
1233 19-05-2009 00:28:20 12.5 C 6.71 g/m*3 12.5 C 0 km/h
1234 19-05-2009 00:40:20 12.4 C 6.66 g/m*3 12.4 C 0 km/h
1235 19-05-2009 00:52:20 12.1 C 6.43 g/m*3 12.1 C 0 km/h
1236 19-05-2009 01:04:20 12 C 6.5 g/m*3 12 C 0 km/h
1237 19-05-2009 01:16:20 11.6 C 6.65 g/m*3 11.6 C 0 km/h
1238 19-05-2009 01:28:20 11.4 C 6.57 g/m*3 11.4 C 0 km/h
1239 19-05-2009 01:40:20 11.2 C 6.49 g/m*3 11.2 C 0 km/h
1240 19-05-2009 01:52:21 11 C 6.51 g/m*3 11 C 0 km/h
1241 19-05-2009 02:04:21 10.9 C 6.47 g/m*3 10.9 C 0 km/h
1242 19-05-2009 02:16:21 10.7 C 6.48 g/m*3 10.7 C 0 km/h
1243 19-05-2009 02:28:21 10.4 C 6.46 g/m*3 10.4 C 0 km/h
1244 19-05-2009 02:40:21 10.2 C 6.47 g/m*3 10.2 C 0 km/h
1245 19-05-2009 02:52:21 10 C 6.58 g/m*3 10 C 0 km/h
1246 19-05-2009 03:04:21 9.9 C 6.63 g/m*3 9.9 C 0 km/h
1247 19-05-2009 03:16:21 9.8 C 6.59 g/m*3 9.8 C 0 km/h
1248 19-05-2009 03:28:21 9.7 C 6.64 g/m*3 9.7 C 0 km/h
1249 19-05-2009 03:40:21 9.4 C 6.51 g/m*3 9.4 C 0 km/h
1250 19-05-2009 03:52:21 9.3 C 6.56 g/m*3 9.3 C 0 km/h
Sensor: Nr:Datum:Temp:Abs-Feuchte:Windchill:Wind:
Aussen-T/F 1251 19-05-2009 04:04:21 9.3 C 6.56 g/m*3 9.3 C 0 km/h
1252 19-05-2009 04:16:21 9.1 C 6.65 g/m*3 9.1 C 0 km/h
1253 19-05-2009 04:28:21 8.9 C 6.66 g/m*3 8.9 C 0 km/h
1254 19-05-2009 04:40:21 8.8 C 6.7 g/m*3 8.8 C 0 km/h
1255 19-05-2009 04:52:21 8.6 C 6.7 g/m*3 8.6 C 0 km/h
1256 19-05-2009 05:04:21 8.5 C 6.57 g/m*3 8.5 C 0 km/h
1257 19-05-2009 05:16:21 8.4 C 6.62 g/m*3 8.4 C 0 km/h
1258 19-05-2009 05:28:21 8.2 C 6.62 g/m*3 8.2 C 0 km/h
1259 19-05-2009 05:40:22 8.2 C 6.62 g/m*3 8.2 C 0 km/h
1260 19-05-2009 05:52:22 8.1 C 6.57 g/m*3 8.1 C 0 km/h
1261 19-05-2009 06:04:22 8.1 C 6.57 g/m*3 8.1 C 0 km/h
1262 19-05-2009 06:16:20 8.1 C 6.57 g/m*3 8.1 C 0 km/h
1263 19-05-2009 06:28:20 8.1 C 6.66 g/m*3 8.1 C 0 km/h
1264 19-05-2009 06:40:19 8.2 C 6.7 g/m*3 8.2 C 0 km/h
1265 19-05-2009 06:52:19 9 C 7.05 g/m*3 9 C 0 km/h
1266 19-05-2009 07:04:20 9.5 C 7.01 g/m*3 9.5 C 0 km/h
1267 19-05-2009 07:16:19 9.7 C 6.91 g/m*3 9.7 C 0 km/h
1268 19-05-2009 07:28:19 9.6 C 6.87 g/m*3 9.6 C 0 km/h
1269 19-05-2009 07:40:19 9.6 C 6.78 g/m*3 9.6 C 0 km/h
1270 19-05-2009 07:52:19 9.7 C 6.82 g/m*3 9.7 C 0 km/h
1271 19-05-2009 08:04:19 10.3 C 6.9 g/m*3 10.3 C 0 km/h
1272 19-05-2009 08:16:18 10.5 C 6.69 g/m*3 10.5 C 0 km/h
1273 19-05-2009 08:28:18 10.5 C 6.69 g/m*3 10.5 C 0 km/h
1274 19-05-2009 08:40:18 10.8 C 6.72 g/m*3 10.8 C 0 km/h
1275 19-05-2009 08:52:18 11.5 C 6.82 g/m*3 11.5 C 0 km/h
Sensor: Nr:Datum:Temp:Abs-Feuchte:Windchill:Wind:
Aussen-T/F 1276 19-05-2009 09:04:18 12.5 C 6.93 g/m*3 12.5 C 0 km/h
1277 19-05-2009 09:16:18 13.1 C 6.85 g/m*3 13.1 C 0 km/h
1278 19-05-2009 09:28:18 14.1 C 7.04 g/m*3 14.1 C 0 km/h
1279 19-05-2009 09:40:18 14.3 C 7.25 g/m*3 14.3 C 0 km/h
1280 19-05-2009 09:52:18 15.8 C 7.27 g/m*3 15.8 C 0 km/h
1281 19-05-2009 10:04:17 15.8 C 7.27 g/m*3 15.8 C 0 km/h
1282 19-05-2009 10:16:17 16.2 C 7.45 g/m*3 16.2 C 0 km/h
1283 19-05-2009 10:28:18 16.8 C 7.29 g/m*3 16.8 C 0 km/h
1284 19-05-2009 10:40:17 17.7 C 7.54 g/m*3 17.7 C 0 km/h
1285 19-05-2009 10:52:17 18.9 C 7.29 g/m*3 18.9 C 0 km/h
1286 19-05-2009 11:04:16 19.7 C 7.3 g/m*3 19.7 C 0 km/h
1287 19-05-2009 11:16:17 19.9 C 7.04 g/m*3 19.9 C 0 km/h
1288 19-05-2009 11:28:17 20.4 C 6.72 g/m*3 20.4 C 0 km/h
1289 19-05-2009 11:40:17 21 C 6.05 g/m*3 21 C 0 km/h
1290 19-05-2009 11:52:16 21.2 C 6.12 g/m*3 21.2 C 0 km/h
1291 19-05-2009 12:04:17 22.1 C 6.05 g/m*3 22.1 C 0 km/h
1292 19-05-2009 12:16:16 22.8 C 5.69 g/m*3 22.8 C 0 km/h
1293 19-05-2009 12:28:16 22.4 C 5.56 g/m*3 22.4 C 0 km/h
1294 19-05-2009 12:40:16 21.9 C 5.4 g/m*3 21.9 C 0 km/h
1295 19-05-2009 12:52:15 25.1 C 5.09 g/m*3 25.1 C 0 km/h
1296 19-05-2009 13:04:16 23.5 C 5.92 g/m*3 23.5 C 0 km/h
1297 19-05-2009 13:16:16 23.6 C 5.32 g/m*3 23.6 C 0 km/h
1298 19-05-2009 13:28:16 23.9 C 4.76 g/m*3 23.9 C 0 km/h
1299 19-05-2009 13:40:15 24.8 C 4.55 g/m*3 24.8 C 0 km/h
1300 19-05-2009 13:52:16 24.2 C 5.06 g/m*3 24.2 C 0 km/h
Sensor: Nr:Datum:Temp:Abs-Feuchte:Windchill:Wind:
Aussen-T/F 1301 19-05-2009 14:04:15 23.8 C 5.16 g/m*3 23.8 C 0 km/h
1302 19-05-2009 14:16:15 23.5 C 6.56 g/m*3 23.5 C 0 km/h
1303 19-05-2009 14:28:16 23.7 C 7.06 g/m*3 23.7 C 0 km/h
1304 19-05-2009 14:40:14 22.7 C 7.27 g/m*3 22.7 C 0 km/h
1305 19-05-2009 14:52:15 24.1 C 6.35 g/m*3 24.1 C 0 km/h
1306 19-05-2009 15:04:14 25.4 C 5.18 g/m*3 25.4 C 0 km/h
1307 19-05-2009 15:16:14 24.1 C 6.78 g/m*3 24.1 C 0 km/h
1308 19-05-2009 15:28:14 23.2 C 7.48 g/m*3 23.2 C 0 km/h
1309 19-05-2009 15:40:15 26 C 5.6 g/m*3 26 C 0 km/h
1310 19-05-2009 15:52:14 27.4 C 5.79 g/m*3 27.4 C 0 km/h
1311 19-05-2009 16:04:14 27.7 C 5.35 g/m*3 27.7 C 0 km/h
1312 19-05-2009 16:16:13 28.2 C 5.5 g/m*3 28.2 C 0 km/h
1313 19-05-2009 16:28:13 27.9 C 5.41 g/m*3 27.9 C 0 km/h
1314 19-05-2009 16:40:14 27.3 C 6.54 g/m*3 27.3 C 0 km/h
1315 19-05-2009 16:52:13 26.5 C 6.01 g/m*3 26.5 C 0 km/h
1316 19-05-2009 17:04:13 25.9 C 6.29 g/m*3 25.9 C 0 km/h
1317 19-05-2009 17:16:14 24.9 C 7.1 g/m*3 24.9 C 0 km/h
1318 19-05-2009 17:28:14 21.6 C 10.05 g/m*3 21.6 C 0 km/h
1319 19-05-2009 17:40:13 23.8 C 10.54 g/m*3 23.8 C 0 km/h
1320 19-05-2009 17:52:13 23.6 C 9.57 g/m*3 23.6 C 0 km/h
1321 19-05-2009 18:04:13 23.7 C 8.98 g/m*3 23.7 C 0 km/h
1322 19-05-2009 18:16:13 25.1 C 7.18 g/m*3 25.1 C 0 km/h
1323 19-05-2009 18:28:14 24.9 C 8.7 g/m*3 24.9 C 0 km/h
1324 19-05-2009 18:40:12 24.1 C 8.53 g/m*3 24.1 C 0 km/h
1325 19-05-2009 18:52:12 23.7 C 9.41 g/m*3 23.7 C 0 km/h
Sensor: Nr:Datum:Temp:Abs-Feuchte:Windchill:Wind:
Aussen-T/F 1326 19-05-2009 19:04:12 23.1 C 9.3 g/m*3 23.1 C 0 km/h
1327 19-05-2009 19:16:12 22 C 8.93 g/m*3 22 C 0 km/h
1328 19-05-2009 19:28:12 21.6 C 8.72 g/m*3 21.6 C 0 km/h
1329 19-05-2009 19:40:12 21.2 C 9.08 g/m*3 21.2 C 0 km/h
1330 19-05-2009 19:52:12 20.6 C 9.31 g/m*3 20.6 C 0 km/h
1331 19-05-2009 20:04:12 18.5 C 8.54 g/m*3 18.5 C 0 km/h
1332 19-05-2009 20:16:11 16.9 C 9.21 g/m*3 16.9 C 0 km/h
1333 19-05-2009 20:28:11 15.7 C 9.63 g/m*3 15.7 C 0 km/h
1334 19-05-2009 20:40:12 15.6 C 10.24 g/m*3 15.6 C 0 km/h
1335 19-05-2009 20:52:11 16.1 C 10.55 g/m*3 16.1 C 0 km/h
1336 19-05-2009 21:04:11 15.9 C 10.56 g/m*3 15.9 C 0 km/h
1337 19-05-2009 21:16:11 15.9 C 10.7 g/m*3 15.9 C 0 km/h
1338 19-05-2009 21:28:12 15.8 C 10.36 g/m*3 15.8 C 0 km/h
1339 19-05-2009 21:40:10 15.7 C 10.17 g/m*3 15.7 C 0 km/h
1340 19-05-2009 21:52:11 15.6 C 10.11 g/m*3 15.6 C 0 km/h
1341 19-05-2009 22:04:10 15.3 C 9.79 g/m*3 15.3 C 0 km/h
1342 19-05-2009 22:16:10 15.3 C 9.66 g/m*3 15.3 C 0 km/h
1343 19-05-2009 22:28:10 15 C 9.49 g/m*3 15 C 0 km/h
1344 19-05-2009 22:41:13 14.7 C 9.44 g/m*3 14.7 C 0 km/h
1345 19-05-2009 22:53:13 14.7 C 9.44 g/m*3 14.7 C 0 km/h
1346 19-05-2009 23:05:13 14.4 C 9.27 g/m*3 14.4 C 0 km/h
1347 19-05-2009 23:17:13 14.2 C 9.28 g/m*3 14.2 C 0 km/h
1348 19-05-2009 23:29:13 14.1 C 9.22 g/m*3 14.1 C 0 km/h
1349 19-05-2009 23:41:13 13.9 C 9.47 g/m*3 13.9 C 0 km/h
1350 19-05-2009 23:53:13 13.7 C 9.24 g/m*3 13.7 C 0 km/h
Sensor: Nr:Datum:Temp:Abs-Feuchte:Windchill:Wind:
Aussen-T/F 1351 20-05-2009 00:05:13 13.6 C 9.3 g/m*3 13.6 C 0 km/h
1352 20-05-2009 00:17:13 13.3 C 9.01 g/m*3 13.3 C 0 km/h
1353 20-05-2009 00:29:13 13.4 C 9.07 g/m*3 13.4 C 0 km/h
1354 20-05-2009 00:41:13 13.2 C 8.96 g/m*3 13.2 C 0 km/h
1355 20-05-2009 00:53:14 13.1 C 8.9 g/m*3 13.1 C 0 km/h
1356 20-05-2009 01:05:14 13 C 8.85 g/m*3 13 C 0 km/h
1357 20-05-2009 01:17:14 12.8 C 8.85 g/m*3 12.8 C 0 km/h
1358 20-05-2009 01:29:14 12.6 C 8.74 g/m*3 12.6 C 0 km/h
1359 20-05-2009 01:41:14 12.5 C 8.69 g/m*3 12.5 C 0 km/h
1360 20-05-2009 01:53:14 12.4 C 8.74 g/m*3 12.4 C 0 km/h
1361 20-05-2009 02:05:14 12.2 C 8.63 g/m*3 12.2 C 0 km/h
1362 20-05-2009 02:17:14 12.1 C 8.69 g/m*3 12.1 C 0 km/h
1363 20-05-2009 02:29:14 12 C 8.63 g/m*3 12 C 0 km/h
1364 20-05-2009 02:41:14 11.8 C 8.53 g/m*3 11.8 C 0 km/h
1365 20-05-2009 02:53:14 11.8 C 8.63 g/m*3 11.8 C 0 km/h
1366 20-05-2009 03:05:14 11.8 C 8.74 g/m*3 11.8 C 0 km/h
1367 20-05-2009 03:17:14 11.5 C 8.68 g/m*3 11.5 C 0 km/h
1368 20-05-2009 03:29:14 11.3 C 8.67 g/m*3 11.3 C 0 km/h
1369 20-05-2009 03:41:14 11.1 C 8.56 g/m*3 11.1 C 0 km/h
1370 20-05-2009 03:53:14 11.1 C 8.66 g/m*3 11.1 C 0 km/h
1371 20-05-2009 04:05:14 11 C 8.61 g/m*3 11 C 0 km/h
1372 20-05-2009 04:17:14 10.9 C 8.55 g/m*3 10.9 C 0 km/h
1373 20-05-2009 04:29:15 10.8 C 8.5 g/m*3 10.8 C 0 km/h
1374 20-05-2009 04:41:15 10.6 C 8.39 g/m*3 10.6 C 0 km/h
1375 20-05-2009 04:53:15 10.4 C 8.38 g/m*3 10.4 C 0 km/h
Sensor: Nr:Datum:Temp:Abs-Feuchte:Windchill:Wind:
Aussen-T/F 1376 20-05-2009 05:05:15 10.3 C 8.33 g/m*3 10.3 C 0 km/h
1377 20-05-2009 05:17:15 10.3 C 8.43 g/m*3 10.3 C 0 km/h
1378 20-05-2009 05:29:15 10.2 C 8.37 g/m*3 10.2 C 0 km/h
1379 20-05-2009 05:41:15 10 C 8.27 g/m*3 10 C 0 km/h
1380 20-05-2009 05:53:15 10.1 C 8.32 g/m*3 10.1 C 0 km/h
1381 20-05-2009 06:05:15 10.2 C 8.37 g/m*3 10.2 C 0 km/h
1382 20-05-2009 06:17:15 10.4 C 8.48 g/m*3 10.4 C 0 km/h
1383 20-05-2009 06:29:15 10.6 C 8.49 g/m*3 10.6 C 0 km/h
1384 20-05-2009 06:41:15 10.7 C 8.55 g/m*3 10.7 C 0 km/h
1385 20-05-2009 06:53:12 10.8 C 8.5 g/m*3 10.8 C 0 km/h
1386 20-05-2009 07:05:12 10.9 C 8.55 g/m*3 10.9 C 0 km/h
1387 20-05-2009 07:17:11 11 C 8.61 g/m*3 11 C 0 km/h
1388 20-05-2009 07:29:11 11 C 8.61 g/m*3 11 C 0 km/h
1389 20-05-2009 07:41:12 11.4 C 8.72 g/m*3 11.4 C 0 km/h
1390 20-05-2009 07:53:11 11.5 C 8.68 g/m*3 11.5 C 0 km/h
1391 20-05-2009 08:05:11 11.7 C 8.79 g/m*3 11.7 C 0 km/h
1392 20-05-2009 08:17:10 12.1 C 8.79 g/m*3 12.1 C 0 km/h
1393 20-05-2009 08:29:10 12.8 C 8.85 g/m*3 12.8 C 0 km/h
1394 20-05-2009 08:41:11 13.2 C 8.73 g/m*3 13.2 C 0 km/h
1395 20-05-2009 08:53:10 13.9 C 8.87 g/m*3 13.9 C 0 km/h
1396 20-05-2009 09:05:10 14 C 8.68 g/m*3 14 C 0 km/h
1397 20-05-2009 09:17:11 14.4 C 8.9 g/m*3 14.4 C 0 km/h
1398 20-05-2009 09:29:11 15 C 8.98 g/m*3 15 C 0 km/h
1399 20-05-2009 09:41:10 15.9 C 9.21 g/m*3 15.9 C 0 km/h
1400 20-05-2009 09:53:10 16.6 C 9.04 g/m*3 16.6 C 0 km/h
Sensor: Nr:Datum:Temp:Abs-Feuchte:Windchill:Wind:
Aussen-T/F 1401 20-05-2009 10:05:10 17 C 9.26 g/m*3 17 C 0 km/h
1402 20-05-2009 10:17:10 17.5 C 9.54 g/m*3 17.5 C 0 km/h
1403 20-05-2009 10:29:10 17.8 C 9.71 g/m*3 17.8 C 0 km/h
1404 20-05-2009 10:41:10 17.9 C 9.31 g/m*3 17.9 C 0 km/h
1405 20-05-2009 10:53:10 18.6 C 9.39 g/m*3 18.6 C 0 km/h
1406 20-05-2009 11:05:10 19.2 C 8.9 g/m*3 19.2 C 0 km/h
1407 20-05-2009 11:17:09 20.4 C 8.85 g/m*3 20.4 C 0 km/h
1408 20-05-2009 11:29:09 20.8 C 8.69 g/m*3 20.8 C 0 km/h
1409 20-05-2009 11:41:09 21.6 C 8.53 g/m*3 21.6 C 0 km/h
1410 20-05-2009 11:53:09 22.5 C 8.39 g/m*3 22.5 C 0 km/h
1411 20-05-2009 12:05:09 23.1 C 8.27 g/m*3 23.1 C 0 km/h
1412 20-05-2009 12:17:08 23.4 C 7.99 g/m*3 23.4 C 0 km/h
1413 20-05-2009 12:29:08 24.2 C 7.7 g/m*3 24.2 C 0 km/h
1414 20-05-2009 12:41:08 24.7 C 7.24 g/m*3 24.7 C 0 km/h
1415 20-05-2009 12:53:08 25.2 C 7.45 g/m*3 25.2 C 0 km/h
1416 20-05-2009 13:05:08 25.5 C 7.1 g/m*3 25.5 C 0 km/h
1417 20-05-2009 13:17:08 26.6 C 7.3 g/m*3 26.6 C 0 km/h
1418 20-05-2009 13:29:08 26.8 C 6.62 g/m*3 26.8 C 0 km/h
1419 20-05-2009 13:41:08 26.3 C 6.68 g/m*3 26.3 C 0 km/h
1420 20-05-2009 13:53:08 26 C 6.57 g/m*3 26 C 0 km/h
1421 20-05-2009 14:05:07 25.4 C 7.06 g/m*3 25.4 C 0 km/h
1422 20-05-2009 14:17:08 25.5 C 7.1 g/m*3 25.5 C 0 km/h
1423 20-05-2009 14:29:08 26.4 C 7.22 g/m*3 26.4 C 0 km/h
1424 20-05-2009 14:41:07 27.2 C 7.03 g/m*3 27.2 C 0 km/h
1425 20-05-2009 14:53:07 28 C 6.8 g/m*3 28 C 0 km/h
Sensor: Nr:Datum:Temp:Abs-Feuchte:Windchill:Wind:
Aussen-T/F 1426 20-05-2009 15:05:07 28.1 C 7.11 g/m*3 28.1 C 0 km/h
1427 20-05-2009 15:17:07 27.9 C 7.57 g/m*3 27.9 C 0 km/h
1428 20-05-2009 15:29:07 28.4 C 6.95 g/m*3 28.4 C 0 km/h
1429 20-05-2009 15:41:07 28.6 C 7.31 g/m*3 28.6 C 0 km/h
1430 20-05-2009 15:53:06 28.7 C 7.35 g/m*3 28.7 C 0 km/h
1431 20-05-2009 16:05:07 28 C 7.07 g/m*3 28 C 0 km/h
1432 20-05-2009 16:17:06 27.7 C 7.49 g/m*3 27.7 C 0 km/h
1433 20-05-2009 16:29:06 26.4 C 7.97 g/m*3 26.4 C 0 km/h
1434 20-05-2009 16:41:06 27 C 6.95 g/m*3 27 C 0 km/h
1435 20-05-2009 16:53:06 28.2 C 7.42 g/m*3 28.2 C 0 km/h
1436 20-05-2009 17:05:06 28.8 C 7.1 g/m*3 28.8 C 0 km/h
1437 20-05-2009 17:17:06 28.2 C 8.25 g/m*3 28.2 C 0 km/h
1438 20-05-2009 17:29:06 27.7 C 8.29 g/m*3 27.7 C 0 km/h
1439 20-05-2009 17:41:05 27.4 C 8.68 g/m*3 27.4 C 0 km/h
1440 20-05-2009 17:53:06 26.8 C 8.65 g/m*3 26.8 C 0 km/h
1441 20-05-2009 18:05:05 27.7 C 8.56 g/m*3 27.7 C 0 km/h
1442 20-05-2009 18:17:05 26.5 C 8.76 g/m*3 26.5 C 0 km/h
1443 20-05-2009 18:29:06 26.3 C 8.91 g/m*3 26.3 C 0 km/h
1444 20-05-2009 18:41:05 26.1 C 8.81 g/m*3 26.1 C 0 km/h
1445 20-05-2009 18:53:05 25.5 C 9.71 g/m*3 25.5 C 0 km/h
1446 20-05-2009 19:05:05 24.8 C 9.79 g/m*3 24.8 C 0 km/h
1447 20-05-2009 19:17:04 24.5 C 9.85 g/m*3 24.5 C 0 km/h
1448 20-05-2009 19:29:04 23.9 C 9.95 g/m*3 23.9 C 0 km/h
1449 20-05-2009 19:41:05 23.8 C 9.9 g/m*3 23.8 C 0 km/h
1450 20-05-2009 19:53:04 23.5 C 10.15 g/m*3 23.5 C 0 km/h
Sensor: Nr:Datum:Temp:Abs-Feuchte:Windchill:Wind:
Aussen-T/F 1451 20-05-2009 20:05:04 23.1 C 10.13 g/m*3 23.1 C 0 km/h
1452 20-05-2009 20:17:04 22.2 C 10.41 g/m*3 22.2 C 0 km/h
1453 20-05-2009 20:29:04 21.8 C 10.55 g/m*3 21.8 C 0 km/h
1454 20-05-2009 20:41:04 21.5 C 10.37 g/m*3 21.5 C 0 km/h
1455 20-05-2009 20:53:03 21.3 C 10.62 g/m*3 21.3 C 0 km/h
1456 20-05-2009 21:05:04 20.8 C 10.5 g/m*3 20.8 C 0 km/h
1457 20-05-2009 21:17:04 20.4 C 10.26 g/m*3 20.4 C 0 km/h
1458 20-05-2009 21:29:04 20.3 C 10.38 g/m*3 20.3 C 0 km/h
1459 20-05-2009 21:41:03 19.8 C 10.42 g/m*3 19.8 C 0 km/h
1460 20-05-2009 21:53:04 19.5 C 10.24 g/m*3 19.5 C 0 km/h
1461 20-05-2009 22:05:03 19.2 C 10.22 g/m*3 19.2 C 0 km/h
1462 20-05-2009 22:17:03 19.1 C 10.33 g/m*3 19.1 C 0 km/h
1463 20-05-2009 22:29:03 19 C 10.27 g/m*3 19 C 0 km/h
1464 20-05-2009 22:41:02 18.9 C 10.53 g/m*3 18.9 C 0 km/h
1465 20-05-2009 22:54:04 18.7 C 10.73 g/m*3 18.7 C 0 km/h
1466 20-05-2009 23:06:04 18.4 C 10.54 g/m*3 18.4 C 0 km/h
1467 20-05-2009 23:18:04 18.3 C 10.79 g/m*3 18.3 C 0 km/h
1468 20-05-2009 23:30:04 18.2 C 10.72 g/m*3 18.2 C 0 km/h
1469 20-05-2009 23:42:04 18.2 C 11.04 g/m*3 18.2 C 0 km/h
1470 20-05-2009 23:54:04 18.1 C 10.82 g/m*3 18.1 C 0 km/h
1471 21-05-2009 00:06:04 17.7 C 10.86 g/m*3 17.7 C 0 km/h
1472 21-05-2009 00:18:04 17.5 C 10.73 g/m*3 17.5 C 0 km/h
1473 21-05-2009 00:30:04 17.5 C 10.88 g/m*3 17.5 C 0 km/h
1474 21-05-2009 00:42:04 17.4 C 10.82 g/m*3 17.4 C 0 km/h
1475 21-05-2009 00:54:04 17.1 C 10.77 g/m*3 17.1 C 0 km/h
Sensor: Nr:Datum:Temp:Abs-Feuchte:Windchill:Wind:
Aussen-T/F 1476 21-05-2009 01:06:04 16.9 C 10.79 g/m*3 16.9 C 0 km/h
1477 21-05-2009 01:18:04 16.8 C 10.87 g/m*3 16.8 C 0 km/h
1478 21-05-2009 01:30:04 16.4 C 10.61 g/m*3 16.4 C 0 km/h
1479 21-05-2009 01:42:04 16.2 C 10.62 g/m*3 16.2 C 0 km/h
1480 21-05-2009 01:54:04 16.2 C 10.48 g/m*3 16.2 C 0 km/h
1481 21-05-2009 02:06:04 16 C 10.49 g/m*3 16 C 0 km/h
1482 21-05-2009 02:18:05 15.7 C 10.44 g/m*3 15.7 C 0 km/h
1483 21-05-2009 02:30:05 15.6 C 10.51 g/m*3 15.6 C 0 km/h
1484 21-05-2009 02:42:05 15.4 C 10.38 g/m*3 15.4 C 0 km/h
1485 21-05-2009 02:54:05 15.2 C 10.25 g/m*3 15.2 C 0 km/h
1486 21-05-2009 03:06:05 15.2 C 10.25 g/m*3 15.2 C 0 km/h
1487 21-05-2009 03:18:05 15.2 C 10.25 g/m*3 15.2 C 0 km/h
1488 21-05-2009 03:30:05 15 C 10.26 g/m*3 15 C 0 km/h
1489 21-05-2009 03:42:05 15 C 10.26 g/m*3 15 C 0 km/h
1490 21-05-2009 03:54:05 15 C 10.13 g/m*3 15 C 0 km/h
1491 21-05-2009 04:06:05 14.9 C 10.32 g/m*3 14.9 C 0 km/h
1492 21-05-2009 04:18:05 14.7 C 10.32 g/m*3 14.7 C 0 km/h
1493 21-05-2009 04:30:05 14.7 C 10.32 g/m*3 14.7 C 0 km/h
1494 21-05-2009 04:42:05 14.7 C 10.32 g/m*3 14.7 C 0 km/h
1495 21-05-2009 04:54:05 14.7 C 10.2 g/m*3 14.7 C 0 km/h
1496 21-05-2009 05:06:05 14.7 C 10.2 g/m*3 14.7 C 0 km/h
1497 21-05-2009 05:18:05 14.6 C 10.14 g/m*3 14.6 C 0 km/h
1498 21-05-2009 05:30:05 14.5 C 10.07 g/m*3 14.5 C 0 km/h
1499 21-05-2009 05:42:05 14.6 C 10.14 g/m*3 14.6 C 0 km/h
1500 21-05-2009 05:54:05 14.6 C 10.14 g/m*3 14.6 C 0 km/h
Sensor: Nr:Datum:Temp:Abs-Feuchte:Windchill:Wind:
Aussen-T/F 1501 21-05-2009 06:06:06 14.6 C 10.26 g/m*3 14.6 C 0 km/h
1502 21-05-2009 06:18:06 14.3 C 10.2 g/m*3 14.3 C 0 km/h
1503 21-05-2009 06:30:06 14.4 C 10.26 g/m*3 14.4 C 0 km/h
1504 21-05-2009 06:42:06 14.5 C 10.32 g/m*3 14.5 C 0 km/h
1505 21-05-2009 06:54:06 14.5 C 10.32 g/m*3 14.5 C 0 km/h
1506 21-05-2009 07:06:06 14.6 C 10.39 g/m*3 14.6 C 0 km/h
1507 21-05-2009 07:18:03 14.4 C 10.38 g/m*3 14.4 C 0 km/h
1508 21-05-2009 07:30:04 14.6 C 10.64 g/m*3 14.6 C 0 km/h
1509 21-05-2009 07:42:04 14.7 C 10.7 g/m*3 14.7 C 0 km/h
1510 21-05-2009 07:54:03 14.8 C 10.64 g/m*3 14.8 C 0 km/h
1511 21-05-2009 08:06:03 15.1 C 10.71 g/m*3 15.1 C 0 km/h
1512 21-05-2009 08:18:04 15.6 C 10.91 g/m*3 15.6 C 0 km/h
1513 21-05-2009 08:30:03 16 C 10.63 g/m*3 16 C 0 km/h
1514 21-05-2009 08:42:03 16.3 C 10.54 g/m*3 16.3 C 0 km/h
1515 21-05-2009 08:54:03 16.6 C 10.59 g/m*3 16.6 C 0 km/h
1516 21-05-2009 09:06:03 16.3 C 10.68 g/m*3 16.3 C 0 km/h
1517 21-05-2009 09:18:03 16.6 C 11.02 g/m*3 16.6 C 0 km/h
1518 21-05-2009 09:30:03 17.3 C 10.9 g/m*3 17.3 C 0 km/h
1519 21-05-2009 09:42:03 18.1 C 10.66 g/m*3 18.1 C 0 km/h
1520 21-05-2009 09:54:03 18.6 C 10.82 g/m*3 18.6 C 0 km/h
1521 21-05-2009 10:06:02 19.5 C 10.74 g/m*3 19.5 C 0 km/h
1522 21-05-2009 10:18:02 20.3 C 10.55 g/m*3 20.3 C 0 km/h
1523 21-05-2009 10:30:02 20.9 C 10.56 g/m*3 20.9 C 0 km/h
1524 21-05-2009 10:42:02 21.7 C 10.87 g/m*3 21.7 C 0 km/h
1525 21-05-2009 10:54:02 22.5 C 10.59 g/m*3 22.5 C 0 km/h
Sensor: Nr:Datum:Temp:Abs-Feuchte:Windchill:Wind:
Aussen-T/F 1526 21-05-2009 11:06:01 22.4 C 9.73 g/m*3 22.4 C 0 km/h
1527 21-05-2009 11:18:02 22.3 C 9.48 g/m*3 22.3 C 0 km/h
1528 21-05-2009 11:30:01 23.2 C 9.36 g/m*3 23.2 C 0 km/h
1529 21-05-2009 11:42:01 23 C 9.25 g/m*3 23 C 0 km/h
1530 21-05-2009 11:54:02 23.7 C 9.2 g/m*3 23.7 C 0 km/h
1531 21-05-2009 12:06:01 24.5 C 9.18 g/m*3 24.5 C 0 km/h
1532 21-05-2009 12:18:01 24.3 C 9.52 g/m*3 24.3 C 0 km/h
1533 21-05-2009 12:30:01 25.2 C 9.31 g/m*3 25.2 C 0 km/h
1534 21-05-2009 12:42:01 26.1 C 9.06 g/m*3 26.1 C 0 km/h
1535 21-05-2009 12:54:01 27.4 C 9.21 g/m*3 27.4 C 0 km/h
1536 21-05-2009 13:06:01 27.2 C 8.85 g/m*3 27.2 C 0 km/h
1537 21-05-2009 13:18:00 26.4 C 8.96 g/m*3 26.4 C 0 km/h
1538 21-05-2009 13:30:01 26.7 C 9.37 g/m*3 26.7 C 0 km/h
1539 21-05-2009 13:42:01 26.7 C 9.37 g/m*3 26.7 C 0 km/h
1540 21-05-2009 13:54:00 25.1 C 9.26 g/m*3 25.1 C 0 km/h
1541 21-05-2009 14:06:00 24.6 C 9.45 g/m*3 24.6 C 0 km/h
1542 21-05-2009 14:18:00 24.6 C 9.23 g/m*3 24.6 C 0 km/h
1543 21-05-2009 14:30:00 24.1 C 9.41 g/m*3 24.1 C 0 km/h
1544 21-05-2009 14:42:00 25.3 C 9.13 g/m*3 25.3 C 0 km/h
1545 21-05-2009 14:54:59 26.9 C 8.96 g/m*3 26.9 C 0 km/h
1546 21-05-2009 15:05:59 26.4 C 8.71 g/m*3 26.4 C 0 km/h
1547 21-05-2009 15:18:00 25.4 C 9.18 g/m*3 25.4 C 0 km/h
1548 21-05-2009 15:30:59 24.5 C 9.18 g/m*3 24.5 C 0 km/h
1549 21-05-2009 15:42:59 24.2 C 9.02 g/m*3 24.2 C 0 km/h
1550 21-05-2009 15:54:59 25 C 9.21 g/m*3 25 C 0 km/h
Sensor: Nr:Datum:Temp:Abs-Feuchte:Windchill:Wind:
Aussen-T/F 1551 21-05-2009 16:06:59 24.8 C 9.1 g/m*3 24.8 C 0 km/h
1552 21-05-2009 16:18:59 24.1 C 8.53 g/m*3 24.1 C 0 km/h
1553 21-05-2009 16:30:59 24.6 C 9 g/m*3 24.6 C 0 km/h
1554 21-05-2009 16:42:59 25.8 C 9.39 g/m*3 25.8 C 0 km/h
1555 21-05-2009 16:54:58 24.7 C 9.05 g/m*3 24.7 C 0 km/h
1556 21-05-2009 17:06:58 25.1 C 9.03 g/m*3 25.1 C 0 km/h
1557 21-05-2009 17:18:59 25.1 C 9.03 g/m*3 25.1 C 0 km/h
1558 21-05-2009 17:30:58 24.8 C 9.1 g/m*3 24.8 C 0 km/h
1559 21-05-2009 17:42:58 24.4 C 9.79 g/m*3 24.4 C 0 km/h
1560 21-05-2009 17:54:58 23.5 C 9.94 g/m*3 23.5 C 0 km/h
1561 21-05-2009 18:06:58 23.3 C 9.41 g/m*3 23.3 C 0 km/h
1562 21-05-2009 18:18:58 23.1 C 10.54 g/m*3 23.1 C 0 km/h
1563 21-05-2009 18:30:57 22.7 C 10.3 g/m*3 22.7 C 0 km/h
1564 21-05-2009 18:42:57 22.4 C 10.13 g/m*3 22.4 C 0 km/h
1565 21-05-2009 18:54:58 22.3 C 10.07 g/m*3 22.3 C 0 km/h
1566 21-05-2009 19:06:57 22 C 9.9 g/m*3 22 C 0 km/h
1567 21-05-2009 19:18:57 21.9 C 9.84 g/m*3 21.9 C 0 km/h
1568 21-05-2009 19:30:57 21.9 C 9.84 g/m*3 21.9 C 0 km/h
1569 21-05-2009 19:42:57 21.7 C 9.92 g/m*3 21.7 C 0 km/h
1570 21-05-2009 19:54:57 21.6 C 9.67 g/m*3 21.6 C 0 km/h
1571 21-05-2009 20:06:56 20.9 C 9.29 g/m*3 20.9 C 0 km/h
1572 21-05-2009 20:18:56 19.4 C 9.18 g/m*3 19.4 C 0 km/h
1573 21-05-2009 20:30:57 19.3 C 9.79 g/m*3 19.3 C 0 km/h
1574 21-05-2009 20:42:57 17.4 C 11.41 g/m*3 17.4 C 0 km/h
1575 21-05-2009 20:54:56 16.4 C 11.86 g/m*3 16.4 C 0 km/h
Sensor: Nr:Datum:Temp:Abs-Feuchte:Windchill:Wind:
Aussen-T/F 1576 21-05-2009 21:06:56 16.2 C 12 g/m*3 16.2 C 0 km/h
1577 21-05-2009 21:18:55 16.1 C 12.06 g/m*3 16.1 C 0 km/h
1578 21-05-2009 21:30:56 16.1 C 12.2 g/m*3 16.1 C 0 km/h
1579 21-05-2009 21:42:56 16.2 C 12.27 g/m*3 16.2 C 0 km/h
1580 21-05-2009 21:54:55 16.2 C 12.27 g/m*3 16.2 C 0 km/h
1581 21-05-2009 22:06:55 15.8 C 12.11 g/m*3 15.8 C 0 km/h
1582 21-05-2009 22:18:56 15.8 C 12.11 g/m*3 15.8 C 0 km/h
1583 21-05-2009 22:30:55 15.8 C 12.11 g/m*3 15.8 C 0 km/h
1584 21-05-2009 22:42:55 15.7 C 12.04 g/m*3 15.7 C 0 km/h
1585 21-05-2009 22:54:55 15.4 C 11.69 g/m*3 15.4 C 0 km/h
1586 21-05-2009 23:06:55 15 C 11.16 g/m*3 15 C 0 km/h
1587 21-05-2009 23:18:55 14.6 C 10.89 g/m*3 14.6 C 0 km/h
1588 21-05-2009 23:30:54 14.1 C 10.44 g/m*3 14.1 C 0 km/h
1589 21-05-2009 23:42:54 13.7 C 10.07 g/m*3 13.7 C 0 km/h
1590 21-05-2009 23:54:54 13.8 C 10.13 g/m*3 13.8 C 0 km/h
1591 22-05-2009 00:06:54 13.5 C 9.83 g/m*3 13.5 C 0 km/h
1592 22-05-2009 00:18:55 13.4 C 9.65 g/m*3 13.4 C 0 km/h
1593 22-05-2009 00:30:54 13.3 C 9.7 g/m*3 13.3 C 0 km/h
1594 22-05-2009 00:42:54 13.3 C 9.7 g/m*3 13.3 C 0 km/h
1595 22-05-2009 00:54:54 13.4 C 9.88 g/m*3 13.4 C 0 km/h
1596 22-05-2009 01:06:53 13.3 C 9.82 g/m*3 13.3 C 0 km/h
1597 22-05-2009 01:18:54 13.4 C 9.88 g/m*3 13.4 C 0 km/h
1598 22-05-2009 01:30:53 13.2 C 9.64 g/m*3 13.2 C 0 km/h
1599 22-05-2009 01:42:53 13.1 C 9.47 g/m*3 13.1 C 0 km/h
1600 22-05-2009 01:54:53 13.3 C 9.7 g/m*3 13.3 C 0 km/h
Sensor: Nr:Datum:Temp:Abs-Feuchte:Windchill:Wind:
Aussen-T/F 1601 22-05-2009 02:06:53 13.4 C 9.65 g/m*3 13.4 C 0 km/h
1602 22-05-2009 02:18:53 13.4 C 9.42 g/m*3 13.4 C 0 km/h
1603 22-05-2009 02:30:53 13.5 C 9.36 g/m*3 13.5 C 0 km/h
1604 22-05-2009 02:42:53 13.3 C 9.24 g/m*3 13.3 C 0 km/h
1605 22-05-2009 02:56:01 13.2 C 9.19 g/m*3 13.2 C 0 km/h
1606 22-05-2009 03:08:01 13.1 C 9.01 g/m*3 13.1 C 0 km/h
1607 22-05-2009 03:20:02 13.2 C 9.07 g/m*3 13.2 C 0 km/h
1608 22-05-2009 03:32:01 13.4 C 9.18 g/m*3 13.4 C 0 km/h
1609 22-05-2009 03:44:01 13.5 C 9.24 g/m*3 13.5 C 0 km/h
1610 22-05-2009 03:56:01 13.2 C 9.19 g/m*3 13.2 C 0 km/h
1611 22-05-2009 04:07:53 13.1 C 9.24 g/m*3 13.1 C 0 km/h
1612 22-05-2009 04:19:54 13 C 9.07 g/m*3 13 C 0 km/h
1613 22-05-2009 04:31:54 13.1 C 9.01 g/m*3 13.1 C 0 km/h
1614 22-05-2009 04:43:54 13 C 8.85 g/m*3 13 C 0 km/h
1615 22-05-2009 04:55:54 12.8 C 8.85 g/m*3 12.8 C 0 km/h
1616 22-05-2009 05:07:53 12.9 C 8.9 g/m*3 12.9 C 0 km/h
1617 22-05-2009 05:19:53 13 C 8.96 g/m*3 13 C 0 km/h
1618 22-05-2009 05:31:53 12.9 C 8.9 g/m*3 12.9 C 0 km/h
1619 22-05-2009 05:43:53 13 C 8.85 g/m*3 13 C 0 km/h
1620 22-05-2009 05:55:53 12.8 C 8.74 g/m*3 12.8 C 0 km/h
1621 22-05-2009 06:07:53 12.7 C 8.79 g/m*3 12.7 C 0 km/h
1622 22-05-2009 06:19:52 12.4 C 8.52 g/m*3 12.4 C 0 km/h
1623 22-05-2009 06:31:52 12.5 C 8.58 g/m*3 12.5 C 0 km/h
1624 22-05-2009 06:43:52 12.5 C 8.69 g/m*3 12.5 C 0 km/h
1625 22-05-2009 06:55:52 12.7 C 8.91 g/m*3 12.7 C 0 km/h
Sensor: Nr:Datum:Temp:Abs-Feuchte:Windchill:Wind:
Aussen-T/F 1626 22-05-2009 07:07:52 13.2 C 9.19 g/m*3 13.2 C 0 km/h
1627 22-05-2009 07:19:52 13.5 C 9.47 g/m*3 13.5 C 0 km/h
1628 22-05-2009 07:31:52 13.7 C 9.35 g/m*3 13.7 C 0 km/h
1629 22-05-2009 07:43:52 13.9 C 9.23 g/m*3 13.9 C 0 km/h
1630 22-05-2009 07:55:52 13.8 C 9.17 g/m*3 13.8 C 0 km/h
1631 22-05-2009 08:07:51 13.8 C 9.17 g/m*3 13.8 C 0 km/h
1632 22-05-2009 08:19:51 14.1 C 9.22 g/m*3 14.1 C 0 km/h
1633 22-05-2009 08:31:51 14.5 C 9.58 g/m*3 14.5 C 0 km/h
1634 22-05-2009 08:43:51 14.9 C 9.05 g/m*3 14.9 C 0 km/h
1635 22-05-2009 08:55:51 15.3 C 8.49 g/m*3 15.3 C 0 km/h
1636 22-05-2009 09:07:51 16 C 8.17 g/m*3 16 C 0 km/h
1637 22-05-2009 09:19:51 16.3 C 8.32 g/m*3 16.3 C 0 km/h
1638 22-05-2009 09:31:50 16.5 C 8 g/m*3 16.5 C 0 km/h
1639 22-05-2009 09:43:51 17.1 C 7.42 g/m*3 17.1 C 0 km/h
1640 22-05-2009 09:55:51 16.9 C 6.62 g/m*3 16.9 C 0 km/h
1641 22-05-2009 10:07:50 17.2 C 6.59 g/m*3 17.2 C 0 km/h
1642 22-05-2009 10:19:51 17.7 C 6.49 g/m*3 17.7 C 0 km/h
1643 22-05-2009 10:31:51 17.6 C 6.75 g/m*3 17.6 C 0 km/h
1644 22-05-2009 10:43:50 18.7 C 7.68 g/m*3 18.7 C 0 km/h
1645 22-05-2009 10:55:50 19.5 C 7.22 g/m*3 19.5 C 0 km/h
1646 22-05-2009 11:07:50 20 C 6.91 g/m*3 20 C 0 km/h
1647 22-05-2009 11:19:49 20.3 C 7.03 g/m*3 20.3 C 0 km/h
1648 22-05-2009 11:31:50 20.7 C 7.2 g/m*3 20.7 C 0 km/h
1649 22-05-2009 11:43:49 20.7 C 6.66 g/m*3 20.7 C 0 km/h
1650 22-05-2009 11:55:49 20.2 C 6.29 g/m*3 20.2 C 0 km/h
Sensor: Nr:Datum:Temp:Abs-Feuchte:Windchill:Wind:
Aussen-T/F 1651 22-05-2009 12:07:49 20.2 C 6.47 g/m*3 20.2 C 0 km/h
1652 22-05-2009 12:19:49 20 C 6.39 g/m*3 20 C 0 km/h
1653 22-05-2009 12:31:49 21.7 C 6.68 g/m*3 21.7 C 0 km/h
1654 22-05-2009 12:43:49 21.7 C 6.29 g/m*3 21.7 C 0 km/h
1655 22-05-2009 12:55:49 22.3 C 5.53 g/m*3 22.3 C 0 km/h
1656 22-05-2009 13:07:49 22.8 C 4.47 g/m*3 22.8 C 0 km/h
1657 22-05-2009 13:19:49 23.1 C 4.13 g/m*3 23.1 C 0 km/h
1658 22-05-2009 13:31:48 22.4 C 3.97 g/m*3 22.4 C 0 km/h
1659 22-05-2009 13:43:49 22.5 C 5.19 g/m*3 22.5 C 0 km/h
1660 22-05-2009 13:55:49 22.7 C 4.65 g/m*3 22.7 C 0 km/h
1661 22-05-2009 14:07:48 23 C 4.11 g/m*3 23 C 0 km/h
1662 22-05-2009 14:19:48 22.9 C 4.09 g/m*3 22.9 C 0 km/h
1663 22-05-2009 14:31:48 22.9 C 4.09 g/m*3 22.9 C 0 km/h
1664 22-05-2009 14:43:48 22.9 C 4.09 g/m*3 22.9 C 0 km/h
1665 22-05-2009 14:55:48 23.2 C 4.16 g/m*3 23.2 C 0 km/h
1666 22-05-2009 15:07:48 23.8 C 4.73 g/m*3 23.8 C 0 km/h
1667 22-05-2009 15:19:47 23.6 C 4.25 g/m*3 23.6 C 0 km/h
1668 22-05-2009 15:31:48 23.8 C 4.3 g/m*3 23.8 C 0 km/h
1669 22-05-2009 15:43:47 24.5 C 4.48 g/m*3 24.5 C 0 km/h
1670 22-05-2009 15:55:47 23.8 C 4.3 g/m*3 23.8 C 0 km/h
1671 22-05-2009 16:07:47 24.7 C 4.53 g/m*3 24.7 C 0 km/h
1672 22-05-2009 16:19:46 24.4 C 4.45 g/m*3 24.4 C 0 km/h
1673 22-05-2009 16:31:47 22.5 C 3.99 g/m*3 22.5 C 0 km/h
1674 22-05-2009 16:43:46 21.9 C 4.05 g/m*3 21.9 C 0 km/h
1675 22-05-2009 16:55:46 23 C 4.32 g/m*3 23 C 0 km/h
Sensor: Nr:Datum:Temp:Abs-Feuchte:Windchill:Wind:
Aussen-T/F 1676 22-05-2009 17:07:47 23.1 C 4.13 g/m*3 23.1 C 0 km/h
1677 22-05-2009 17:19:46 22.8 C 4.27 g/m*3 22.8 C 0 km/h
1678 22-05-2009 17:31:46 23.6 C 4.25 g/m*3 23.6 C 0 km/h
1679 22-05-2009 17:43:45 23.8 C 4.3 g/m*3 23.8 C 0 km/h
1680 22-05-2009 17:55:45 23.7 C 4.28 g/m*3 23.7 C 0 km/h
1681 22-05-2009 18:07:46 24.1 C 4.38 g/m*3 24.1 C 0 km/h
1682 22-05-2009 18:19:46 24.5 C 4.48 g/m*3 24.5 C 0 km/h
1683 22-05-2009 18:31:45 23.9 C 4.33 g/m*3 23.9 C 0 km/h
1684 22-05-2009 18:43:46 23.2 C 4.16 g/m*3 23.2 C 0 km/h
1685 22-05-2009 18:55:46 24.4 C 4.45 g/m*3 24.4 C 0 km/h
1686 22-05-2009 19:07:45 23.7 C 4.28 g/m*3 23.7 C 0 km/h
1687 22-05-2009 19:19:45 24.1 C 4.38 g/m*3 24.1 C 0 km/h
1688 22-05-2009 19:31:44 23.4 C 4.21 g/m*3 23.4 C 0 km/h
1689 22-05-2009 19:43:45 23.8 C 4.3 g/m*3 23.8 C 0 km/h
1690 22-05-2009 19:55:45 23.8 C 4.3 g/m*3 23.8 C 0 km/h
1691 22-05-2009 20:07:44 22.8 C 4.06 g/m*3 22.8 C 0 km/h
1692 22-05-2009 20:19:44 21.8 C 3.84 g/m*3 21.8 C 0 km/h
1693 22-05-2009 20:31:45 21.2 C 4.26 g/m*3 21.2 C 0 km/h
1694 22-05-2009 20:43:44 20.3 C 4.22 g/m*3 20.3 C 0 km/h
1695 22-05-2009 20:55:44 19.6 C 4.56 g/m*3 19.6 C 0 km/h
1696 22-05-2009 21:07:44 19.3 C 4.98 g/m*3 19.3 C 0 km/h
1697 22-05-2009 21:19:44 18.6 C 4.62 g/m*3 18.6 C 0 km/h
1698 22-05-2009 21:31:44 18.3 C 5 g/m*3 18.3 C 0 km/h
1699 22-05-2009 21:43:44 18.1 C 4.64 g/m*3 18.1 C 0 km/h
1700 22-05-2009 21:55:44 17.7 C 4.68 g/m*3 17.7 C 0 km/h
Sensor: Nr:Datum:Temp:Abs-Feuchte:Windchill:Wind:
Aussen-T/F 1701 22-05-2009 22:07:43 17.5 C 4.92 g/m*3 17.5 C 0 km/h
1702 22-05-2009 22:19:44 17.2 C 4.69 g/m*3 17.2 C 0 km/h
1703 22-05-2009 22:32:44 16.8 C 5 g/m*3 16.8 C 0 km/h
1704 22-05-2009 22:44:44 16.3 C 4.99 g/m*3 16.3 C 0 km/h
1705 22-05-2009 22:56:44 16.1 C 5.21 g/m*3 16.1 C 0 km/h
1706 22-05-2009 23:08:44 15.9 C 5.42 g/m*3 15.9 C 0 km/h
1707 22-05-2009 23:20:44 15.5 C 5.55 g/m*3 15.5 C 0 km/h
1708 22-05-2009 23:32:44 14.8 C 5.83 g/m*3 14.8 C 0 km/h
1709 22-05-2009 23:44:44 14.4 C 5.93 g/m*3 14.4 C 0 km/h
1710 22-05-2009 23:56:44 14.2 C 5.86 g/m*3 14.2 C 0 km/h
1711 23-05-2009 00:08:44 13.8 C 5.96 g/m*3 13.8 C 0 km/h
1712 23-05-2009 00:20:45 13.5 C 6.08 g/m*3 13.5 C 0 km/h
1713 23-05-2009 00:32:45 13.4 C 6.16 g/m*3 13.4 C 0 km/h
1714 23-05-2009 00:44:45 13.2 C 6.2 g/m*3 13.2 C 0 km/h
1715 23-05-2009 00:56:45 13 C 6.12 g/m*3 13 C 0 km/h
1716 23-05-2009 01:08:45 12.9 C 6.31 g/m*3 12.9 C 0 km/h
1717 23-05-2009 01:20:45 12.5 C 6.27 g/m*3 12.5 C 0 km/h
1718 23-05-2009 01:32:45 12.3 C 6.3 g/m*3 12.3 C 0 km/h
1719 23-05-2009 01:44:45 12.1 C 6.33 g/m*3 12.1 C 0 km/h
1720 23-05-2009 01:56:45 12 C 6.5 g/m*3 12 C 0 km/h
1721 23-05-2009 02:08:45 11.8 C 6.53 g/m*3 11.8 C 0 km/h
1722 23-05-2009 02:20:45 11.5 C 6.51 g/m*3 11.5 C 0 km/h
1723 23-05-2009 02:32:45 11.1 C 6.55 g/m*3 11.1 C 0 km/h
1724 23-05-2009 02:44:45 10.9 C 6.66 g/m*3 10.9 C 0 km/h
1725 23-05-2009 02:56:45 10.6 C 6.64 g/m*3 10.6 C 0 km/h
Sensor: Nr:Datum:Temp:Abs-Feuchte:Windchill:Wind:
Aussen-T/F 1726 23-05-2009 03:08:45 10.6 C 6.73 g/m*3 10.6 C 0 km/h
1727 23-05-2009 03:20:45 10.5 C 6.79 g/m*3 10.5 C 0 km/h
1728 23-05-2009 03:32:45 10.4 C 6.65 g/m*3 10.4 C 0 km/h
1729 23-05-2009 03:44:45 10.3 C 6.61 g/m*3 10.3 C 0 km/h
1730 23-05-2009 03:56:45 10.2 C 6.66 g/m*3 10.2 C 0 km/h
1731 23-05-2009 04:08:46 10.1 C 6.62 g/m*3 10.1 C 0 km/h
1732 23-05-2009 04:20:46 9.9 C 6.72 g/m*3 9.9 C 0 km/h
1733 23-05-2009 04:32:46 9.6 C 6.6 g/m*3 9.6 C 0 km/h
1734 23-05-2009 04:44:46 9.5 C 6.64 g/m*3 9.5 C 0 km/h
1735 23-05-2009 04:56:46 9.5 C 6.64 g/m*3 9.5 C 0 km/h
1736 23-05-2009 05:08:46 9.4 C 6.69 g/m*3 9.4 C 0 km/h
1737 23-05-2009 05:20:46 9.2 C 6.61 g/m*3 9.2 C 0 km/h
1738 23-05-2009 05:32:46 9.2 C 6.7 g/m*3 9.2 C 0 km/h
1739 23-05-2009 05:44:46 9.1 C 6.57 g/m*3 9.1 C 0 km/h
1740 23-05-2009 05:56:46 9 C 6.52 g/m*3 9 C 0 km/h
1741 23-05-2009 06:08:46 8.8 C 6.7 g/m*3 8.8 C 0 km/h
1742 23-05-2009 06:20:46 8.9 C 6.83 g/m*3 8.9 C 0 km/h
1743 23-05-2009 06:32:46 9 C 6.88 g/m*3 9 C 0 km/h
1744 23-05-2009 06:44:46 9 C 6.88 g/m*3 9 C 0 km/h
1745 23-05-2009 06:56:46 9 C 6.88 g/m*3 9 C 0 km/h
1746 23-05-2009 07:08:44 9.2 C 6.97 g/m*3 9.2 C 0 km/h
1747 23-05-2009 07:20:44 9.1 C 6.92 g/m*3 9.1 C 0 km/h
1748 23-05-2009 07:32:45 9.2 C 6.97 g/m*3 9.2 C 0 km/h
1749 23-05-2009 07:44:44 9.6 C 7.15 g/m*3 9.6 C 0 km/h
1750 23-05-2009 07:56:44 9.8 C 6.96 g/m*3 9.8 C 0 km/h
Sensor: Nr:Datum:Temp:Abs-Feuchte:Windchill:Wind:
Aussen-T/F 1751 23-05-2009 08:08:44 10.2 C 7.04 g/m*3 10.2 C 0 km/h
1752 23-05-2009 08:20:44 10.6 C 7.12 g/m*3 10.6 C 0 km/h
1753 23-05-2009 08:32:44 11 C 7.11 g/m*3 11 C 0 km/h
1754 23-05-2009 08:44:43 11.4 C 7.29 g/m*3 11.4 C 0 km/h
1755 23-05-2009 08:56:43 12 C 7.14 g/m*3 12 C 0 km/h
1756 23-05-2009 09:08:44 12.6 C 7.3 g/m*3 12.6 C 0 km/h
1757 23-05-2009 09:20:43 13.2 C 7.23 g/m*3 13.2 C 0 km/h
1758 23-05-2009 09:32:43 13.8 C 7.39 g/m*3 13.8 C 0 km/h
1759 23-05-2009 09:44:43 14.2 C 7.33 g/m*3 14.2 C 0 km/h
1760 23-05-2009 09:56:43 15.2 C 7.66 g/m*3 15.2 C 0 km/h
1761 23-05-2009 10:08:43 16 C 7.77 g/m*3 16 C 0 km/h
1762 23-05-2009 10:20:43 16.9 C 7.19 g/m*3 16.9 C 0 km/h
1763 23-05-2009 10:32:02 17.8 C 6.68 g/m*3 17.8 C 0 km/h
1764 23-05-2009 10:44:02 18.6 C 6.37 g/m*3 18.6 C 0 km/h
1765 23-05-2009 10:56:02 18.9 C 5.99 g/m*3 18.9 C 0 km/h
1766 23-05-2009 11:08:02 19.5 C 6.21 g/m*3 19.5 C 0 km/h
1767 23-05-2009 11:20:02 19.7 C 6.11 g/m*3 19.7 C 0 km/h
1768 23-05-2009 11:32:03 19.8 C 5.98 g/m*3 19.8 C 0 km/h
1769 23-05-2009 11:44:03 20.8 C 6.16 g/m*3 20.8 C 0 km/h
1770 23-05-2009 11:56:02 21.6 C 5.88 g/m*3 21.6 C 0 km/h
1771 23-05-2009 12:08:02 22 C 5.43 g/m*3 22 C 0 km/h
1772 23-05-2009 12:20:01 23.1 C 5.17 g/m*3 23.1 C 0 km/h
1773 23-05-2009 12:32:01 23.9 C 5.41 g/m*3 23.9 C 0 km/h
1774 23-05-2009 12:44:01 24.5 C 5.37 g/m*3 24.5 C 0 km/h
1775 23-05-2009 12:56:01 24.2 C 4.84 g/m*3 24.2 C 0 km/h
Sensor: Nr:Datum:Temp:Abs-Feuchte:Windchill:Wind:
Aussen-T/F 1776 23-05-2009 13:08:01 24.9 C 5.04 g/m*3 24.9 C 0 km/h
1777 23-05-2009 13:20:01 26.2 C 4.92 g/m*3 26.2 C 0 km/h
1778 23-05-2009 13:32:00 25.8 C 4.82 g/m*3 25.8 C 0 km/h
1779 23-05-2009 13:44:00 26.8 C 5.09 g/m*3 26.8 C 0 km/h
1780 23-05-2009 13:56:01 26.3 C 4.95 g/m*3 26.3 C 0 km/h
1781 23-05-2009 14:08:00 26 C 5.11 g/m*3 26 C 0 km/h
1782 23-05-2009 14:20:00 25.7 C 5.03 g/m*3 25.7 C 0 km/h
1783 23-05-2009 14:32:00 26.1 C 4.9 g/m*3 26.1 C 0 km/h
1784 23-05-2009 14:44:00 26.7 C 5.32 g/m*3 26.7 C 0 km/h
1785 23-05-2009 14:56:00 27.4 C 5.26 g/m*3 27.4 C 0 km/h
1786 23-05-2009 15:08:00 27.3 C 5.23 g/m*3 27.3 C 0 km/h
1787 23-05-2009 15:20:59 27.6 C 5.32 g/m*3 27.6 C 0 km/h
1788 23-05-2009 15:44:00 28.5 C 5.59 g/m*3 28.5 C 0 km/h
1789 23-05-2009 15:44:59 29.3 C 5.84 g/m*3 29.3 C 0 km/h
1790 23-05-2009 15:56:59 28.9 C 5.71 g/m*3 28.9 C 0 km/h
1791 23-05-2009 16:08:59 29.9 C 6.03 g/m*3 29.9 C 0 km/h
1792 23-05-2009 16:19:59 29.2 C 5.81 g/m*3 29.2 C 0 km/h
1793 23-05-2009 16:32:59 30.1 C 6.1 g/m*3 30.1 C 0 km/h
1794 23-05-2009 16:44:59 30.4 C 6.2 g/m*3 30.4 C 0 km/h
1795 23-05-2009 16:56:59 30.9 C 6.37 g/m*3 30.9 C 0 km/h
1796 23-05-2009 17:08:58 30.4 C 6.2 g/m*3 30.4 C 0 km/h
1797 23-05-2009 17:20:59 30.8 C 6.33 g/m*3 30.8 C 0 km/h
1798 23-05-2009 17:32:58 30.8 C 6.33 g/m*3 30.8 C 0 km/h
1799 23-05-2009 17:44:59 31.2 C 6.47 g/m*3 31.2 C 0 km/h
1800 23-05-2009 17:56:59 30.7 C 6.3 g/m*3 30.7 C 0 km/h
Sensor: Nr:Datum:Temp:Abs-Feuchte:Windchill:Wind:
Aussen-T/F 1801 23-05-2009 18:08:58 30.1 C 6.1 g/m*3 30.1 C 0 km/h
1802 23-05-2009 18:20:58 30.5 C 6.23 g/m*3 30.5 C 0 km/h
1803 23-05-2009 18:32:57 29.9 C 6.03 g/m*3 29.9 C 0 km/h
1804 23-05-2009 18:44:58 28.6 C 5.9 g/m*3 28.6 C 0 km/h
1805 23-05-2009 18:56:59 28.3 C 7.74 g/m*3 28.3 C 0 km/h
1806 23-05-2009 19:08:57 26.8 C 7.38 g/m*3 26.8 C 0 km/h
1807 23-05-2009 19:20:57 25.5 C 7.58 g/m*3 25.5 C 0 km/h
1808 23-05-2009 19:32:58 24.6 C 7.43 g/m*3 24.6 C 0 km/h
1809 23-05-2009 19:44:57 24 C 6.96 g/m*3 24 C 0 km/h
1810 23-05-2009 19:56:57 23.8 C 7.53 g/m*3 23.8 C 0 km/h
1811 23-05-2009 20:08:57 23.4 C 7.15 g/m*3 23.4 C 0 km/h
1812 23-05-2009 20:20:57 23.1 C 7.03 g/m*3 23.1 C 0 km/h
1813 23-05-2009 20:32:57 22.8 C 7.11 g/m*3 22.8 C 0 km/h
1814 23-05-2009 20:44:56 22.4 C 6.75 g/m*3 22.4 C 0 km/h
1815 23-05-2009 20:56:56 22 C 6.99 g/m*3 22 C 0 km/h
1816 23-05-2009 21:08:56 21.5 C 7.54 g/m*3 21.5 C 0 km/h
1817 23-05-2009 21:20:56 21 C 7.51 g/m*3 21 C 0 km/h
1818 23-05-2009 21:32:56 20.7 C 7.56 g/m*3 20.7 C 0 km/h
1819 23-05-2009 21:44:56 20.6 C 7.52 g/m*3 20.6 C 0 km/h
1820 23-05-2009 21:56:56 20.3 C 7.56 g/m*3 20.3 C 0 km/h
1821 23-05-2009 22:08:55 20.2 C 7.34 g/m*3 20.2 C 0 km/h
1822 23-05-2009 22:20:56 20 C 7.43 g/m*3 20 C 0 km/h
1823 23-05-2009 22:32:56 20 C 7.43 g/m*3 20 C 0 km/h
1824 23-05-2009 22:45:03 19.7 C 7.64 g/m*3 19.7 C 0 km/h
1825 23-05-2009 22:57:03 19.6 C 7.6 g/m*3 19.6 C 0 km/h
Sensor: Nr:Datum:Temp:Abs-Feuchte:Windchill:Wind:
Aussen-T/F 1826 23-05-2009 23:09:03 19.4 C 7.84 g/m*3 19.4 C 0 km/h
1827 23-05-2009 23:21:03 19.1 C 8.03 g/m*3 19.1 C 0 km/h
1828 23-05-2009 23:33:03 19.1 C 8.2 g/m*3 19.1 C 0 km/h
1829 23-05-2009 23:45:04 18.9 C 7.94 g/m*3 18.9 C 0 km/h
1830 23-05-2009 23:57:04 18.5 C 7.59 g/m*3 18.5 C 0 km/h
1831 24-05-2009 00:09:04 18.3 C 7.66 g/m*3 18.3 C 0 km/h
1832 24-05-2009 00:21:04 17.9 C 7.63 g/m*3 17.9 C 0 km/h
1833 24-05-2009 00:33:04 17.7 C 7.85 g/m*3 17.7 C 0 km/h
1834 24-05-2009 00:45:04 17.7 C 7.85 g/m*3 17.7 C 0 km/h
1835 24-05-2009 00:57:04 17.6 C 7.8 g/m*3 17.6 C 0 km/h
1836 24-05-2009 01:09:04 17.5 C 7.75 g/m*3 17.5 C 0 km/h
1837 24-05-2009 01:21:04 17.2 C 7.91 g/m*3 17.2 C 0 km/h
1838 24-05-2009 01:33:04 17 C 7.96 g/m*3 17 C 0 km/h
1839 24-05-2009 01:45:04 17 C 8.1 g/m*3 17 C 0 km/h
1840 24-05-2009 01:57:04 16.8 C 8.29 g/m*3 16.8 C 0 km/h
1841 24-05-2009 02:09:04 16.7 C 8.38 g/m*3 16.7 C 0 km/h
1842 24-05-2009 02:21:04 16.4 C 8.37 g/m*3 16.4 C 0 km/h
1843 24-05-2009 02:33:04 16 C 8.31 g/m*3 16 C 0 km/h
1844 24-05-2009 02:45:04 15.9 C 8.53 g/m*3 15.9 C 0 km/h
1845 24-05-2009 02:57:04 15.7 C 8.43 g/m*3 15.7 C 0 km/h
1846 24-05-2009 03:09:04 15.3 C 8.36 g/m*3 15.3 C 0 km/h
1847 24-05-2009 03:21:04 15.2 C 8.44 g/m*3 15.2 C 0 km/h
1848 24-05-2009 03:33:05 14.9 C 8.41 g/m*3 14.9 C 0 km/h
1849 24-05-2009 03:45:05 14.8 C 8.49 g/m*3 14.8 C 0 km/h
1850 24-05-2009 03:57:05 14.6 C 8.63 g/m*3 14.6 C 0 km/h
Sensor: Nr:Datum:Temp:Abs-Feuchte:Windchill:Wind:
Aussen-T/F 1851 24-05-2009 04:09:05 14.2 C 8.67 g/m*3 14.2 C 0 km/h
1852 24-05-2009 04:21:05 14.1 C 8.62 g/m*3 14.1 C 0 km/h
1853 24-05-2009 04:33:05 13.9 C 8.51 g/m*3 13.9 C 0 km/h
1854 24-05-2009 04:45:05 13.9 C 8.51 g/m*3 13.9 C 0 km/h
1855 24-05-2009 04:57:05 13.8 C 8.46 g/m*3 13.8 C 0 km/h
1856 24-05-2009 05:09:05 13.5 C 8.42 g/m*3 13.5 C 0 km/h
1857 24-05-2009 05:21:05 13.5 C 8.66 g/m*3 13.5 C 0 km/h
1858 24-05-2009 05:33:05 13.3 C 8.55 g/m*3 13.3 C 0 km/h
1859 24-05-2009 05:45:05 13.3 C 8.55 g/m*3 13.3 C 0 km/h
1860 24-05-2009 05:57:05 13.3 C 8.55 g/m*3 13.3 C 0 km/h
1861 24-05-2009 06:09:05 13.4 C 8.6 g/m*3 13.4 C 0 km/h
1862 24-05-2009 06:21:05 13.5 C 8.77 g/m*3 13.5 C 0 km/h
1863 24-05-2009 06:33:05 13.5 C 8.89 g/m*3 13.5 C 0 km/h
1864 24-05-2009 06:45:05 13.4 C 8.95 g/m*3 13.4 C 0 km/h
1865 24-05-2009 06:57:05 13.3 C 8.9 g/m*3 13.3 C 0 km/h
1866 24-05-2009 07:09:05 13.4 C 8.95 g/m*3 13.4 C 0 km/h
1867 24-05-2009 07:21:56 13.5 C 9.01 g/m*3 13.5 C 0 km/h
1868 24-05-2009 07:33:57 13.8 C 9.17 g/m*3 13.8 C 0 km/h
1869 24-05-2009 07:45:56 13.9 C 9.11 g/m*3 13.9 C 0 km/h
1870 24-05-2009 07:57:56 14.3 C 9.09 g/m*3 14.3 C 0 km/h
1871 24-05-2009 08:09:56 14.7 C 9.19 g/m*3 14.7 C 0 km/h
1872 24-05-2009 08:21:56 15.2 C 9.09 g/m*3 15.2 C 0 km/h
1873 24-05-2009 08:33:56 15.6 C 9.18 g/m*3 15.6 C 0 km/h
1874 24-05-2009 08:45:56 16.1 C 9.32 g/m*3 16.1 C 0 km/h
1875 24-05-2009 08:57:56 16.8 C 9.44 g/m*3 16.8 C 0 km/h
Sensor: Nr:Datum:Temp:Abs-Feuchte:Windchill:Wind:
Aussen-T/F 1876 24-05-2009 09:09:55 17.4 C 9.19 g/m*3 17.4 C 0 km/h
1877 24-05-2009 09:21:56 17.9 C 8.86 g/m*3 17.9 C 0 km/h
1878 24-05-2009 09:33:55 18.7 C 8.97 g/m*3 18.7 C 0 km/h
1879 24-05-2009 09:45:56 19.3 C 8.46 g/m*3 19.3 C 0 km/h
1880 24-05-2009 09:57:56 19.9 C 8.76 g/m*3 19.9 C 0 km/h
1881 24-05-2009 10:09:55 20.1 C 8.34 g/m*3 20.1 C 0 km/h
1882 24-05-2009 10:21:55 21 C 8.24 g/m*3 21 C 0 km/h
1883 24-05-2009 10:33:55 21.2 C 8.34 g/m*3 21.2 C 0 km/h
1884 24-05-2009 10:45:55 22.2 C 8.44 g/m*3 22.2 C 0 km/h
1885 24-05-2009 10:57:55 22.6 C 8.44 g/m*3 22.6 C 0 km/h
1886 24-05-2009 11:09:55 23.8 C 9.46 g/m*3 23.8 C 0 km/h
1887 24-05-2009 11:21:54 24.2 C 8.14 g/m*3 24.2 C 0 km/h
1888 24-05-2009 11:33:55 25.3 C 7.96 g/m*3 25.3 C 0 km/h
1889 24-05-2009 11:45:54 25.5 C 7.81 g/m*3 25.5 C 0 km/h
1890 24-05-2009 11:57:54 26 C 8.03 g/m*3 26 C 0 km/h
1891 24-05-2009 12:09:54 25.6 C 7.14 g/m*3 25.6 C 0 km/h
1892 24-05-2009 12:21:54 26.9 C 7.68 g/m*3 26.9 C 0 km/h
1893 24-05-2009 12:33:54 27.6 C 7.18 g/m*3 27.6 C 0 km/h
1894 24-05-2009 12:45:53 28.6 C 7.59 g/m*3 28.6 C 0 km/h
1895 24-05-2009 12:57:53 29.7 C 7.46 g/m*3 29.7 C 0 km/h
1896 24-05-2009 13:09:53 30.1 C 7.01 g/m*3 30.1 C 0 km/h
1897 24-05-2009 13:21:54 30.6 C 6.89 g/m*3 30.6 C 0 km/h
1898 24-05-2009 13:33:53 30.3 C 6.78 g/m*3 30.3 C 0 km/h
1899 24-05-2009 13:45:53 29.2 C 6.1 g/m*3 29.2 C 0 km/h
1900 24-05-2009 13:57:53 29.1 C 6.64 g/m*3 29.1 C 0 km/h
Sensor: Nr:Datum:Temp:Abs-Feuchte:Windchill:Wind:
Aussen-T/F 1901 24-05-2009 14:09:53 29.1 C 6.64 g/m*3 29.1 C 0 km/h
1902 24-05-2009 14:21:53 28.5 C 6.99 g/m*3 28.5 C 0 km/h
1903 24-05-2009 14:33:52 28.8 C 7.1 g/m*3 28.8 C 0 km/h
1904 24-05-2009 14:45:53 29 C 6.89 g/m*3 29 C 0 km/h
1905 24-05-2009 14:57:54 30.6 C 6.89 g/m*3 30.6 C 0 km/h
1906 24-05-2009 15:09:52 30.3 C 6.78 g/m*3 30.3 C 0 km/h
1907 24-05-2009 15:21:52 31.2 C 6.47 g/m*3 31.2 C 0 km/h
1908 24-05-2009 15:33:52 31.4 C 6.54 g/m*3 31.4 C 0 km/h
1909 24-05-2009 15:45:52 31.9 C 6.72 g/m*3 31.9 C 0 km/h
1910 24-05-2009 15:57:52 31.9 C 6.72 g/m*3 31.9 C 0 km/h
1911 24-05-2009 16:09:52 32.1 C 6.79 g/m*3 32.1 C 0 km/h
1912 24-05-2009 16:21:52 31.9 C 6.72 g/m*3 31.9 C 0 km/h
1913 24-05-2009 16:33:52 31.7 C 6.64 g/m*3 31.7 C 0 km/h
1914 24-05-2009 16:45:51 31.5 C 6.9 g/m*3 31.5 C 0 km/h
1915 24-05-2009 16:57:51 31.5 C 6.9 g/m*3 31.5 C 0 km/h
1916 24-05-2009 17:09:52 30.7 C 7.24 g/m*3 30.7 C 0 km/h
1917 24-05-2009 17:21:51 31 C 7.04 g/m*3 31 C 0 km/h
1918 24-05-2009 17:33:51 31.3 C 6.83 g/m*3 31.3 C 0 km/h
1919 24-05-2009 17:45:51 31.9 C 6.72 g/m*3 31.9 C 0 km/h
1920 24-05-2009 17:57:51 32 C 6.75 g/m*3 32 C 0 km/h
1921 24-05-2009 18:09:51 31.3 C 6.83 g/m*3 31.3 C 0 km/h
1922 24-05-2009 18:21:51 31.5 C 6.9 g/m*3 31.5 C 0 km/h
1923 24-05-2009 18:33:50 31.7 C 6.98 g/m*3 31.7 C 0 km/h
1924 24-05-2009 18:45:50 31.7 C 6.64 g/m*3 31.7 C 0 km/h
1925 24-05-2009 18:57:50 31.2 C 6.79 g/m*3 31.2 C 0 km/h
Sensor: Nr:Datum:Temp:Abs-Feuchte:Windchill:Wind:
Aussen-T/F 1926 24-05-2009 19:09:50 31.1 C 7.4 g/m*3 31.1 C 0 km/h
1927 24-05-2009 19:21:50 30.9 C 7 g/m*3 30.9 C 0 km/h
1928 24-05-2009 19:33:50 30.9 C 7.64 g/m*3 30.9 C 0 km/h
1929 24-05-2009 19:45:50 30.2 C 7.66 g/m*3 30.2 C 0 km/h
1930 24-05-2009 19:57:50 30 C 7.88 g/m*3 30 C 0 km/h
1931 24-05-2009 20:09:50 28.9 C 8 g/m*3 28.9 C 0 km/h
1932 24-05-2009 20:21:49 28.7 C 8.48 g/m*3 28.7 C 0 km/h
1933 24-05-2009 20:33:49 28.2 C 8.8 g/m*3 28.2 C 0 km/h
1934 24-05-2009 20:45:49 27.2 C 9.37 g/m*3 27.2 C 0 km/h
1935 24-05-2009 20:57:49 26 C 9.25 g/m*3 26 C 0 km/h
1936 24-05-2009 21:09:49 25.2 C 9.31 g/m*3 25.2 C 0 km/h
1937 24-05-2009 21:21:49 24.3 C 9.29 g/m*3 24.3 C 0 km/h
1938 24-05-2009 21:33:48 24 C 9.14 g/m*3 24 C 0 km/h
1939 24-05-2009 21:45:49 23.9 C 9.3 g/m*3 23.9 C 0 km/h
1940 24-05-2009 21:57:49 23.6 C 9.36 g/m*3 23.6 C 0 km/h
1941 24-05-2009 22:09:48 23.2 C 9.56 g/m*3 23.2 C 0 km/h
1942 24-05-2009 22:22:49 22.9 C 9.61 g/m*3 22.9 C 0 km/h
1943 24-05-2009 22:34:49 22.8 C 9.75 g/m*3 22.8 C 0 km/h
1944 24-05-2009 22:46:49 22.5 C 9.39 g/m*3 22.5 C 0 km/h
1945 24-05-2009 22:58:49 22.3 C 9.68 g/m*3 22.3 C 0 km/h
1946 24-05-2009 23:10:49 22 C 9.7 g/m*3 22 C 0 km/h
1947 24-05-2009 23:22:49 21.7 C 9.92 g/m*3 21.7 C 0 km/h
1948 24-05-2009 23:34:49 21.5 C 9.81 g/m*3 21.5 C 0 km/h
1949 24-05-2009 23:46:49 21.2 C 9.82 g/m*3 21.2 C 0 km/h
1950 24-05-2009 23:58:49 21 C 9.89 g/m*3 21 C 0 km/h
Sensor: Nr:Datum:Temp:Abs-Feuchte:Windchill:Wind:
Aussen-T/F 1951 25-05-2009 00:10:49 20.7 C 9.9 g/m*3 20.7 C 0 km/h
1952 25-05-2009 00:22:49 20.5 C 10.14 g/m*3 20.5 C 0 km/h
1953 25-05-2009 00:34:49 20.3 C 10.02 g/m*3 20.3 C 0 km/h
1954 25-05-2009 00:46:49 20 C 10.02 g/m*3 20 C 0 km/h
1955 25-05-2009 00:58:49 19.6 C 10.3 g/m*3 19.6 C 0 km/h
1956 25-05-2009 01:10:49 19.4 C 10.18 g/m*3 19.4 C 0 km/h
1957 25-05-2009 01:22:49 19.3 C 10.12 g/m*3 19.3 C 0 km/h
1958 25-05-2009 01:34:49 19.2 C 10.06 g/m*3 19.2 C 0 km/h
1959 25-05-2009 01:46:49 18.9 C 10.37 g/m*3 18.9 C 0 km/h
1960 25-05-2009 01:58:49 18.7 C 10.41 g/m*3 18.7 C 0 km/h
1961 25-05-2009 02:10:49 18.6 C 10.35 g/m*3 18.6 C 0 km/h
1962 25-05-2009 02:22:50 18.4 C 10.38 g/m*3 18.4 C 0 km/h
1963 25-05-2009 02:34:50 18.2 C 10.26 g/m*3 18.2 C 0 km/h
1964 25-05-2009 02:46:50 18 C 10.14 g/m*3 18 C 0 km/h
1965 25-05-2009 02:58:50 17.9 C 10.23 g/m*3 17.9 C 0 km/h
1966 25-05-2009 03:10:50 17.7 C 10.26 g/m*3 17.7 C 0 km/h
1967 25-05-2009 03:22:50 17.5 C 10.29 g/m*3 17.5 C 0 km/h
1968 25-05-2009 03:34:50 17.4 C 10.23 g/m*3 17.4 C 0 km/h
1969 25-05-2009 03:46:50 17.3 C 10.31 g/m*3 17.3 C 0 km/h
1970 25-05-2009 03:58:50 17.1 C 10.19 g/m*3 17.1 C 0 km/h
1971 25-05-2009 04:10:50 17 C 10.27 g/m*3 17 C 0 km/h
1972 25-05-2009 04:22:50 16.9 C 10.36 g/m*3 16.9 C 0 km/h
1973 25-05-2009 04:34:50 16.7 C 10.37 g/m*3 16.7 C 0 km/h
1974 25-05-2009 04:46:50 16.5 C 10.25 g/m*3 16.5 C 0 km/h
1975 25-05-2009 04:58:50 16.4 C 10.19 g/m*3 16.4 C 0 km/h
Sensor: Nr:Datum:Temp:Abs-Feuchte:Windchill:Wind:
Aussen-T/F 1976 25-05-2009 05:10:50 16.2 C 10.2 g/m*3 16.2 C 0 km/h
1977 25-05-2009 05:22:50 16.1 C 10.14 g/m*3 16.1 C 0 km/h
1978 25-05-2009 05:34:50 15.9 C 10.16 g/m*3 15.9 C 0 km/h
1979 25-05-2009 05:46:50 15.9 C 10.29 g/m*3 15.9 C 0 km/h
1980 25-05-2009 05:58:50 15.8 C 10.23 g/m*3 15.8 C 0 km/h
1981 25-05-2009 06:10:51 15.7 C 10.3 g/m*3 15.7 C 0 km/h
1982 25-05-2009 06:22:51 15.6 C 10.24 g/m*3 15.6 C 0 km/h
1983 25-05-2009 06:34:51 15.8 C 10.36 g/m*3 15.8 C 0 km/h
1984 25-05-2009 06:46:51 16 C 10.49 g/m*3 16 C 0 km/h
1985 25-05-2009 06:58:51 16 C 10.49 g/m*3 16 C 0 km/h
1986 25-05-2009 07:10:48 16 C 10.49 g/m*3 16 C 0 km/h
1987 25-05-2009 07:22:48 16.2 C 10.62 g/m*3 16.2 C 0 km/h
1988 25-05-2009 07:34:48 16.2 C 10.62 g/m*3 16.2 C 0 km/h
1989 25-05-2009 07:46:48 16.4 C 10.61 g/m*3 16.4 C 0 km/h
1990 25-05-2009 07:58:48 16.7 C 10.8 g/m*3 16.7 C 0 km/h
1991 25-05-2009 08:10:47 17.2 C 10.98 g/m*3 17.2 C 0 km/h
1992 25-05-2009 08:22:48 17.5 C 11.03 g/m*3 17.5 C 0 km/h
1993 25-05-2009 08:34:48 17.9 C 10.99 g/m*3 17.9 C 0 km/h
1994 25-05-2009 08:46:47 18.3 C 10.94 g/m*3 18.3 C 0 km/h
1995 25-05-2009 08:58:47 18.8 C 11.27 g/m*3 18.8 C 0 km/h
1996 25-05-2009 09:10:48 19.5 C 11.08 g/m*3 19.5 C 0 km/h
1997 25-05-2009 09:22:47 20.3 C 10.73 g/m*3 20.3 C 0 km/h
1998 25-05-2009 09:34:47 21 C 10.62 g/m*3 21 C 0 km/h
1999 25-05-2009 09:46:46 21.5 C 10.75 g/m*3 21.5 C 0 km/h
2000 25-05-2009 09:58:46 22.2 C 10.6 g/m*3 22.2 C 0 km/h
Sensor: Nr:Datum:Temp:Abs-Feuchte:Windchill:Wind:
Aussen-T/F 2001 25-05-2009 10:10:47 22.9 C 10.42 g/m*3 22.9 C 0 km/h
2002 25-05-2009 10:22:47 23.7 C 10.69 g/m*3 23.7 C 0 km/h
2003 25-05-2009 10:34:46 24.4 C 10.46 g/m*3 24.4 C 0 km/h
2004 25-05-2009 10:46:47 24.9 C 10.53 g/m*3 24.9 C 0 km/h
2005 25-05-2009 10:58:47 25.8 C 10.11 g/m*3 25.8 C 0 km/h
2006 25-05-2009 11:10:46 26.4 C 10.7 g/m*3 26.4 C 0 km/h
2007 25-05-2009 11:22:46 27.2 C 9.89 g/m*3 27.2 C 0 km/h
2008 25-05-2009 11:34:01 27.3 C 9.94 g/m*3 27.3 C 0 km/h
2009 25-05-2009 11:46:01 28 C 9.79 g/m*3 28 C 0 km/h
2010 25-05-2009 11:58:02 28.7 C 9.61 g/m*3 28.7 C 0 km/h
2011 25-05-2009 12:10:01 29.7 C 9.85 g/m*3 29.7 C 0 km/h
2012 25-05-2009 12:22:01 29.8 C 9.6 g/m*3 29.8 C 0 km/h
2013 25-05-2009 12:34:01 30.6 C 9.08 g/m*3 30.6 C 0 km/h
2014 25-05-2009 12:46:01 31.3 C 8.78 g/m*3 31.3 C 0 km/h
2015 25-05-2009 12:58:01 31.5 C 8.55 g/m*3 31.5 C 0 km/h
2016 25-05-2009 13:10:01 31.8 C 8.02 g/m*3 31.8 C 0 km/h
2017 25-05-2009 13:22:00 31.8 C 7.35 g/m*3 31.8 C 0 km/h
2018 25-05-2009 13:34:01 32.2 C 7.85 g/m*3 32.2 C 0 km/h
2019 25-05-2009 13:46:00 32.4 C 6.9 g/m*3 32.4 C 0 km/h
2020 25-05-2009 13:58:00 32.3 C 7.2 g/m*3 32.3 C 0 km/h
2021 25-05-2009 14:10:00 32 C 7.09 g/m*3 32 C 0 km/h
2022 25-05-2009 14:22:59 32 C 7.76 g/m*3 32 C 0 km/h
2023 25-05-2009 14:34:00 32.3 C 7.2 g/m*3 32.3 C 0 km/h
2024 25-05-2009 14:46:59 32.6 C 6.97 g/m*3 32.6 C 0 km/h
2025 25-05-2009 14:58:59 32.6 C 7.67 g/m*3 32.6 C 0 km/h
Sensor: Nr:Datum:Temp:Abs-Feuchte:Windchill:Wind:
Aussen-T/F 2026 25-05-2009 15:10:59 33.2 C 7.55 g/m*3 33.2 C 0 km/h
2027 25-05-2009 15:22:00 33.3 C 7.23 g/m*3 33.3 C 0 km/h
2028 25-05-2009 15:34:59 33.3 C 7.23 g/m*3 33.3 C 0 km/h
2029 25-05-2009 15:46:59 33.4 C 7.27 g/m*3 33.4 C 0 km/h
2030 25-05-2009 15:58:59 33.6 C 7.35 g/m*3 33.6 C 0 km/h
2031 25-05-2009 16:10:59 33.1 C 7.52 g/m*3 33.1 C 0 km/h
2032 25-05-2009 16:22:59 33.1 C 8.59 g/m*3 33.1 C 0 km/h
2033 25-05-2009 16:34:59 32.4 C 10 g/m*3 32.4 C 0 km/h
2034 25-05-2009 16:46:58 31.9 C 10.75 g/m*3 31.9 C 0 km/h
2035 25-05-2009 16:58:58 31.3 C 11.38 g/m*3 31.3 C 0 km/h
2036 25-05-2009 17:10:59 30.6 C 11.9 g/m*3 30.6 C 0 km/h
2037 25-05-2009 17:22:58 29.8 C 12.6 g/m*3 29.8 C 0 km/h
2038 25-05-2009 17:34:58 29.1 C 12.71 g/m*3 29.1 C 0 km/h
2039 25-05-2009 17:46:58 28.2 C 12.92 g/m*3 28.2 C 0 km/h
2040 25-05-2009 17:58:58 28 C 12.51 g/m*3 28 C 0 km/h
2041 25-05-2009 18:10:57 27.6 C 11.97 g/m*3 27.6 C 0 km/h
2042 25-05-2009 18:22:58 26.8 C 7.64 g/m*3 26.8 C 0 km/h
2043 25-05-2009 18:34:57 26.4 C 7.47 g/m*3 26.4 C 0 km/h
2044 25-05-2009 18:46:57 25.9 C 7.26 g/m*3 25.9 C 0 km/h
2045 25-05-2009 18:58:57 25.8 C 8.19 g/m*3 25.8 C 0 km/h
2046 25-05-2009 19:10:57 25.2 C 7.92 g/m*3 25.2 C 0 km/h
2047 25-05-2009 19:22:57 25 C 8.06 g/m*3 25 C 0 km/h
2048 25-05-2009 19:34:57 25.3 C 7.96 g/m*3 25.3 C 0 km/h
2049 25-05-2009 19:46:57 25.5 C 8.76 g/m*3 25.5 C 0 km/h
2050 25-05-2009 19:58:57 25.4 C 8.48 g/m*3 25.4 C 0 km/h
Sensor: Nr:Datum:Temp:Abs-Feuchte:Windchill:Wind:
Aussen-T/F 2051 25-05-2009 20:10:57 25.5 C 9.23 g/m*3 25.5 C 0 km/h
2052 25-05-2009 20:22:56 25.8 C 9.15 g/m*3 25.8 C 0 km/h
2053 25-05-2009 20:34:56 26.2 C 8.86 g/m*3 26.2 C 0 km/h
2054 25-05-2009 20:46:56 26.1 C 10.04 g/m*3 26.1 C 0 km/h
2055 25-05-2009 20:58:56 25.5 C 9.94 g/m*3 25.5 C 0 km/h
2056 25-05-2009 21:10:56 24.9 C 10.3 g/m*3 24.9 C 0 km/h
2057 25-05-2009 21:22:56 24.1 C 10.28 g/m*3 24.1 C 0 km/h
2058 25-05-2009 21:34:56 23.4 C 10.09 g/m*3 23.4 C 0 km/h
2059 25-05-2009 21:46:55 22.8 C 9.96 g/m*3 22.8 C 0 km/h
2060 25-05-2009 21:58:55 22.4 C 9.93 g/m*3 22.4 C 0 km/h
2061 25-05-2009 22:10:55 22.1 C 9.96 g/m*3 22.1 C 0 km/h
2062 25-05-2009 22:23:57 21.9 C 9.84 g/m*3 21.9 C 0 km/h
2063 25-05-2009 22:35:57 21.7 C 9.92 g/m*3 21.7 C 0 km/h
2064 25-05-2009 22:47:57 21.7 C 10.3 g/m*3 21.7 C 0 km/h
2065 25-05-2009 22:59:57 21.5 C 10.37 g/m*3 21.5 C 0 km/h
2066 25-05-2009 23:11:57 21.2 C 10.38 g/m*3 21.2 C 0 km/h
2067 25-05-2009 23:23:57 21 C 10.26 g/m*3 21 C 0 km/h
2068 25-05-2009 23:35:57 20.8 C 10.5 g/m*3 20.8 C 0 km/h
2069 25-05-2009 23:47:57 20.5 C 10.5 g/m*3 20.5 C 0 km/h
2070 25-05-2009 23:59:57 20.4 C 10.61 g/m*3 20.4 C 0 km/h
2071 26-05-2009 00:11:57 20.2 C 10.84 g/m*3 20.2 C 0 km/h
2072 26-05-2009 00:23:57 20 C 10.89 g/m*3 20 C 0 km/h
2073 26-05-2009 00:35:57 19.9 C 11 g/m*3 19.9 C 0 km/h
2074 26-05-2009 00:47:57 19.7 C 11.04 g/m*3 19.7 C 0 km/h
2075 26-05-2009 00:59:57 19.5 C 11.24 g/m*3 19.5 C 0 km/h
Sensor: Nr:Datum:Temp:Abs-Feuchte:Windchill:Wind:
Aussen-T/F 2076 26-05-2009 01:11:57 19.3 C 11.11 g/m*3 19.3 C 0 km/h
2077 26-05-2009 01:23:58 19.2 C 11.05 g/m*3 19.2 C 0 km/h
2078 26-05-2009 01:35:58 18.9 C 11.18 g/m*3 18.9 C 0 km/h
2079 26-05-2009 01:47:58 18.9 C 11.5 g/m*3 18.9 C 0 km/h
2080 26-05-2009 01:59:58 19.1 C 11.47 g/m*3 19.1 C 0 km/h
2081 26-05-2009 02:11:58 18.8 C 11.43 g/m*3 18.8 C 0 km/h
2082 26-05-2009 02:23:58 18.6 C 11.3 g/m*3 18.6 C 0 km/h
2083 26-05-2009 02:35:58 18.5 C 11.39 g/m*3 18.5 C 0 km/h
2084 26-05-2009 02:47:58 18.3 C 11.41 g/m*3 18.3 C 0 km/h
2085 26-05-2009 02:59:58 18.3 C 11.41 g/m*3 18.3 C 0 km/h
2086 26-05-2009 03:11:58 18.4 C 11.48 g/m*3 18.4 C 0 km/h
2087 26-05-2009 03:23:58 18.4 C 11.48 g/m*3 18.4 C 0 km/h
2088 26-05-2009 03:35:58 18.5 C 11.55 g/m*3 18.5 C 0 km/h
2089 26-05-2009 03:47:58 18.3 C 11.41 g/m*3 18.3 C 0 km/h
2090 26-05-2009 03:59:58 18 C 11.37 g/m*3 18 C 0 km/h
2091 26-05-2009 04:11:58 17.9 C 11.45 g/m*3 17.9 C 0 km/h
2092 26-05-2009 04:23:58 17.7 C 11.47 g/m*3 17.7 C 0 km/h
2093 26-05-2009 04:35:58 17.5 C 11.48 g/m*3 17.5 C 0 km/h
2094 26-05-2009 04:47:58 17.4 C 11.56 g/m*3 17.4 C 0 km/h
2095 26-05-2009 04:59:58 17.3 C 11.34 g/m*3 17.3 C 0 km/h
2096 26-05-2009 05:11:58 17.2 C 11.42 g/m*3 17.2 C 0 km/h
2097 26-05-2009 05:23:58 17.2 C 11.42 g/m*3 17.2 C 0 km/h
2098 26-05-2009 05:35:59 17.4 C 11.86 g/m*3 17.4 C 0 km/h
2099 26-05-2009 05:47:59 17.6 C 11.85 g/m*3 17.6 C 0 km/h
2100 26-05-2009 05:59:59 17.6 C 11.55 g/m*3 17.6 C 0 km/h
Sensor: Nr:Datum:Temp:Abs-Feuchte:Windchill:Wind:
Aussen-T/F 2101 26-05-2009 06:11:59 17.6 C 11.7 g/m*3 17.6 C 0 km/h
2102 26-05-2009 06:23:59 17.7 C 11.77 g/m*3 17.7 C 0 km/h
2103 26-05-2009 06:35:56 18 C 11.83 g/m*3 18 C 0 km/h
2104 26-05-2009 06:47:56 18.2 C 11.81 g/m*3 18.2 C 0 km/h
2105 26-05-2009 06:59:56 18.4 C 12.11 g/m*3 18.4 C 0 km/h
2106 26-05-2009 07:11:56 18.5 C 12.02 g/m*3 18.5 C 0 km/h
2107 26-05-2009 07:23:56 18.7 C 12.17 g/m*3 18.7 C 0 km/h
2108 26-05-2009 07:35:56 18.7 C 12.01 g/m*3 18.7 C 0 km/h
2109 26-05-2009 07:47:55 19.1 C 11.97 g/m*3 19.1 C 0 km/h
2110 26-05-2009 07:59:55 19.3 C 11.94 g/m*3 19.3 C 0 km/h
2111 26-05-2009 08:11:56 19.6 C 12.15 g/m*3 19.6 C 0 km/h
2112 26-05-2009 08:23:55 20.1 C 12.17 g/m*3 20.1 C 0 km/h
2113 26-05-2009 08:35:55 20.9 C 10.93 g/m*3 20.9 C 0 km/h
2114 26-05-2009 08:47:55 21.4 C 9.75 g/m*3 21.4 C 0 km/h
2115 26-05-2009 08:59:55 21.5 C 9.43 g/m*3 21.5 C 0 km/h
2116 26-05-2009 09:11:55 21.4 C 9.94 g/m*3 21.4 C 0 km/h
2117 26-05-2009 09:23:54 20.4 C 10.61 g/m*3 20.4 C 0 km/h
2118 26-05-2009 09:35:54 21.2 C 10.75 g/m*3 21.2 C 0 km/h
2119 26-05-2009 09:47:55 21.8 C 10.55 g/m*3 21.8 C 0 km/h
2120 26-05-2009 09:59:55 22.5 C 10.39 g/m*3 22.5 C 0 km/h
2121 26-05-2009 10:11:54 23 C 10.07 g/m*3 23 C 0 km/h
2122 26-05-2009 10:23:54 22.8 C 9.75 g/m*3 22.8 C 0 km/h
2123 26-05-2009 10:35:54 22.9 C 10.01 g/m*3 22.9 C 0 km/h
2124 26-05-2009 10:47:54 23.1 C 9.72 g/m*3 23.1 C 0 km/h
2125 26-05-2009 10:59:55 23.7 C 9.84 g/m*3 23.7 C 0 km/h
Sensor: Nr:Datum:Temp:Abs-Feuchte:Windchill:Wind:
Aussen-T/F 2126 26-05-2009 11:11:53 23.8 C 9.9 g/m*3 23.8 C 0 km/h
2127 26-05-2009 11:23:53 23.6 C 10 g/m*3 23.6 C 0 km/h
2128 26-05-2009 11:35:54 23.3 C 10.04 g/m*3 23.3 C 0 km/h
2129 26-05-2009 11:47:53 23.8 C 9.9 g/m*3 23.8 C 0 km/h
2130 26-05-2009 11:59:53 24.4 C 9.79 g/m*3 24.4 C 0 km/h
2131 26-05-2009 12:11:53 24.4 C 8.9 g/m*3 24.4 C 0 km/h
2132 26-05-2009 12:23:53 23.1 C 8.68 g/m*3 23.1 C 0 km/h
2133 26-05-2009 12:35:53 24.3 C 9.29 g/m*3 24.3 C 0 km/h
2134 26-05-2009 12:47:52 25.4 C 8.71 g/m*3 25.4 C 0 km/h
2135 26-05-2009 12:59:52 24.3 C 8.41 g/m*3 24.3 C 0 km/h
2136 26-05-2009 13:11:53 25.6 C 8.33 g/m*3 25.6 C 0 km/h
2137 26-05-2009 13:23:53 26.5 C 8.26 g/m*3 26.5 C 0 km/h
2138 26-05-2009 13:35:52 26.5 C 7.76 g/m*3 26.5 C 0 km/h
2139 26-05-2009 13:47:52 25.7 C 7.66 g/m*3 25.7 C 0 km/h
2140 26-05-2009 13:59:52 26.1 C 7.83 g/m*3 26.1 C 0 km/h
2141 26-05-2009 14:11:52 25.6 C 7.86 g/m*3 25.6 C 0 km/h
2142 26-05-2009 14:23:52 24.7 C 7.47 g/m*3 24.7 C 0 km/h
2143 26-05-2009 14:35:51 24 C 7.61 g/m*3 24 C 0 km/h
2144 26-05-2009 14:47:52 23.6 C 7.87 g/m*3 23.6 C 0 km/h
2145 26-05-2009 14:59:53 24.6 C 7.88 g/m*3 24.6 C 0 km/h
2146 26-05-2009 15:11:51 24.1 C 7.88 g/m*3 24.1 C 0 km/h
2147 26-05-2009 15:23:51 25 C 7.6 g/m*3 25 C 0 km/h
2148 26-05-2009 15:35:51 23.8 C 7.31 g/m*3 23.8 C 0 km/h
2149 26-05-2009 15:47:51 24.3 C 7.08 g/m*3 24.3 C 0 km/h
2150 26-05-2009 15:59:51 24.5 C 7.39 g/m*3 24.5 C 0 km/h
Sensor: Nr:Datum:Temp:Abs-Feuchte:Windchill:Wind:
Aussen-T/F 2151 26-05-2009 16:05:51 24.7 C 7.47 g/m*3 24.7 C 0 km/h
2152 26-05-2009 16:21:50 25 C 7.37 g/m*3 25 C 0 km/h
2153 26-05-2009 16:33:51 24.9 C 7.55 g/m*3 24.9 C 0 km/h
2154 26-05-2009 16:45:50 24.3 C 7.08 g/m*3 24.3 C 0 km/h
2155 26-05-2009 16:57:50 23.9 C 7.14 g/m*3 23.9 C 0 km/h
2156 26-05-2009 17:09:50 23.3 C 7.32 g/m*3 23.3 C 0 km/h
2157 26-05-2009 17:21:50 24 C 7.61 g/m*3 24 C 0 km/h
2158 26-05-2009 17:33:50 24.3 C 7.52 g/m*3 24.3 C 0 km/h
2159 26-05-2009 17:45:49 24.4 C 7.57 g/m*3 24.4 C 0 km/h
2160 26-05-2009 17:57:49 23.7 C 7.7 g/m*3 23.7 C 0 km/h
2161 26-05-2009 18:09:50 22.9 C 7.77 g/m*3 22.9 C 0 km/h
2162 26-05-2009 18:21:50 21 C 7.88 g/m*3 21 C 0 km/h
2163 26-05-2009 18:33:49 18.4 C 9.75 g/m*3 18.4 C 0 km/h
2164 26-05-2009 18:45:49 17.5 C 11.03 g/m*3 17.5 C 0 km/h
2165 26-05-2009 18:57:49 17 C 11 g/m*3 17 C 0 km/h
2166 26-05-2009 19:09:49 17.1 C 11.06 g/m*3 17.1 C 0 km/h
2167 26-05-2009 19:21:49 17.1 C 10.77 g/m*3 17.1 C 0 km/h
2168 26-05-2009 19:33:49 15.7 C 9.5 g/m*3 15.7 C 0 km/h
2169 26-05-2009 19:45:49 16.2 C 9.65 g/m*3 16.2 C 0 km/h
2170 26-05-2009 19:57:49 16.5 C 9.55 g/m*3 16.5 C 0 km/h
2171 26-05-2009 20:09:49 16.6 C 8.9 g/m*3 16.6 C 0 km/h
2172 26-05-2009 20:21:48 16.3 C 8.88 g/m*3 16.3 C 0 km/h
2173 26-05-2009 20:33:49 15.5 C 9.65 g/m*3 15.5 C 0 km/h
2174 26-05-2009 20:45:48 15.1 C 9.93 g/m*3 15.1 C 0 km/h
2175 26-05-2009 20:57:48 14.6 C 9.64 g/m*3 14.6 C 0 km/h
Sensor: Nr:Datum:Temp:Abs-Feuchte:Windchill:Wind:
Aussen-T/F 2176 26-05-2009 21:09:48 14.5 C 9.33 g/m*3 14.5 C 0 km/h
2177 26-05-2009 21:21:47 14.8 C 9.37 g/m*3 14.8 C 0 km/h
2178 26-05-2009 21:33:47 15.1 C 8.64 g/m*3 15.1 C 0 km/h
2179 26-05-2009 21:45:48 15.2 C 8.57 g/m*3 15.2 C 0 km/h
2180 26-05-2009 21:57:48 15.1 C 8.39 g/m*3 15.1 C 0 km/h
2181 26-05-2009 22:09:47 15.1 C 8.39 g/m*3 15.1 C 0 km/h
2182 26-05-2009 22:21:47 14 C 7.6 g/m*3 14 C 0 km/h
2183 26-05-2009 22:34:01 13.7 C 7.22 g/m*3 13.7 C 0 km/h
2184 26-05-2009 22:46:01 13.2 C 6.54 g/m*3 13.2 C 0 km/h
2185 26-05-2009 22:58:01 12.8 C 6.61 g/m*3 12.8 C 0 km/h
2186 26-05-2009 23:10:01 12.5 C 6.49 g/m*3 12.5 C 0 km/h
2187 26-05-2009 23:22:01 12.3 C 6.41 g/m*3 12.3 C 0 km/h
2188 26-05-2009 23:34:01 12.2 C 6.47 g/m*3 12.2 C 0 km/h
2189 26-05-2009 23:46:01 12.2 C 6.58 g/m*3 12.2 C 0 km/h
2190 26-05-2009 23:58:01 12.1 C 6.65 g/m*3 12.1 C 0 km/h
2191 27-05-2009 00:10:02 12.4 C 6.88 g/m*3 12.4 C 0 km/h
2192 27-05-2009 00:22:02 12.4 C 6.88 g/m*3 12.4 C 0 km/h
2193 27-05-2009 00:34:02 12.2 C 6.91 g/m*3 12.2 C 0 km/h
2194 27-05-2009 00:46:02 12 C 6.93 g/m*3 12 C 0 km/h
2195 27-05-2009 00:58:02 11.6 C 7.07 g/m*3 11.6 C 0 km/h
2196 27-05-2009 01:10:02 11.5 C 7.13 g/m*3 11.5 C 0 km/h
2197 27-05-2009 01:22:02 11.4 C 7.08 g/m*3 11.4 C 0 km/h
2198 27-05-2009 01:34:02 11.2 C 6.99 g/m*3 11.2 C 0 km/h
2199 27-05-2009 01:46:02 11.1 C 6.95 g/m*3 11.1 C 0 km/h
2200 27-05-2009 01:58:02 10.9 C 6.96 g/m*3 10.9 C 0 km/h
Sensor: Nr:Datum:Temp:Abs-Feuchte:Windchill:Wind:
Aussen-T/F 2201 27-05-2009 02:10:02 10.7 C 6.97 g/m*3 10.7 C 0 km/h
2202 27-05-2009 02:22:02 10.4 C 6.94 g/m*3 10.4 C 0 km/h
2203 27-05-2009 02:34:02 10.2 C 6.85 g/m*3 10.2 C 0 km/h
2204 27-05-2009 02:46:02 10.2 C 6.76 g/m*3 10.2 C 0 km/h
2205 27-05-2009 02:58:02 10.3 C 6.7 g/m*3 10.3 C 0 km/h
2206 27-05-2009 03:10:02 10.1 C 6.71 g/m*3 10.1 C 0 km/h
2207 27-05-2009 03:22:02 9.8 C 6.77 g/m*3 9.8 C 0 km/h
2208 27-05-2009 03:34:02 9.6 C 6.78 g/m*3 9.6 C 0 km/h
2209 27-05-2009 03:46:02 9.6 C 6.78 g/m*3 9.6 C 0 km/h
2210 27-05-2009 03:58:02 9.5 C 6.74 g/m*3 9.5 C 0 km/h
2211 27-05-2009 04:10:02 9.4 C 6.69 g/m*3 9.4 C 0 km/h
2212 27-05-2009 04:22:03 9.3 C 6.65 g/m*3 9.3 C 0 km/h
2213 27-05-2009 04:34:03 9.2 C 6.7 g/m*3 9.2 C 0 km/h
2214 27-05-2009 04:46:03 9.2 C 6.7 g/m*3 9.2 C 0 km/h
2215 27-05-2009 04:58:03 9.2 C 6.7 g/m*3 9.2 C 0 km/h
2216 27-05-2009 05:10:03 9.1 C 6.74 g/m*3 9.1 C 0 km/h
2217 27-05-2009 05:22:03 9.1 C 6.74 g/m*3 9.1 C 0 km/h
2218 27-05-2009 05:34:03 9.3 C 6.83 g/m*3 9.3 C 0 km/h
2219 27-05-2009 05:46:03 9.2 C 6.79 g/m*3 9.2 C 0 km/h
2220 27-05-2009 05:58:03 9.2 C 6.7 g/m*3 9.2 C 0 km/h
2221 27-05-2009 06:10:03 9.3 C 6.74 g/m*3 9.3 C 0 km/h
2222 27-05-2009 06:22:03 9.3 C 6.83 g/m*3 9.3 C 0 km/h
2223 27-05-2009 06:34:03 9.3 C 6.74 g/m*3 9.3 C 0 km/h
2224 27-05-2009 06:46:03 9.5 C 6.83 g/m*3 9.5 C 0 km/h
2225 27-05-2009 06:58:03 9.7 C 6.82 g/m*3 9.7 C 0 km/h
Sensor: Nr:Datum:Temp:Abs-Feuchte:Windchill:Wind:
Aussen-T/F 2226 27-05-2009 07:10:02 9.8 C 6.87 g/m*3 9.8 C 0 km/h
2227 27-05-2009 07:22:02 9.9 C 6.82 g/m*3 9.9 C 0 km/h
2228 27-05-2009 07:34:01 10 C 6.77 g/m*3 10 C 0 km/h
2229 27-05-2009 07:46:02 10.2 C 6.76 g/m*3 10.2 C 0 km/h
2230 27-05-2009 07:58:02 10.5 C 6.89 g/m*3 10.5 C 0 km/h
2231 27-05-2009 08:10:01 10.7 C 6.97 g/m*3 10.7 C 0 km/h
2232 27-05-2009 08:22:02 11 C 6.91 g/m*3 11 C 0 km/h
2233 27-05-2009 08:34:01 11.3 C 6.94 g/m*3 11.3 C 0 km/h
2234 27-05-2009 08:46:01 11.7 C 7.01 g/m*3 11.7 C 0 km/h
2235 27-05-2009 08:58:01 12.2 C 6.91 g/m*3 12.2 C 0 km/h
2236 27-05-2009 09:10:01 12.4 C 6.88 g/m*3 12.4 C 0 km/h
2237 27-05-2009 09:22:01 12.9 C 6.88 g/m*3 12.9 C 0 km/h
2238 27-05-2009 09:34:02 13.2 C 6.77 g/m*3 13.2 C 0 km/h
2239 27-05-2009 09:46:01 13.5 C 6.78 g/m*3 13.5 C 0 km/h
2240 27-05-2009 09:58:01 13.7 C 6.63 g/m*3 13.7 C 0 km/h
2241 27-05-2009 10:10:02 14.3 C 6.51 g/m*3 14.3 C 0 km/h
2242 27-05-2009 10:22:01 14.7 C 6.3 g/m*3 14.7 C 0 km/h
2243 27-05-2009 10:34:01 14.9 C 6.37 g/m*3 14.9 C 0 km/h
2244 27-05-2009 10:46:01 15.3 C 6.27 g/m*3 15.3 C 0 km/h
2245 27-05-2009 10:58:01 15.7 C 6.02 g/m*3 15.7 C 0 km/h
2246 27-05-2009 11:10:01 15.8 C 6.06 g/m*3 15.8 C 0 km/h
2247 27-05-2009 11:22:02 16.1 C 5.76 g/m*3 16.1 C 0 km/h
2248 27-05-2009 11:34:01 16.9 C 6.18 g/m*3 16.9 C 0 km/h
2249 27-05-2009 11:46:02 17 C 5.64 g/m*3 17 C 0 km/h
2250 27-05-2009 11:58:02 17.5 C 5.37 g/m*3 17.5 C 0 km/h
Sensor: Nr:Datum:Temp:Abs-Feuchte:Windchill:Wind:
Aussen-T/F 2251 27-05-2009 12:10:01 18.8 C 5.31 g/m*3 18.8 C 0 km/h
2252 27-05-2009 12:22:02 18.5 C 4.75 g/m*3 18.5 C 0 km/h
2253 27-05-2009 12:34:01 19.1 C 4.59 g/m*3 19.1 C 0 km/h
2254 27-05-2009 12:46:02 19.6 C 4.39 g/m*3 19.6 C 0 km/h
2255 27-05-2009 12:58:02 17.8 C 4.1 g/m*3 17.8 C 0 km/h
2256 27-05-2009 13:10:01 20.1 C 4.35 g/m*3 20.1 C 0 km/h
2257 27-05-2009 13:22:01 20.3 C 4.57 g/m*3 20.3 C 0 km/h
2258 27-05-2009 13:34:02 20.1 C 3.82 g/m*3 20.1 C 0 km/h
2259 27-05-2009 13:46:01 20.8 C 3.8 g/m*3 20.8 C 0 km/h
2260 27-05-2009 13:58:01 19.5 C 3.36 g/m*3 19.5 C 0 km/h
2261 27-05-2009 14:10:02 19.6 C 3.71 g/m*3 19.6 C 0 km/h
2262 27-05-2009 14:22:01 19.8 C 3.76 g/m*3 19.8 C 0 km/h
2263 27-05-2009 14:34:01 19.9 C 3.44 g/m*3 19.9 C 0 km/h
2264 27-05-2009 14:46:01 20.1 C 3.48 g/m*3 20.1 C 0 km/h
2265 27-05-2009 14:58:01 19.4 C 3.84 g/m*3 19.4 C 0 km/h
2266 27-05-2009 15:10:01 19.2 C 4.12 g/m*3 19.2 C 0 km/h
2267 27-05-2009 15:22:01 19.3 C 4.31 g/m*3 19.3 C 0 km/h
2268 27-05-2009 15:34:01 19.3 C 4.31 g/m*3 19.3 C 0 km/h
2269 27-05-2009 15:46:01 19.3 C 4.48 g/m*3 19.3 C 0 km/h
2270 27-05-2009 15:58:01 19.5 C 4.53 g/m*3 19.5 C 0 km/h
2271 27-05-2009 16:10:01 19.9 C 4.64 g/m*3 19.9 C 0 km/h
2272 27-05-2009 16:22:02 19.4 C 4.34 g/m*3 19.4 C 0 km/h
2273 27-05-2009 16:34:01 20.3 C 4.57 g/m*3 20.3 C 0 km/h
2274 27-05-2009 16:46:02 19.6 C 4.56 g/m*3 19.6 C 0 km/h
2275 27-05-2009 16:58:02 19.5 C 4.7 g/m*3 19.5 C 0 km/h
Sensor: Nr:Datum:Temp:Abs-Feuchte:Windchill:Wind:
Aussen-T/F 2276 27-05-2009 17:10:01 19.1 C 4.43 g/m*3 19.1 C 0 km/h
2277 27-05-2009 17:22:01 19.3 C 4.81 g/m*3 19.3 C 0 km/h
2278 27-05-2009 17:34:02 18.4 C 4.72 g/m*3 18.4 C 0 km/h
2279 27-05-2009 17:46:01 17.9 C 4.89 g/m*3 17.9 C 0 km/h
2280 27-05-2009 17:58:01 18 C 4.76 g/m*3 18 C 0 km/h
2281 27-05-2009 18:10:02 17.5 C 4.62 g/m*3 17.5 C 0 km/h
2282 27-05-2009 18:22:01 17.4 C 4.45 g/m*3 17.4 C 0 km/h
2283 27-05-2009 18:34:02 17.2 C 4.39 g/m*3 17.2 C 0 km/h
2284 27-05-2009 18:46:01 17.5 C 4.62 g/m*3 17.5 C 0 km/h
2285 27-05-2009 18:58:01 17.4 C 4.74 g/m*3 17.4 C 0 km/h
2286 27-05-2009 19:10:02 17.5 C 4.92 g/m*3 17.5 C 0 km/h
2287 27-05-2009 19:22:01 17.7 C 4.98 g/m*3 17.7 C 0 km/h
2288 27-05-2009 19:34:01 17.3 C 4.86 g/m*3 17.3 C 0 km/h
2289 27-05-2009 19:46:01 17.2 C 5.13 g/m*3 17.2 C 0 km/h
2290 27-05-2009 19:58:01 17.1 C 5.09 g/m*3 17.1 C 0 km/h
2291 27-05-2009 20:10:01 16.8 C 5.15 g/m*3 16.8 C 0 km/h
2292 27-05-2009 20:22:02 16.6 C 5.23 g/m*3 16.6 C 0 km/h
2293 27-05-2009 20:34:01 16.3 C 5.13 g/m*3 16.3 C 0 km/h
2294 27-05-2009 20:46:02 16 C 5.31 g/m*3 16 C 0 km/h
2295 27-05-2009 20:58:02 15.5 C 5.02 g/m*3 15.5 C 0 km/h
2296 27-05-2009 21:10:01 15 C 5.26 g/m*3 15 C 0 km/h
2297 27-05-2009 21:22:01 14.7 C 5.54 g/m*3 14.7 C 0 km/h
2298 27-05-2009 21:34:01 14.4 C 5.56 g/m*3 14.4 C 0 km/h
2299 27-05-2009 21:46:01 14.5 C 5.72 g/m*3 14.5 C 0 km/h
2300 27-05-2009 21:58:01 14.5 C 5.72 g/m*3 14.5 C 0 km/h
Sensor: Nr:Datum:Temp:Abs-Feuchte:Windchill:Wind:
Aussen-T/F 2301 27-05-2009 22:10:01 14.3 C 5.77 g/m*3 14.3 C 0 km/h
2302 27-05-2009 22:22:40 14.2 C 5.74 g/m*3 14.2 C 0 km/h
2303 27-05-2009 22:34:40 13.8 C 6.2 g/m*3 13.8 C 0 km/h
2304 27-05-2009 22:46:40 13.3 C 6.12 g/m*3 13.3 C 0 km/h
2305 27-05-2009 22:58:40 13.5 C 6.32 g/m*3 13.5 C 0 km/h
2306 27-05-2009 23:10:41 13.2 C 6.2 g/m*3 13.2 C 0 km/h
2307 27-05-2009 23:22:41 13.2 C 6.09 g/m*3 13.2 C 0 km/h
2308 27-05-2009 23:34:41 13.3 C 5.89 g/m*3 13.3 C 0 km/h
2309 27-05-2009 23:46:41 13.6 C 5.77 g/m*3 13.6 C 0 km/h
2310 27-05-2009 23:58:41 13.6 C 5.77 g/m*3 13.6 C 0 km/h
2311 28-05-2009 00:10:41 13.4 C 5.7 g/m*3 13.4 C 0 km/h
2312 28-05-2009 00:22:41 13.4 C 5.58 g/m*3 13.4 C 0 km/h
2313 28-05-2009 00:34:41 13.4 C 5.7 g/m*3 13.4 C 0 km/h
2314 28-05-2009 00:46:41 13.3 C 5.66 g/m*3 13.3 C 0 km/h
2315 28-05-2009 00:58:41 13.2 C 5.74 g/m*3 13.2 C 0 km/h
2316 28-05-2009 01:10:41 13.2 C 5.86 g/m*3 13.2 C 0 km/h
2317 28-05-2009 01:22:41 13.1 C 5.93 g/m*3 13.1 C 0 km/h
2318 28-05-2009 01:34:41 13.1 C 6.05 g/m*3 13.1 C 0 km/h
2319 28-05-2009 01:46:41 13 C 6.12 g/m*3 13 C 0 km/h
2320 28-05-2009 01:58:41 13.1 C 6.28 g/m*3 13.1 C 0 km/h
2321 28-05-2009 02:10:41 13.1 C 6.28 g/m*3 13.1 C 0 km/h
2322 28-05-2009 02:22:41 12.9 C 6.65 g/m*3 12.9 C 0 km/h
2323 28-05-2009 02:34:41 12.3 C 7.06 g/m*3 12.3 C 0 km/h
2324 28-05-2009 02:46:41 12.7 C 6.79 g/m*3 12.7 C 0 km/h
2325 28-05-2009 02:58:41 12.9 C 6.65 g/m*3 12.9 C 0 km/h
Sensor: Nr:Datum:Temp:Abs-Feuchte:Windchill:Wind:
Aussen-T/F 2326 28-05-2009 03:10:41 13 C 6.46 g/m*3 13 C 0 km/h
2327 28-05-2009 03:22:42 13 C 6.58 g/m*3 13 C 0 km/h
2328 28-05-2009 03:34:42 12.7 C 6.68 g/m*3 12.7 C 0 km/h
2329 28-05-2009 03:46:42 12.7 C 6.79 g/m*3 12.7 C 0 km/h
2330 28-05-2009 03:58:42 12.8 C 6.83 g/m*3 12.8 C 0 km/h
2331 28-05-2009 04:10:42 12.9 C 6.88 g/m*3 12.9 C 0 km/h
2332 28-05-2009 04:22:42 13 C 6.92 g/m*3 13 C 0 km/h
2333 28-05-2009 04:34:42 13 C 6.92 g/m*3 13 C 0 km/h
2334 28-05-2009 04:46:42 12.9 C 7.1 g/m*3 12.9 C 0 km/h
2335 28-05-2009 04:58:42 12.9 C 7.1 g/m*3 12.9 C 0 km/h
2336 28-05-2009 05:10:42 12.8 C 7.17 g/m*3 12.8 C 0 km/h
2337 28-05-2009 05:22:40 12.8 C 7.39 g/m*3 12.8 C 0 km/h
2338 28-05-2009 05:34:40 12.8 C 7.39 g/m*3 12.8 C 0 km/h
2339 28-05-2009 05:46:40 12.9 C 7.55 g/m*3 12.9 C 0 km/h
2340 28-05-2009 05:58:40 13 C 7.48 g/m*3 13 C 0 km/h
2341 28-05-2009 06:10:39 13 C 7.48 g/m*3 13 C 0 km/h
2342 28-05-2009 06:22:39 13 C 7.48 g/m*3 13 C 0 km/h
2343 28-05-2009 06:34:39 13.1 C 7.53 g/m*3 13.1 C 0 km/h
2344 28-05-2009 06:46:39 13.2 C 7.58 g/m*3 13.2 C 0 km/h
2345 28-05-2009 06:58:40 13.2 C 7.58 g/m*3 13.2 C 0 km/h
2346 28-05-2009 07:10:38 13.3 C 7.63 g/m*3 13.3 C 0 km/h
2347 28-05-2009 07:22:39 13.4 C 7.67 g/m*3 13.4 C 0 km/h
2348 28-05-2009 07:34:38 13.5 C 7.72 g/m*3 13.5 C 0 km/h
2349 28-05-2009 07:46:38 13.6 C 7.89 g/m*3 13.6 C 0 km/h
2350 28-05-2009 07:58:39 13.6 C 7.77 g/m*3 13.6 C 0 km/h
Sensor: Nr:Datum:Temp:Abs-Feuchte:Windchill:Wind:
Aussen-T/F 2351 28-05-2009 08:10:38 13.7 C 7.82 g/m*3 13.7 C 0 km/h
2352 28-05-2009 08:22:38 13.9 C 7.91 g/m*3 13.9 C 0 km/h
2353 28-05-2009 08:34:38 14.1 C 8.01 g/m*3 14.1 C 0 km/h
2354 28-05-2009 08:46:38 14.6 C 8.01 g/m*3 14.6 C 0 km/h
2355 28-05-2009 08:58:38 14.8 C 7.85 g/m*3 14.8 C 0 km/h
2356 28-05-2009 09:10:38 15 C 7.95 g/m*3 15 C 0 km/h
2357 28-05-2009 09:22:37 14.9 C 8.03 g/m*3 14.9 C 0 km/h
2358 28-05-2009 09:34:37 14.9 C 8.16 g/m*3 14.9 C 0 km/h
2359 28-05-2009 09:46:37 15.2 C 8.05 g/m*3 15.2 C 0 km/h
2360 28-05-2009 09:58:37 15.3 C 8.23 g/m*3 15.3 C 0 km/h
2361 28-05-2009 10:10:37 15.4 C 8.15 g/m*3 15.4 C 0 km/h
2362 28-05-2009 10:22:37 15.7 C 8.16 g/m*3 15.7 C 0 km/h
2363 28-05-2009 10:34:37 15.3 C 8.23 g/m*3 15.3 C 0 km/h
2364 28-05-2009 10:46:37 15.4 C 8.28 g/m*3 15.4 C 0 km/h
2365 28-05-2009 10:58:37 16 C 8.31 g/m*3 16 C 0 km/h
2366 28-05-2009 11:10:36 16.4 C 8.37 g/m*3 16.4 C 0 km/h
2367 28-05-2009 11:22:36 16.6 C 8.33 g/m*3 16.6 C 0 km/h
2368 28-05-2009 11:34:36 16.8 C 8.44 g/m*3 16.8 C 0 km/h
2369 28-05-2009 11:46:36 16.7 C 8.53 g/m*3 16.7 C 0 km/h
2370 28-05-2009 11:58:37 16.6 C 8.48 g/m*3 16.6 C 0 km/h
2371 28-05-2009 12:10:35 16.2 C 8.55 g/m*3 16.2 C 0 km/h
2372 28-05-2009 12:22:36 15.6 C 9.04 g/m*3 15.6 C 0 km/h
2373 28-05-2009 12:34:36 14.9 C 9.81 g/m*3 14.9 C 0 km/h
2374 28-05-2009 12:46:35 14.9 C 10.07 g/m*3 14.9 C 0 km/h
2375 28-05-2009 12:58:35 15 C 10.39 g/m*3 15 C 0 km/h
Sensor: Nr:Datum:Temp:Abs-Feuchte:Windchill:Wind:
Aussen-T/F 2376 28-05-2009 13:10:36 15.6 C 10.91 g/m*3 15.6 C 0 km/h
2377 28-05-2009 13:22:35 15.8 C 10.9 g/m*3 15.8 C 0 km/h
2378 28-05-2009 13:34:35 15.7 C 10.84 g/m*3 15.7 C 0 km/h
2379 28-05-2009 13:46:34 16.8 C 11.72 g/m*3 16.8 C 0 km/h
2380 28-05-2009 13:58:34 17 C 11.14 g/m*3 17 C 0 km/h
2381 28-05-2009 14:10:35 16 C 10.49 g/m*3 16 C 0 km/h
2382 28-05-2009 14:22:35 16.7 C 11.51 g/m*3 16.7 C 0 km/h
2383 28-05-2009 14:34:34 18.2 C 11.35 g/m*3 18.2 C 0 km/h
2384 28-05-2009 14:46:35 18.5 C 10.6 g/m*3 18.5 C 0 km/h
2385 28-05-2009 14:58:35 17.9 C 10.54 g/m*3 17.9 C 0 km/h
2386 28-05-2009 15:10:34 16.8 C 10.44 g/m*3 16.8 C 0 km/h
2387 28-05-2009 15:22:34 17.1 C 10.77 g/m*3 17.1 C 0 km/h
2388 28-05-2009 15:34:33 18.3 C 10.16 g/m*3 18.3 C 0 km/h
2389 28-05-2009 15:46:34 19.3 C 9.62 g/m*3 19.3 C 0 km/h
2390 28-05-2009 15:58:35 18.5 C 9.97 g/m*3 18.5 C 0 km/h
2391 28-05-2009 16:10:33 18.5 C 9.49 g/m*3 18.5 C 0 km/h
2392 28-05-2009 16:22:33 18.3 C 9.22 g/m*3 18.3 C 0 km/h
2393 28-05-2009 16:34:34 20.3 C 9.5 g/m*3 20.3 C 0 km/h
2394 28-05-2009 16:46:33 20.6 C 8.95 g/m*3 20.6 C 0 km/h
2395 28-05-2009 16:58:33 19.4 C 9.01 g/m*3 19.4 C 0 km/h
2396 28-05-2009 17:10:33 19.1 C 9.02 g/m*3 19.1 C 0 km/h
2397 28-05-2009 17:22:33 19.7 C 9 g/m*3 19.7 C 0 km/h
2398 28-05-2009 17:34:33 19.4 C 9.01 g/m*3 19.4 C 0 km/h
2399 28-05-2009 17:46:33 19.3 C 8.79 g/m*3 19.3 C 0 km/h
2400 28-05-2009 17:58:33 18.9 C 7.94 g/m*3 18.9 C 0 km/h
Sensor: Nr:Datum:Temp:Abs-Feuchte:Windchill:Wind:
Aussen-T/F 2401 28-05-2009 18:10:32 18.7 C 8.33 g/m*3 18.7 C 0 km/h
2402 28-05-2009 18:22:33 18.4 C 8.49 g/m*3 18.4 C 0 km/h
2403 28-05-2009 18:34:32 18.3 C 8.44 g/m*3 18.3 C 0 km/h
2404 28-05-2009 18:46:32 18.1 C 8.65 g/m*3 18.1 C 0 km/h
2405 28-05-2009 18:58:32 18.5 C 8.7 g/m*3 18.5 C 0 km/h
2406 28-05-2009 19:10:32 18.5 C 9.02 g/m*3 18.5 C 0 km/h
2407 28-05-2009 19:22:31 18 C 9.06 g/m*3 18 C 0 km/h
2408 28-05-2009 19:34:31 17.7 C 9.35 g/m*3 17.7 C 0 km/h
2409 28-05-2009 19:46:31 17.5 C 9.09 g/m*3 17.5 C 0 km/h
2410 28-05-2009 19:58:31 17.5 C 9.09 g/m*3 17.5 C 0 km/h
2411 28-05-2009 20:10:31 17.5 C 8.95 g/m*3 17.5 C 0 km/h
2412 28-05-2009 20:22:31 17.5 C 9.09 g/m*3 17.5 C 0 km/h
2413 28-05-2009 20:34:31 17.5 C 9.09 g/m*3 17.5 C 0 km/h
2414 28-05-2009 20:46:31 17.4 C 8.74 g/m*3 17.4 C 0 km/h
2415 28-05-2009 20:58:32 17.2 C 8.64 g/m*3 17.2 C 0 km/h
2416 28-05-2009 21:10:31 16.6 C 8.76 g/m*3 16.6 C 0 km/h
2417 28-05-2009 21:22:31 16.2 C 8.55 g/m*3 16.2 C 0 km/h
2418 28-05-2009 21:34:30 16.3 C 8.05 g/m*3 16.3 C 0 km/h
2419 28-05-2009 21:47:31 16.2 C 8 g/m*3 16.2 C 0 km/h
2420 28-05-2009 21:59:31 16 C 8.17 g/m*3 16 C 0 km/h
2421 28-05-2009 22:11:31 15.8 C 8.21 g/m*3 15.8 C 0 km/h
2422 28-05-2009 22:23:31 15.6 C 8.25 g/m*3 15.6 C 0 km/h
2423 28-05-2009 22:35:31 15.5 C 8.2 g/m*3 15.5 C 0 km/h
2424 28-05-2009 22:47:31 15.7 C 8.16 g/m*3 15.7 C 0 km/h
2425 28-05-2009 22:59:31 15.8 C 8.08 g/m*3 15.8 C 0 km/h
Sensor: Nr:Datum:Temp:Abs-Feuchte:Windchill:Wind:
Aussen-T/F 2426 28-05-2009 23:11:31 15.8 C 8.08 g/m*3 15.8 C 0 km/h
2427 28-05-2009 23:23:31 15.6 C 7.98 g/m*3 15.6 C 0 km/h
2428 28-05-2009 23:35:31 15.5 C 7.93 g/m*3 15.5 C 0 km/h
2429 28-05-2009 23:47:31 15.6 C 7.98 g/m*3 15.6 C 0 km/h
2430 28-05-2009 23:59:31 15.6 C 7.71 g/m*3 15.6 C 0 km/h
2431 29-05-2009 00:11:31 15.6 C 7.71 g/m*3 15.6 C 0 km/h
2432 29-05-2009 00:23:31 15.4 C 7.62 g/m*3 15.4 C 0 km/h
2433 29-05-2009 00:35:31 15.1 C 7.61 g/m*3 15.1 C 0 km/h
2434 29-05-2009 00:47:31 14.6 C 7.76 g/m*3 14.6 C 0 km/h
2435 29-05-2009 00:59:31 14.2 C 7.69 g/m*3 14.2 C 0 km/h
2436 29-05-2009 01:11:32 13.9 C 7.91 g/m*3 13.9 C 0 km/h
2437 29-05-2009 01:23:32 13.5 C 7.84 g/m*3 13.5 C 0 km/h
2438 29-05-2009 01:35:32 13.2 C 7.92 g/m*3 13.2 C 0 km/h
2439 29-05-2009 01:47:32 13 C 7.94 g/m*3 13 C 0 km/h
2440 29-05-2009 01:59:32 12.8 C 8.06 g/m*3 12.8 C 0 km/h
2441 29-05-2009 02:11:32 12.5 C 8.03 g/m*3 12.5 C 0 km/h
2442 29-05-2009 02:23:32 12.2 C 7.88 g/m*3 12.2 C 0 km/h
2443 29-05-2009 02:35:32 12.1 C 7.94 g/m*3 12.1 C 0 km/h
2444 29-05-2009 02:47:32 11.8 C 8 g/m*3 11.8 C 0 km/h
2445 29-05-2009 02:59:32 11.6 C 8 g/m*3 11.6 C 0 km/h
2446 29-05-2009 03:11:32 11.4 C 8.01 g/m*3 11.4 C 0 km/h
2447 29-05-2009 03:23:32 11.1 C 7.86 g/m*3 11.1 C 0 km/h
2448 29-05-2009 03:35:32 10.8 C 7.81 g/m*3 10.8 C 0 km/h
2449 29-05-2009 03:47:32 10.6 C 7.71 g/m*3 10.6 C 0 km/h
2450 29-05-2009 03:59:32 10.5 C 7.76 g/m*3 10.5 C 0 km/h
Sensor: Nr:Datum:Temp:Abs-Feuchte:Windchill:Wind:
Aussen-T/F 2451 29-05-2009 04:11:32 10.2 C 7.61 g/m*3 10.2 C 0 km/h
2452 29-05-2009 04:23:32 10.1 C 7.56 g/m*3 10.1 C 0 km/h
2453 29-05-2009 04:35:32 9.9 C 7.56 g/m*3 9.9 C 0 km/h
2454 29-05-2009 04:47:32 9.7 C 7.56 g/m*3 9.7 C 0 km/h
2455 29-05-2009 04:59:32 9.6 C 7.51 g/m*3 9.6 C 0 km/h
2456 29-05-2009 05:11:33 9.4 C 7.42 g/m*3 9.4 C 0 km/h
2457 29-05-2009 05:23:33 9.4 C 7.51 g/m*3 9.4 C 0 km/h
2458 29-05-2009 05:35:33 9.4 C 7.6 g/m*3 9.4 C 0 km/h
2459 29-05-2009 05:47:33 9.3 C 7.55 g/m*3 9.3 C 0 km/h
2460 29-05-2009 05:59:33 9.2 C 7.59 g/m*3 9.2 C 0 km/h
2461 29-05-2009 06:11:33 9.1 C 7.54 g/m*3 9.1 C 0 km/h
2462 29-05-2009 06:23:33 9.1 C 7.63 g/m*3 9.1 C 0 km/h
2463 29-05-2009 06:35:33 9.2 C 7.68 g/m*3 9.2 C 0 km/h
2464 29-05-2009 06:47:33 9.2 C 7.68 g/m*3 9.2 C 0 km/h
2465 29-05-2009 06:59:33 9.3 C 7.73 g/m*3 9.3 C 0 km/h
2466 29-05-2009 07:11:31 9.5 C 7.83 g/m*3 9.5 C 0 km/h
2467 29-05-2009 07:23:30 9.5 C 7.74 g/m*3 9.5 C 0 km/h
2468 29-05-2009 07:35:31 9.7 C 7.84 g/m*3 9.7 C 0 km/h
2469 29-05-2009 07:47:30 9.8 C 7.79 g/m*3 9.8 C 0 km/h
2470 29-05-2009 07:59:30 10.2 C 7.9 g/m*3 10.2 C 0 km/h
2471 29-05-2009 08:11:30 10.5 C 7.76 g/m*3 10.5 C 0 km/h
2472 29-05-2009 08:23:30 11.1 C 7.05 g/m*3 11.1 C 0 km/h
2473 29-05-2009 08:35:30 11.4 C 6.47 g/m*3 11.4 C 0 km/h
2474 29-05-2009 08:47:29 11.8 C 6.31 g/m*3 11.8 C 0 km/h
2475 29-05-2009 08:59:29 12.2 C 6.15 g/m*3 12.2 C 0 km/h
Sensor: Nr:Datum:Temp:Abs-Feuchte:Windchill:Wind:
Aussen-T/F 2476 29-05-2009 09:11:29 12.7 C 5.57 g/m*3 12.7 C 0 km/h
2477 29-05-2009 09:23:30 13.2 C 5.17 g/m*3 13.2 C 0 km/h
2478 29-05-2009 09:35:29 13.6 C 4.71 g/m*3 13.6 C 0 km/h
2479 29-05-2009 09:47:29 13.9 C 4.68 g/m*3 13.9 C 0 km/h
2480 29-05-2009 09:59:29 14.1 C 3.76 g/m*3 14.1 C 0 km/h
2481 29-05-2009 10:11:29 14.7 C 3.9 g/m*3 14.7 C 0 km/h
2482 29-05-2009 10:23:29 15 C 4.1 g/m*3 15 C 0 km/h
2483 29-05-2009 10:35:28 15.9 C 4.33 g/m*3 15.9 C 0 km/h
2484 29-05-2009 10:47:29 15.7 C 4.01 g/m*3 15.7 C 0 km/h
2485 29-05-2009 10:59:29 16.6 C 4.24 g/m*3 16.6 C 0 km/h
2486 29-05-2009 11:11:28 17.5 C 3.73 g/m*3 17.5 C 0 km/h
2487 29-05-2009 11:23:28 17 C 3.04 g/m*3 17 C 0 km/h
2488 29-05-2009 11:35:28 17.6 C 3.75 g/m*3 17.6 C 0 km/h
2489 29-05-2009 11:47:28 18.8 C 3.7 g/m*3 18.8 C 0 km/h
2490 29-05-2009 11:59:28 19.6 C 3.55 g/m*3 19.6 C 0 km/h
2491 29-05-2009 12:11:28 20.3 C 3.52 g/m*3 20.3 C 0 km/h
2492 29-05-2009 12:23:27 20.4 C 3.54 g/m*3 20.4 C 0 km/h
2493 29-05-2009 12:35:28 21.7 C 3.82 g/m*3 21.7 C 0 km/h
2494 29-05-2009 12:47:27 22.6 C 4.02 g/m*3 22.6 C 0 km/h
2495 29-05-2009 12:59:27 23.2 C 4.16 g/m*3 23.2 C 0 km/h
2496 29-05-2009 13:11:27 23.4 C 4.21 g/m*3 23.4 C 0 km/h
2497 29-05-2009 13:23:27 23.7 C 4.28 g/m*3 23.7 C 0 km/h
2498 29-05-2009 13:35:27 24.7 C 4.53 g/m*3 24.7 C 0 km/h
2499 29-05-2009 13:47:27 24.8 C 4.55 g/m*3 24.8 C 0 km/h
2500 29-05-2009 13:59:27 24 C 4.35 g/m*3 24 C 0 km/h
Sensor: Nr:Datum:Temp:Abs-Feuchte:Windchill:Wind:
Aussen-T/F 2501 29-05-2009 14:11:26 23 C 4.11 g/m*3 23 C 0 km/h
2502 29-05-2009 14:23:26 23.1 C 4.13 g/m*3 23.1 C 0 km/h
2503 29-05-2009 14:35:26 22.6 C 4.02 g/m*3 22.6 C 0 km/h
2504 29-05-2009 14:47:26 23.3 C 4.18 g/m*3 23.3 C 0 km/h
2505 29-05-2009 14:59:26 24.6 C 4.5 g/m*3 24.6 C 0 km/h
2506 29-05-2009 15:11:26 25 C 4.6 g/m*3 25 C 0 km/h
2507 29-05-2009 15:23:26 25.6 C 4.76 g/m*3 25.6 C 0 km/h
2508 29-05-2009 15:35:26 26.6 C 5.03 g/m*3 26.6 C 0 km/h
2509 29-05-2009 15:47:26 26.2 C 4.92 g/m*3 26.2 C 0 km/h
2510 29-05-2009 15:59:26 26.1 C 4.9 g/m*3 26.1 C 0 km/h
2511 29-05-2009 16:11:25 27.3 C 5.23 g/m*3 27.3 C 0 km/h
2512 29-05-2009 16:23:25 27.4 C 5.26 g/m*3 27.4 C 0 km/h
2513 29-05-2009 16:35:25 28.4 C 5.56 g/m*3 28.4 C 0 km/h
2514 29-05-2009 16:47:25 27.8 C 5.38 g/m*3 27.8 C 0 km/h
2515 29-05-2009 16:59:25 26.4 C 4.98 g/m*3 26.4 C 0 km/h
2516 29-05-2009 17:11:24 28 C 5.44 g/m*3 28 C 0 km/h
2517 29-05-2009 17:23:25 28 C 5.44 g/m*3 28 C 0 km/h
2518 29-05-2009 17:35:25 29 C 5.74 g/m*3 29 C 0 km/h
2519 29-05-2009 17:47:24 28.8 C 5.68 g/m*3 28.8 C 0 km/h
2520 29-05-2009 17:59:24 28.3 C 5.53 g/m*3 28.3 C 0 km/h
2521 29-05-2009 18:11:25 27.9 C 5.41 g/m*3 27.9 C 0 km/h
2522 29-05-2009 18:23:24 28.6 C 5.62 g/m*3 28.6 C 0 km/h
2523 29-05-2009 18:35:24 28.7 C 5.65 g/m*3 28.7 C 0 km/h
2524 29-05-2009 18:47:24 27.6 C 5.32 g/m*3 27.6 C 0 km/h
2525 29-05-2009 18:59:24 27.1 C 5.18 g/m*3 27.1 C 0 km/h
Sensor: Nr:Datum:Temp:Abs-Feuchte:Windchill:Wind:
Aussen-T/F 2526 29-05-2009 19:11:24 26.9 C 5.12 g/m*3 26.9 C 0 km/h
2527 29-05-2009 19:23:24 26.8 C 5.09 g/m*3 26.8 C 0 km/h
2528 29-05-2009 19:35:23 26.6 C 5.03 g/m*3 26.6 C 0 km/h
2529 29-05-2009 19:47:24 26.2 C 4.92 g/m*3 26.2 C 0 km/h
2530 29-05-2009 19:59:24 25.5 C 4.73 g/m*3 25.5 C 0 km/h
2531 29-05-2009 20:11:23 24.5 C 4.48 g/m*3 24.5 C 0 km/h
2532 29-05-2009 20:23:23 23.7 C 4.28 g/m*3 23.7 C 0 km/h
2533 29-05-2009 20:35:02 23.2 C 4.16 g/m*3 23.2 C 0 km/h
2534 29-05-2009 20:47:02 22.5 C 4.39 g/m*3 22.5 C 0 km/h
2535 29-05-2009 20:59:02 21.6 C 5.12 g/m*3 21.6 C 0 km/h
2536 29-05-2009 21:11:02 20.2 C 5.07 g/m*3 20.2 C 0 km/h
2537 29-05-2009 21:23:02 19.1 C 4.92 g/m*3 19.1 C 0 km/h
2538 29-05-2009 21:35:01 18.4 C 5.03 g/m*3 18.4 C 0 km/h
2539 29-05-2009 21:47:02 18.1 C 4.94 g/m*3 18.1 C 0 km/h
2540 29-05-2009 21:59:02 18 C 4.92 g/m*3 18 C 0 km/h
2541 29-05-2009 22:11:01 17.8 C 5.16 g/m*3 17.8 C 0 km/h
2542 29-05-2009 22:23:01 17.4 C 5.04 g/m*3 17.4 C 0 km/h
2543 29-05-2009 22:35:01 16.8 C 5.15 g/m*3 16.8 C 0 km/h
2544 29-05-2009 22:48:02 16.4 C 5.02 g/m*3 16.4 C 0 km/h
2545 29-05-2009 23:00:02 16.2 C 5.1 g/m*3 16.2 C 0 km/h
2546 29-05-2009 23:12:02 15.7 C 5.08 g/m*3 15.7 C 0 km/h
2547 29-05-2009 23:24:03 15.4 C 5.12 g/m*3 15.4 C 0 km/h
2548 29-05-2009 23:36:03 15 C 5.13 g/m*3 15 C 0 km/h
2549 29-05-2009 23:48:03 14.5 C 5.6 g/m*3 14.5 C 0 km/h
2550 30-05-2009 00:00:03 14.4 C 5.44 g/m*3 14.4 C 0 km/h
Sensor: Nr:Datum:Temp:Abs-Feuchte:Windchill:Wind:
Aussen-T/F 2551 30-05-2009 00:12:03 14.3 C 5.65 g/m*3 14.3 C 0 km/h
2552 30-05-2009 00:24:03 14.1 C 5.46 g/m*3 14.1 C 0 km/h
2553 30-05-2009 00:36:03 13.8 C 5.48 g/m*3 13.8 C 0 km/h
2554 30-05-2009 00:48:03 13.5 C 5.38 g/m*3 13.5 C 0 km/h
2555 30-05-2009 01:00:03 13.4 C 5.46 g/m*3 13.4 C 0 km/h
2556 30-05-2009 01:12:03 13 C 5.67 g/m*3 13 C 0 km/h
2557 30-05-2009 01:24:03 12.8 C 5.71 g/m*3 12.8 C 0 km/h
2558 30-05-2009 01:36:03 12.7 C 5.57 g/m*3 12.7 C 0 km/h
2559 30-05-2009 01:48:03 12.4 C 5.79 g/m*3 12.4 C 0 km/h
2560 30-05-2009 02:00:03 12.1 C 5.9 g/m*3 12.1 C 0 km/h
2561 30-05-2009 02:12:03 11.9 C 6.04 g/m*3 11.9 C 0 km/h
2562 30-05-2009 02:24:03 11.6 C 6.03 g/m*3 11.6 C 0 km/h
2563 30-05-2009 02:36:03 11.5 C 5.99 g/m*3 11.5 C 0 km/h
2564 30-05-2009 02:48:03 11.5 C 6.09 g/m*3 11.5 C 0 km/h
2565 30-05-2009 03:00:03 11.4 C 5.95 g/m*3 11.4 C 0 km/h
2566 30-05-2009 03:12:03 11.4 C 5.75 g/m*3 11.4 C 0 km/h
2567 30-05-2009 03:24:04 11.5 C 5.68 g/m*3 11.5 C 0 km/h
2568 30-05-2009 03:36:04 11.4 C 5.75 g/m*3 11.4 C 0 km/h
2569 30-05-2009 03:48:04 11.3 C 5.71 g/m*3 11.3 C 0 km/h
2570 30-05-2009 04:00:04 11.1 C 5.74 g/m*3 11.1 C 0 km/h
2571 30-05-2009 04:12:04 11 C 5.91 g/m*3 11 C 0 km/h
2572 30-05-2009 04:24:04 10.8 C 5.93 g/m*3 10.8 C 0 km/h
2573 30-05-2009 04:36:04 10.8 C 5.93 g/m*3 10.8 C 0 km/h
2574 30-05-2009 04:48:04 10.7 C 5.89 g/m*3 10.7 C 0 km/h
2575 30-05-2009 05:00:04 10.6 C 5.95 g/m*3 10.6 C 0 km/h
Sensor: Nr:Datum:Temp:Abs-Feuchte:Windchill:Wind:
Aussen-T/F 2576 30-05-2009 05:12:04 10.4 C 5.88 g/m*3 10.4 C 0 km/h
2577 30-05-2009 05:24:04 10.2 C 6.19 g/m*3 10.2 C 0 km/h
2578 30-05-2009 05:36:04 10.1 C 6.34 g/m*3 10.1 C 0 km/h
2579 30-05-2009 05:48:04 10 C 6.58 g/m*3 10 C 0 km/h
2580 30-05-2009 06:00:04 9.9 C 6.54 g/m*3 9.9 C 0 km/h
2581 30-05-2009 06:12:04 9.9 C 6.54 g/m*3 9.9 C 0 km/h
2582 30-05-2009 06:24:04 9.9 C 6.54 g/m*3 9.9 C 0 km/h
2583 30-05-2009 06:36:04 9.9 C 6.72 g/m*3 9.9 C 0 km/h
2584 30-05-2009 06:48:04 10 C 6.67 g/m*3 10 C 0 km/h
2585 30-05-2009 07:00:04 10.1 C 6.71 g/m*3 10.1 C 0 km/h
2586 30-05-2009 07:12:04 10.3 C 6.9 g/m*3 10.3 C 0 km/h
2587 30-05-2009 07:24:05 10.5 C 6.89 g/m*3 10.5 C 0 km/h
2588 30-05-2009 07:36:02 10.8 C 6.92 g/m*3 10.8 C 0 km/h
2589 30-05-2009 07:48:02 11.1 C 6.95 g/m*3 11.1 C 0 km/h
2590 30-05-2009 08:00:02 11.4 C 6.98 g/m*3 11.4 C 0 km/h
2591 30-05-2009 08:12:01 11.7 C 6.9 g/m*3 11.7 C 0 km/h
2592 30-05-2009 08:24:02 12.3 C 6.84 g/m*3 12.3 C 0 km/h
2593 30-05-2009 08:36:02 12.7 C 6.68 g/m*3 12.7 C 0 km/h
2594 30-05-2009 08:48:01 13.4 C 6.51 g/m*3 13.4 C 0 km/h
2595 30-05-2009 09:00:01 13.8 C 6.31 g/m*3 13.8 C 0 km/h
2596 30-05-2009 09:12:02 14.2 C 6.35 g/m*3 14.2 C 0 km/h
2597 30-05-2009 09:24:01 14.8 C 6.33 g/m*3 14.8 C 0 km/h
2598 30-05-2009 09:36:01 15.3 C 6.4 g/m*3 15.3 C 0 km/h
2599 30-05-2009 09:48:01 15.9 C 6.37 g/m*3 15.9 C 0 km/h
2600 30-05-2009 10:00:01 16.5 C 6.32 g/m*3 16.5 C 0 km/h
Sensor: Nr:Datum:Temp:Abs-Feuchte:Windchill:Wind:
Aussen-T/F 2601 30-05-2009 10:12:01 16.9 C 6.04 g/m*3 16.9 C 0 km/h
2602 30-05-2009 10:24:00 17.6 C 6.15 g/m*3 17.6 C 0 km/h
2603 30-05-2009 10:36:00 18.2 C 6.22 g/m*3 18.2 C 0 km/h
2604 30-05-2009 10:48:00 18.9 C 6.48 g/m*3 18.9 C 0 km/h
2605 30-05-2009 11:00:00 19.6 C 6.25 g/m*3 19.6 C 0 km/h
2606 30-05-2009 11:12:00 19.6 C 6.25 g/m*3 19.6 C 0 km/h
2607 30-05-2009 11:24:00 19.9 C 6.19 g/m*3 19.9 C 0 km/h
2608 30-05-2009 11:36:00 20.6 C 6.26 g/m*3 20.6 C 0 km/h
2609 30-05-2009 11:48:00 21.2 C 5.93 g/m*3 21.2 C 0 km/h
2610 30-05-2009 12:00:00 21.4 C 5.44 g/m*3 21.4 C 0 km/h
2611 30-05-2009 12:12:59 23 C 5.34 g/m*3 23 C 0 km/h
2612 30-05-2009 12:24:00 21.6 C 5.5 g/m*3 21.6 C 0 km/h
2613 30-05-2009 12:36:00 22.1 C 5.08 g/m*3 22.1 C 0 km/h
2614 30-05-2009 12:48:59 22 C 5.05 g/m*3 22 C 0 km/h
2615 30-05-2009 13:00:59 21.5 C 5.09 g/m*3 21.5 C 0 km/h
2616 30-05-2009 13:11:59 24.3 C 5.09 g/m*3 24.3 C 0 km/h
2617 30-05-2009 13:24:59 26.5 C 5.01 g/m*3 26.5 C 0 km/h
2618 30-05-2009 13:36:59 26.6 C 5.03 g/m*3 26.6 C 0 km/h
2619 30-05-2009 13:48:58 25.8 C 4.82 g/m*3 25.8 C 0 km/h
2620 30-05-2009 14:00:59 24.9 C 4.58 g/m*3 24.9 C 0 km/h
2621 30-05-2009 14:13:00 23.2 C 4.16 g/m*3 23.2 C 0 km/h
2622 30-05-2009 14:24:58 22.7 C 4.65 g/m*3 22.7 C 0 km/h
2623 30-05-2009 14:36:58 24.1 C 4.38 g/m*3 24.1 C 0 km/h
2624 30-05-2009 14:48:58 25.7 C 4.79 g/m*3 25.7 C 0 km/h
2625 30-05-2009 15:00:58 25.4 C 4.71 g/m*3 25.4 C 0 km/h
Sensor: Nr:Datum:Temp:Abs-Feuchte:Windchill:Wind:
Aussen-T/F 2626 30-05-2009 15:12:58 25.1 C 4.63 g/m*3 25.1 C 0 km/h
2627 30-05-2009 15:24:58 25.7 C 4.79 g/m*3 25.7 C 0 km/h
2628 30-05-2009 15:36:57 26.6 C 5.03 g/m*3 26.6 C 0 km/h
2629 30-05-2009 15:48:58 25.3 C 4.68 g/m*3 25.3 C 0 km/h
2630 30-05-2009 16:00:57 26 C 4.87 g/m*3 26 C 0 km/h
2631 30-05-2009 16:12:57 27.5 C 5.29 g/m*3 27.5 C 0 km/h
2632 30-05-2009 16:24:57 28.2 C 5.5 g/m*3 28.2 C 0 km/h
2633 30-05-2009 16:36:58 28.2 C 5.5 g/m*3 28.2 C 0 km/h
2634 30-05-2009 16:48:57 29.1 C 5.78 g/m*3 29.1 C 0 km/h
2635 30-05-2009 17:00:57 28.6 C 5.62 g/m*3 28.6 C 0 km/h
2636 30-05-2009 17:12:57 28.3 C 5.53 g/m*3 28.3 C 0 km/h
2637 30-05-2009 17:24:57 26.9 C 5.12 g/m*3 26.9 C 0 km/h
2638 30-05-2009 17:36:57 25.1 C 4.63 g/m*3 25.1 C 0 km/h
2639 30-05-2009 17:48:56 27.9 C 5.41 g/m*3 27.9 C 0 km/h
2640 30-05-2009 18:00:56 28.6 C 5.62 g/m*3 28.6 C 0 km/h
2641 30-05-2009 18:12:57 29.4 C 5.87 g/m*3 29.4 C 0 km/h
2642 30-05-2009 18:24:56 26.6 C 5.03 g/m*3 26.6 C 0 km/h
2643 30-05-2009 18:36:56 25.2 C 4.66 g/m*3 25.2 C 0 km/h
2644 30-05-2009 18:48:55 25.7 C 4.79 g/m*3 25.7 C 0 km/h
2645 30-05-2009 19:00:56 26.9 C 5.12 g/m*3 26.9 C 0 km/h
2646 30-05-2009 19:12:56 27.2 C 5.2 g/m*3 27.2 C 0 km/h
2647 30-05-2009 19:24:56 27.1 C 5.18 g/m*3 27.1 C 0 km/h
2648 30-05-2009 19:36:55 26.8 C 5.09 g/m*3 26.8 C 0 km/h
2649 30-05-2009 19:48:56 26.1 C 4.9 g/m*3 26.1 C 0 km/h
2650 30-05-2009 20:00:55 25.5 C 4.73 g/m*3 25.5 C 0 km/h
Sensor: Nr:Datum:Temp:Abs-Feuchte:Windchill:Wind:
Aussen-T/F 2651 30-05-2009 20:12:55 25.1 C 4.86 g/m*3 25.1 C 0 km/h
2652 30-05-2009 20:24:55 24.5 C 4.92 g/m*3 24.5 C 0 km/h
2653 30-05-2009 20:36:55 23.6 C 5.32 g/m*3 23.6 C 0 km/h
2654 30-05-2009 20:48:55 22.6 C 5.42 g/m*3 22.6 C 0 km/h
2655 30-05-2009 21:00:55 21.6 C 5.88 g/m*3 21.6 C 0 km/h
2656 30-05-2009 21:12:56 20.9 C 6.19 g/m*3 20.9 C 0 km/h
2657 30-05-2009 21:24:54 20.4 C 6.19 g/m*3 20.4 C 0 km/h
2658 30-05-2009 21:36:54 19.7 C 6.28 g/m*3 19.7 C 0 km/h
2659 30-05-2009 21:48:54 19.6 C 6.58 g/m*3 19.6 C 0 km/h
2660 30-05-2009 22:00:54 18.9 C 6.48 g/m*3 18.9 C 0 km/h
2661 30-05-2009 22:12:54 18.7 C 6.72 g/m*3 18.7 C 0 km/h
2662 30-05-2009 22:24:54 18.2 C 6.53 g/m*3 18.2 C 0 km/h
2663 30-05-2009 22:36:54 17.8 C 6.68 g/m*3 17.8 C 0 km/h
2664 30-05-2009 22:48:54 17.5 C 6.71 g/m*3 17.5 C 0 km/h
2665 30-05-2009 23:01:54 17.5 C 6.86 g/m*3 17.5 C 0 km/h
2666 30-05-2009 23:13:54 17.3 C 6.78 g/m*3 17.3 C 0 km/h
2667 30-05-2009 23:25:54 17.2 C 6.88 g/m*3 17.2 C 0 km/h
2668 30-05-2009 23:37:54 17 C 6.95 g/m*3 17 C 0 km/h
2669 30-05-2009 23:49:54 17 C 6.95 g/m*3 17 C 0 km/h
2670 31-05-2009 00:01:54 16.6 C 6.92 g/m*3 16.6 C 0 km/h
2671 31-05-2009 00:13:54 16.4 C 7.12 g/m*3 16.4 C 0 km/h
2672 31-05-2009 00:25:54 16.3 C 7.21 g/m*3 16.3 C 0 km/h
2673 31-05-2009 00:37:54 16.6 C 7.35 g/m*3 16.6 C 0 km/h
2674 31-05-2009 00:49:55 16.7 C 7.39 g/m*3 16.7 C 0 km/h
2675 31-05-2009 01:01:55 16.7 C 7.39 g/m*3 16.7 C 0 km/h
Sensor: Nr:Datum:Temp:Abs-Feuchte:Windchill:Wind:
Aussen-T/F 2676 31-05-2009 01:13:55 16.4 C 7.4 g/m*3 16.4 C 0 km/h
2677 31-05-2009 01:25:55 16 C 7.36 g/m*3 16 C 0 km/h
2678 31-05-2009 01:37:55 15.5 C 7.4 g/m*3 15.5 C 0 km/h
2679 31-05-2009 01:49:55 15.6 C 7.71 g/m*3 15.6 C 0 km/h
2680 31-05-2009 02:01:55 15.8 C 7.67 g/m*3 15.8 C 0 km/h
2681 31-05-2009 02:13:55 15.8 C 7.67 g/m*3 15.8 C 0 km/h
2682 31-05-2009 02:25:55 15.7 C 7.76 g/m*3 15.7 C 0 km/h
2683 31-05-2009 02:37:55 15.9 C 7.85 g/m*3 15.9 C 0 km/h
2684 31-05-2009 02:49:55 15.9 C 7.85 g/m*3 15.9 C 0 km/h
2685 31-05-2009 03:01:55 15.8 C 7.81 g/m*3 15.8 C 0 km/h
2686 31-05-2009 03:13:55 15.9 C 7.72 g/m*3 15.9 C 0 km/h
2687 31-05-2009 03:25:55 15.6 C 7.71 g/m*3 15.6 C 0 km/h
2688 31-05-2009 03:37:55 15.5 C 7.8 g/m*3 15.5 C 0 km/h
2689 31-05-2009 03:49:55 15.5 C 7.8 g/m*3 15.5 C 0 km/h
2690 31-05-2009 04:01:55 15.6 C 7.98 g/m*3 15.6 C 0 km/h
2691 31-05-2009 04:13:55 15.5 C 7.93 g/m*3 15.5 C 0 km/h
2692 31-05-2009 04:25:55 15.2 C 7.92 g/m*3 15.2 C 0 km/h
2693 31-05-2009 04:37:56 15.4 C 8.01 g/m*3 15.4 C 0 km/h
2694 31-05-2009 04:49:56 15.5 C 8.06 g/m*3 15.5 C 0 km/h
2695 31-05-2009 05:01:56 15.5 C 8.06 g/m*3 15.5 C 0 km/h
2696 31-05-2009 05:13:56 15.4 C 8.01 g/m*3 15.4 C 0 km/h
2697 31-05-2009 05:25:56 15.4 C 8.01 g/m*3 15.4 C 0 km/h
2698 31-05-2009 05:37:56 15.4 C 8.01 g/m*3 15.4 C 0 km/h
2699 31-05-2009 05:49:56 15.4 C 8.15 g/m*3 15.4 C 0 km/h
2700 31-05-2009 06:01:56 15.3 C 8.1 g/m*3 15.3 C 0 km/h
Sensor: Nr:Datum:Temp:Abs-Feuchte:Windchill:Wind:
Aussen-T/F 2701 31-05-2009 06:13:56 15.4 C 8.28 g/m*3 15.4 C 0 km/h
2702 31-05-2009 06:25:56 15.6 C 8.38 g/m*3 15.6 C 0 km/h
2703 31-05-2009 06:37:56 15.8 C 8.35 g/m*3 15.8 C 0 km/h
2704 31-05-2009 06:49:56 15.9 C 8.4 g/m*3 15.9 C 0 km/h
2705 31-05-2009 07:01:56 16 C 8.31 g/m*3 16 C 0 km/h
2706 31-05-2009 07:13:56 15.9 C 8.26 g/m*3 15.9 C 0 km/h
2707 31-05-2009 07:25:56 16 C 8.31 g/m*3 16 C 0 km/h
2708 31-05-2009 07:37:56 16 C 8.58 g/m*3 16 C 0 km/h
2709 31-05-2009 07:49:56 16 C 8.58 g/m*3 16 C 0 km/h
2710 31-05-2009 08:01:54 15.9 C 8.67 g/m*3 15.9 C 0 km/h
2711 31-05-2009 08:13:54 16.2 C 8.83 g/m*3 16.2 C 0 km/h
2712 31-05-2009 08:25:54 16.7 C 8.95 g/m*3 16.7 C 0 km/h
2713 31-05-2009 08:37:53 17.5 C 8.8 g/m*3 17.5 C 0 km/h
2714 31-05-2009 08:49:54 17.6 C 8.7 g/m*3 17.6 C 0 km/h
2715 31-05-2009 09:01:53 17.7 C 8.75 g/m*3 17.7 C 0 km/h
2716 31-05-2009 09:13:53 18.3 C 8.6 g/m*3 18.3 C 0 km/h
2717 31-05-2009 09:25:53 18.6 C 8.59 g/m*3 18.6 C 0 km/h
2718 31-05-2009 09:37:54 18.9 C 8.59 g/m*3 18.9 C 0 km/h
2719 31-05-2009 09:49:53 18.9 C 8.26 g/m*3 18.9 C 0 km/h
2720 31-05-2009 10:01:53 19.3 C 8.29 g/m*3 19.3 C 0 km/h
2721 31-05-2009 10:13:53 20.1 C 8.34 g/m*3 20.1 C 0 km/h
2722 31-05-2009 10:25:53 20.4 C 7.96 g/m*3 20.4 C 0 km/h
2723 31-05-2009 10:37:53 20.5 C 8.01 g/m*3 20.5 C 0 km/h
2724 31-05-2009 10:49:52 20.5 C 8.19 g/m*3 20.5 C 0 km/h
2725 31-05-2009 11:01:53 20.9 C 8.01 g/m*3 20.9 C 0 km/h
Sensor: Nr:Datum:Temp:Abs-Feuchte:Windchill:Wind:
Aussen-T/F 2726 31-05-2009 11:13:54 21.2 C 7.78 g/m*3 21.2 C 0 km/h
2727 31-05-2009 11:25:52 21.4 C 7.5 g/m*3 21.4 C 0 km/h
2728 31-05-2009 11:37:52 21.9 C 7.53 g/m*3 21.9 C 0 km/h
2729 31-05-2009 11:49:51 22.4 C 7.35 g/m*3 22.4 C 0 km/h
2730 31-05-2009 12:01:52 23.3 C 7.11 g/m*3 23.3 C 0 km/h
2731 31-05-2009 12:13:52 23.9 C 7.14 g/m*3 23.9 C 0 km/h
2732 31-05-2009 12:25:52 23 C 6.78 g/m*3 23 C 0 km/h
2733 31-05-2009 12:37:51 22.7 C 7.07 g/m*3 22.7 C 0 km/h
2734 31-05-2009 12:49:52 22.2 C 7.07 g/m*3 22.2 C 0 km/h
2735 31-05-2009 13:01:51 23.1 C 6.82 g/m*3 23.1 C 0 km/h
2736 31-05-2009 13:13:51 25.6 C 6.43 g/m*3 25.6 C 0 km/h
2737 31-05-2009 13:25:51 26.1 C 5.39 g/m*3 26.1 C 0 km/h
2738 31-05-2009 13:37:51 23.5 C 6.13 g/m*3 23.5 C 0 km/h
2739 31-05-2009 13:49:51 23.1 C 5.99 g/m*3 23.1 C 0 km/h
2740 31-05-2009 14:01:51 24.5 C 6.49 g/m*3 24.5 C 0 km/h
2741 31-05-2009 14:13:51 25 C 6.22 g/m*3 25 C 0 km/h
2742 31-05-2009 14:25:50 25.4 C 5.89 g/m*3 25.4 C 0 km/h
2743 31-05-2009 14:37:51 25.7 C 5.99 g/m*3 25.7 C 0 km/h
2744 31-05-2009 14:49:50 25.6 C 5.95 g/m*3 25.6 C 0 km/h
2745 31-05-2009 15:01:50 25.8 C 5.3 g/m*3 25.8 C 0 km/h
2746 31-05-2009 15:13:50 26.3 C 5.2 g/m*3 26.3 C 0 km/h
2747 31-05-2009 15:25:50 25.6 C 5 g/m*3 25.6 C 0 km/h
2748 31-05-2009 15:37:50 26.7 C 5.32 g/m*3 26.7 C 0 km/h
2749 31-05-2009 15:49:49 27.4 C 5.26 g/m*3 27.4 C 0 km/h
2750 31-05-2009 16:01:50 27.1 C 5.18 g/m*3 27.1 C 0 km/h
Sensor: Nr:Datum:Temp:Abs-Feuchte:Windchill:Wind:
Aussen-T/F 2751 31-05-2009 16:13:50 27.1 C 5.18 g/m*3 27.1 C 0 km/h
2752 31-05-2009 16:25:50 28.1 C 5.47 g/m*3 28.1 C 0 km/h
2753 31-05-2009 16:37:49 27.1 C 5.18 g/m*3 27.1 C 0 km/h
2754 31-05-2009 16:49:50 27 C 5.15 g/m*3 27 C 0 km/h
2755 31-05-2009 17:01:49 25.4 C 5.41 g/m*3 25.4 C 0 km/h
2756 31-05-2009 17:13:49 25.5 C 5.21 g/m*3 25.5 C 0 km/h
2757 31-05-2009 17:25:49 25.8 C 5.3 g/m*3 25.8 C 0 km/h
2758 31-05-2009 17:37:48 25.8 C 5.54 g/m*3 25.8 C 0 km/h
2759 31-05-2009 17:49:49 25.5 C 5.21 g/m*3 25.5 C 0 km/h
2760 31-05-2009 18:01:48 24.8 C 5.46 g/m*3 24.8 C 0 km/h
2761 31-05-2009 18:13:48 27.5 C 5.29 g/m*3 27.5 C 0 km/h
2762 31-05-2009 18:25:48 25.6 C 5.24 g/m*3 25.6 C 0 km/h
2763 31-05-2009 18:37:49 25.7 C 5.75 g/m*3 25.7 C 0 km/h
2764 31-05-2009 18:49:48 27 C 5.4 g/m*3 27 C 0 km/h
2765 31-05-2009 19:01:48 27.5 C 5.56 g/m*3 27.5 C 0 km/h
2766 31-05-2009 19:13:48 27.5 C 5.56 g/m*3 27.5 C 0 km/h
2767 31-05-2009 19:25:48 27.6 C 5.59 g/m*3 27.6 C 0 km/h
2768 31-05-2009 19:37:47 26.8 C 5.6 g/m*3 26.8 C 0 km/h
2769 31-05-2009 19:49:48 25.6 C 5.95 g/m*3 25.6 C 0 km/h
2770 31-05-2009 20:01:47 24.1 C 5.69 g/m*3 24.1 C 0 km/h
2771 31-05-2009 20:13:47 24.1 C 5.91 g/m*3 24.1 C 0 km/h
2772 31-05-2009 20:25:48 23.3 C 6.06 g/m*3 23.3 C 0 km/h
2773 31-05-2009 20:37:47 22.9 C 6.34 g/m*3 22.9 C 0 km/h
2774 31-05-2009 20:49:47 22.2 C 6.48 g/m*3 22.2 C 0 km/h
2775 31-05-2009 21:01:47 21.4 C 6.75 g/m*3 21.4 C 0 km/h
Sensor: Nr:Datum:Temp:Abs-Feuchte:Windchill:Wind:
Aussen-T/F 2776 31-05-2009 21:13:47 20.8 C 6.88 g/m*3 20.8 C 0 km/h
2777 31-05-2009 21:25:47 20 C 6.57 g/m*3 20 C 0 km/h
2778 31-05-2009 21:37:46 19.6 C 6.75 g/m*3 19.6 C 0 km/h
2779 31-05-2009 21:49:47 19.2 C 6.76 g/m*3 19.2 C 0 km/h
2780 31-05-2009 22:01:46 18.9 C 6.97 g/m*3 18.9 C 0 km/h
2781 31-05-2009 22:13:46 18.6 C 7 g/m*3 18.6 C 0 km/h
2782 31-05-2009 22:25:46 18.4 C 7.08 g/m*3 18.4 C 0 km/h
2783 31-05-2009 22:37:46 18 C 7.07 g/m*3 18 C 0 km/h
2784 31-05-2009 22:49:01 17.8 C 7.29 g/m*3 17.8 C 0 km/h
2785 31-05-2009 23:01:01 17.7 C 7.24 g/m*3 17.7 C 0 km/h
2786 31-05-2009 23:13:01 17.4 C 7.26 g/m*3 17.4 C 0 km/h
2787 31-05-2009 23:25:01 17.2 C 7.32 g/m*3 17.2 C 0 km/h
2788 31-05-2009 23:37:01 16.9 C 7.34 g/m*3 16.9 C 0 km/h
2789 31-05-2009 23:49:00 16.6 C 7.35 g/m*3 16.6 C 0 km/h
2790 01-06-2009 00:01:00 16.6 C 7.49 g/m*3 16.6 C 0 km/h
2791 01-06-2009 00:13:00 16.3 C 7.49 g/m*3 16.3 C 0 km/h
2792 01-06-2009 00:26:01 16.1 C 7.54 g/m*3 16.1 C 0 km/h
2793 01-06-2009 00:38:01 15.9 C 7.85 g/m*3 15.9 C 0 km/h
2794 01-06-2009 00:50:01 15.6 C 7.85 g/m*3 15.6 C 0 km/h
2795 01-06-2009 01:02:01 15.6 C 7.98 g/m*3 15.6 C 0 km/h
2796 01-06-2009 01:14:01 15.2 C 7.92 g/m*3 15.2 C 0 km/h
2797 01-06-2009 01:26:01 14.9 C 7.9 g/m*3 14.9 C 0 km/h
2798 01-06-2009 01:38:01 14.8 C 8.11 g/m*3 14.8 C 0 km/h
2799 01-06-2009 01:50:01 14.6 C 8.01 g/m*3 14.6 C 0 km/h
2800 01-06-2009 02:02:01 14.5 C 7.96 g/m*3 14.5 C 0 km/h
Sensor: Nr:Datum:Temp:Abs-Feuchte:Windchill:Wind:
Aussen-T/F 2801 01-06-2009 02:14:01 14.3 C 8.11 g/m*3 14.3 C 0 km/h
2802 01-06-2009 02:26:01 14.1 C 8.13 g/m*3 14.1 C 0 km/h
2803 01-06-2009 02:38:01 13.7 C 8.05 g/m*3 13.7 C 0 km/h
2804 01-06-2009 02:50:01 13.8 C 8.22 g/m*3 13.8 C 0 km/h
2805 01-06-2009 03:02:01 13.6 C 8.24 g/m*3 13.6 C 0 km/h
2806 01-06-2009 03:14:01 13.4 C 8.25 g/m*3 13.4 C 0 km/h
2807 01-06-2009 03:26:01 13.3 C 8.2 g/m*3 13.3 C 0 km/h
2808 01-06-2009 03:38:01 13.1 C 8.22 g/m*3 13.1 C 0 km/h
2809 01-06-2009 03:50:01 13 C 8.28 g/m*3 13 C 0 km/h
2810 01-06-2009 04:02:01 12.9 C 8.34 g/m*3 12.9 C 0 km/h
2811 01-06-2009 04:14:02 12.8 C 8.4 g/m*3 12.8 C 0 km/h
2812 01-06-2009 04:26:02 12.6 C 8.3 g/m*3 12.6 C 0 km/h
2813 01-06-2009 04:38:02 12.5 C 8.36 g/m*3 12.5 C 0 km/h
2814 01-06-2009 04:50:02 12.4 C 8.3 g/m*3 12.4 C 0 km/h
2815 01-06-2009 05:02:02 12.2 C 8.2 g/m*3 12.2 C 0 km/h
2816 01-06-2009 05:14:02 12.3 C 8.25 g/m*3 12.3 C 0 km/h
2817 01-06-2009 05:26:02 12.4 C 8.41 g/m*3 12.4 C 0 km/h
2818 01-06-2009 05:38:02 12.6 C 8.52 g/m*3 12.6 C 0 km/h
2819 01-06-2009 05:50:02 12.8 C 8.51 g/m*3 12.8 C 0 km/h
2820 01-06-2009 06:02:02 12.8 C 8.51 g/m*3 12.8 C 0 km/h
2821 01-06-2009 06:14:02 13 C 8.39 g/m*3 13 C 0 km/h
2822 01-06-2009 06:26:02 13.2 C 8.5 g/m*3 13.2 C 0 km/h
2823 01-06-2009 06:38:02 13.2 C 8.38 g/m*3 13.2 C 0 km/h
2824 01-06-2009 06:50:02 13.5 C 8.54 g/m*3 13.5 C 0 km/h
2825 01-06-2009 07:02:02 13.5 C 8.54 g/m*3 13.5 C 0 km/h
Sensor: Nr:Datum:Temp:Abs-Feuchte:Windchill:Wind:
Aussen-T/F 2826 01-06-2009 07:14:02 13.6 C 8.59 g/m*3 13.6 C 0 km/h
2827 01-06-2009 07:26:02 13.8 C 8.7 g/m*3 13.8 C 0 km/h
2828 01-06-2009 07:38:02 14.3 C 8.72 g/m*3 14.3 C 0 km/h
2829 01-06-2009 07:50:02 14.4 C 8.65 g/m*3 14.4 C 0 km/h
2830 01-06-2009 08:02:03 14.3 C 8.72 g/m*3 14.3 C 0 km/h
2831 01-06-2009 08:14:03 14.5 C 8.83 g/m*3 14.5 C 0 km/h
2832 01-06-2009 08:26:03 15.1 C 8.9 g/m*3 15.1 C 0 km/h
2833 01-06-2009 08:38:01 15.9 C 8.94 g/m*3 15.9 C 0 km/h
2834 01-06-2009 08:50:01 16.9 C 8.92 g/m*3 16.9 C 0 km/h
2835 01-06-2009 09:02:00 17.1 C 8.73 g/m*3 17.1 C 0 km/h
2836 01-06-2009 09:14:00 17.6 C 9 g/m*3 17.6 C 0 km/h
2837 01-06-2009 09:26:01 18.2 C 8.7 g/m*3 18.2 C 0 km/h
2838 01-06-2009 09:38:01 18.3 C 8.76 g/m*3 18.3 C 0 km/h
2839 01-06-2009 09:50:00 18.7 C 8.81 g/m*3 18.7 C 0 km/h
2840 01-06-2009 10:02:01 19.6 C 8.78 g/m*3 19.6 C 0 km/h
2841 01-06-2009 10:14:01 20.1 C 8.52 g/m*3 20.1 C 0 km/h
2842 01-06-2009 10:26:00 20.8 C 8.87 g/m*3 20.8 C 0 km/h
2843 01-06-2009 10:38:00 21.7 C 9.16 g/m*3 21.7 C 0 km/h
2844 01-06-2009 10:50:00 22.1 C 8.39 g/m*3 22.1 C 0 km/h
2845 01-06-2009 11:14:00 22.5 C 8.39 g/m*3 22.5 C 0 km/h
2846 01-06-2009 11:14:00 22.8 C 8.53 g/m*3 22.8 C 0 km/h
2847 01-06-2009 11:14:00 22.5 C 8.39 g/m*3 22.5 C 0 km/h
2848 01-06-2009 11:14:00 22.8 C 8.53 g/m*3 22.8 C 0 km/h
2849 01-06-2009 11:26:00 22.6 C 8.44 g/m*3 22.6 C 0 km/h
2850 01-06-2009 11:37:59 23.3 C 8.15 g/m*3 23.3 C 0 km/h
Sensor: Nr:Datum:Temp:Abs-Feuchte:Windchill:Wind:
Aussen-T/F 2851 01-06-2009 11:50:59 24.5 C 8.06 g/m*3 24.5 C 0 km/h
2852 01-06-2009 12:02:59 24.5 C 7.83 g/m*3 24.5 C 0 km/h
2853 01-06-2009 12:14:58 25.7 C 7.42 g/m*3 25.7 C 0 km/h
2854 01-06-2009 12:26:58 26.5 C 7.76 g/m*3 26.5 C 0 km/h
2855 01-06-2009 12:38:59 26.8 C 7.38 g/m*3 26.8 C 0 km/h
2856 01-06-2009 12:50:58 26.2 C 7.39 g/m*3 26.2 C 0 km/h
2857 01-06-2009 13:02:58 25.4 C 8.24 g/m*3 25.4 C 0 km/h
2858 01-06-2009 13:14:59 24.8 C 8.65 g/m*3 24.8 C 0 km/h
2859 01-06-2009 13:26:59 25.6 C 8.09 g/m*3 25.6 C 0 km/h
2860 01-06-2009 13:38:58 25.7 C 8.38 g/m*3 25.7 C 0 km/h
2861 01-06-2009 13:50:58 24.4 C 8.46 g/m*3 24.4 C 0 km/h
2862 01-06-2009 14:02:58 19.6 C 9.12 g/m*3 19.6 C 0 km/h
2863 01-06-2009 14:14:58 19 C 11.73 g/m*3 19 C 0 km/h
2864 01-06-2009 14:26:59 20.1 C 12.69 g/m*3 20.1 C 0 km/h
2865 01-06-2009 14:38:57 22.4 C 11.12 g/m*3 22.4 C 0 km/h
2866 01-06-2009 14:50:57 22.7 C 11.11 g/m*3 22.7 C 0 km/h
2867 01-06-2009 15:02:57 22.1 C 12.1 g/m*3 22.1 C 0 km/h
2868 01-06-2009 15:14:57 22.6 C 12.25 g/m*3 22.6 C 0 km/h
2869 01-06-2009 15:26:57 23.7 C 11.55 g/m*3 23.7 C 0 km/h
2870 01-06-2009 15:38:57 23.6 C 11.91 g/m*3 23.6 C 0 km/h
2871 01-06-2009 15:50:57 24.6 C 11.25 g/m*3 24.6 C 0 km/h
2872 01-06-2009 16:02:57 25.9 C 9.44 g/m*3 25.9 C 0 km/h
2873 01-06-2009 16:14:56 26.9 C 8.7 g/m*3 26.9 C 0 km/h
2874 01-06-2009 16:26:56 28.8 C 7.39 g/m*3 28.8 C 0 km/h
2875 01-06-2009 16:38:56 29.4 C 6.75 g/m*3 29.4 C 0 km/h
Sensor: Nr:Datum:Temp:Abs-Feuchte:Windchill:Wind:
Aussen-T/F 2876 01-06-2009 16:50:56 25.6 C 6.9 g/m*3 25.6 C 0 km/h
2877 01-06-2009 17:02:56 21.6 C 11.57 g/m*3 21.6 C 0 km/h
2878 01-06-2009 17:14:56 22.4 C 11.72 g/m*3 22.4 C 0 km/h
2879 01-06-2009 17:26:56 23.3 C 11.5 g/m*3 23.3 C 0 km/h
2880 01-06-2009 17:38:56 24.3 C 10.4 g/m*3 24.3 C 0 km/h
2881 01-06-2009 17:50:56 24.7 C 9.96 g/m*3 24.7 C 0 km/h
2882 01-06-2009 18:02:55 24.7 C 9.51 g/m*3 24.7 C 0 km/h
2883 01-06-2009 18:14:56 25.4 C 8.95 g/m*3 25.4 C 0 km/h
2884 01-06-2009 18:26:57 25.9 C 9.44 g/m*3 25.9 C 0 km/h
2885 01-06-2009 18:38:55 28 C 8.16 g/m*3 28 C 0 km/h
2886 01-06-2009 18:50:55 27.4 C 8.95 g/m*3 27.4 C 0 km/h
2887 01-06-2009 19:02:54 25.6 C 8.81 g/m*3 25.6 C 0 km/h
2888 01-06-2009 19:14:55 23.7 C 8.34 g/m*3 23.7 C 0 km/h
2889 01-06-2009 19:26:55 24.2 C 8.14 g/m*3 24.2 C 0 km/h
2890 01-06-2009 19:38:55 25.3 C 8.19 g/m*3 25.3 C 0 km/h
2891 01-06-2009 19:50:54 25.3 C 7.73 g/m*3 25.3 C 0 km/h
2892 01-06-2009 20:02:55 25.2 C 7.68 g/m*3 25.2 C 0 km/h
2893 01-06-2009 20:14:54 24.9 C 7.78 g/m*3 24.9 C 0 km/h
2894 01-06-2009 20:26:54 24.5 C 7.61 g/m*3 24.5 C 0 km/h
2895 01-06-2009 20:38:54 23.7 C 7.49 g/m*3 23.7 C 0 km/h
2896 01-06-2009 20:50:54 22.6 C 7.83 g/m*3 22.6 C 0 km/h
2897 01-06-2009 21:02:53 22.1 C 8.59 g/m*3 22.1 C 0 km/h
2898 01-06-2009 21:14:54 21.1 C 8.48 g/m*3 21.1 C 0 km/h
2899 01-06-2009 21:26:54 20.3 C 8.62 g/m*3 20.3 C 0 km/h
2900 01-06-2009 21:38:54 19.7 C 8.49 g/m*3 19.7 C 0 km/h
Sensor: Nr:Datum:Temp:Abs-Feuchte:Windchill:Wind:
Aussen-T/F 2901 01-06-2009 21:50:53 19.3 C 8.63 g/m*3 19.3 C 0 km/h
2902 01-06-2009 22:02:54 19 C 8.64 g/m*3 19 C 0 km/h
2903 01-06-2009 22:14:53 18.6 C 8.91 g/m*3 18.6 C 0 km/h
2904 01-06-2009 22:26:53 18.4 C 8.81 g/m*3 18.4 C 0 km/h
2905 01-06-2009 22:39:09 18.1 C 8.96 g/m*3 18.1 C 0 km/h
2906 01-06-2009 22:51:09 17.8 C 9.11 g/m*3 17.8 C 0 km/h
2907 01-06-2009 23:03:09 17.4 C 8.89 g/m*3 17.4 C 0 km/h
2908 01-06-2009 23:15:09 17.2 C 8.93 g/m*3 17.2 C 0 km/h
2909 01-06-2009 23:27:09 17 C 9.12 g/m*3 17 C 0 km/h
2910 01-06-2009 23:39:09 16.9 C 9.21 g/m*3 16.9 C 0 km/h
2911 01-06-2009 23:51:09 16.6 C 9.18 g/m*3 16.6 C 0 km/h
2912 02-06-2009 00:03:09 16.4 C 9.21 g/m*3 16.4 C 0 km/h
2913 02-06-2009 00:15:09 16.1 C 9.18 g/m*3 16.1 C 0 km/h
2914 02-06-2009 00:27:09 16 C 9.26 g/m*3 16 C 0 km/h
2915 02-06-2009 00:39:09 15.8 C 9.56 g/m*3 15.8 C 0 km/h
2916 02-06-2009 00:51:09 15.5 C 9.65 g/m*3 15.5 C 0 km/h
2917 02-06-2009 01:03:09 15.3 C 9.66 g/m*3 15.3 C 0 km/h
2918 02-06-2009 01:15:09 15 C 9.62 g/m*3 15 C 0 km/h
2919 02-06-2009 01:27:10 14.9 C 9.69 g/m*3 14.9 C 0 km/h
2920 02-06-2009 01:39:10 14.7 C 9.82 g/m*3 14.7 C 0 km/h
2921 02-06-2009 01:51:10 14.6 C 9.76 g/m*3 14.6 C 0 km/h
2922 02-06-2009 02:03:10 14.4 C 9.64 g/m*3 14.4 C 0 km/h
2923 02-06-2009 02:15:10 14.1 C 9.59 g/m*3 14.1 C 0 km/h
2924 02-06-2009 02:27:10 14 C 9.65 g/m*3 14 C 0 km/h
2925 02-06-2009 02:39:10 13.7 C 9.59 g/m*3 13.7 C 0 km/h
Sensor: Nr:Datum:Temp:Abs-Feuchte:Windchill:Wind:
Aussen-T/F 2926 02-06-2009 02:51:10 13.7 C 9.59 g/m*3 13.7 C 0 km/h
2927 02-06-2009 03:03:10 13.7 C 9.59 g/m*3 13.7 C 0 km/h
2928 02-06-2009 03:15:10 13.5 C 9.59 g/m*3 13.5 C 0 km/h
2929 02-06-2009 03:27:10 13.4 C 9.53 g/m*3 13.4 C 0 km/h
2930 02-06-2009 03:39:10 13.4 C 9.53 g/m*3 13.4 C 0 km/h
2931 02-06-2009 03:51:10 13.4 C 9.53 g/m*3 13.4 C 0 km/h
2932 02-06-2009 04:03:10 13.4 C 9.42 g/m*3 13.4 C 0 km/h
2933 02-06-2009 04:15:10 13.2 C 9.3 g/m*3 13.2 C 0 km/h
2934 02-06-2009 04:27:10 13 C 9.19 g/m*3 13 C 0 km/h
2935 02-06-2009 04:39:10 12.9 C 9.35 g/m*3 12.9 C 0 km/h
2936 02-06-2009 04:51:10 12.8 C 9.3 g/m*3 12.8 C 0 km/h
2937 02-06-2009 05:03:10 12.7 C 9.35 g/m*3 12.7 C 0 km/h
2938 02-06-2009 05:15:11 12.5 C 9.24 g/m*3 12.5 C 0 km/h
2939 02-06-2009 05:27:11 12.4 C 9.18 g/m*3 12.4 C 0 km/h
2940 02-06-2009 05:39:11 12.4 C 9.18 g/m*3 12.4 C 0 km/h
2941 02-06-2009 05:51:11 12.4 C 9.18 g/m*3 12.4 C 0 km/h
2942 02-06-2009 06:03:11 12.4 C 9.18 g/m*3 12.4 C 0 km/h
2943 02-06-2009 06:15:11 12.6 C 9.18 g/m*3 12.6 C 0 km/h
2944 02-06-2009 06:27:11 12.9 C 8.9 g/m*3 12.9 C 0 km/h
2945 02-06-2009 06:39:54 13.1 C 8.22 g/m*3 13.1 C 0 km/h
2946 02-06-2009 06:51:54 13.5 C 7.95 g/m*3 13.5 C 0 km/h
2947 02-06-2009 07:03:53 13.6 C 7.77 g/m*3 13.6 C 0 km/h
2948 02-06-2009 07:15:54 13.7 C 7.7 g/m*3 13.7 C 0 km/h
2949 02-06-2009 07:27:54 13.8 C 7.86 g/m*3 13.8 C 0 km/h
2950 02-06-2009 07:39:53 13.7 C 7.7 g/m*3 13.7 C 0 km/h
Sensor: Nr:Datum:Temp:Abs-Feuchte:Windchill:Wind:
Aussen-T/F 2951 02-06-2009 07:51:53 14 C 7.6 g/m*3 14 C 0 km/h
2952 02-06-2009 08:03:53 14.2 C 7.82 g/m*3 14.2 C 0 km/h
2953 02-06-2009 08:15:53 14.4 C 7.91 g/m*3 14.4 C 0 km/h
2954 02-06-2009 08:27:53 14.6 C 7.63 g/m*3 14.6 C 0 km/h
2955 02-06-2009 08:39:53 14.7 C 7.68 g/m*3 14.7 C 0 km/h
2956 02-06-2009 08:51:53 15.1 C 7.74 g/m*3 15.1 C 0 km/h
2957 02-06-2009 09:03:53 15.5 C 7.8 g/m*3 15.5 C 0 km/h
2958 02-06-2009 09:15:52 15.8 C 7.81 g/m*3 15.8 C 0 km/h
2959 02-06-2009 09:27:52 16 C 7.63 g/m*3 16 C 0 km/h
2960 02-06-2009 09:39:53 16.5 C 7.86 g/m*3 16.5 C 0 km/h
2961 02-06-2009 09:51:52 17 C 7.81 g/m*3 17 C 0 km/h
2962 02-06-2009 10:03:52 17.6 C 7.8 g/m*3 17.6 C 0 km/h
2963 02-06-2009 10:15:51 18 C 7.83 g/m*3 18 C 0 km/h
2964 02-06-2009 10:27:51 18.3 C 7.82 g/m*3 18.3 C 0 km/h
2965 02-06-2009 10:39:52 18.8 C 7.73 g/m*3 18.8 C 0 km/h
2966 02-06-2009 10:51:51 18.8 C 7.57 g/m*3 18.8 C 0 km/h
2967 02-06-2009 11:03:51 19.3 C 7.8 g/m*3 19.3 C 0 km/h
2968 02-06-2009 11:15:52 19.5 C 7.89 g/m*3 19.5 C 0 km/h
2969 02-06-2009 11:27:52 20.6 C 8.23 g/m*3 20.6 C 0 km/h
2970 02-06-2009 11:39:51 20.5 C 8.19 g/m*3 20.5 C 0 km/h
2971 02-06-2009 11:51:51 20.8 C 8.15 g/m*3 20.8 C 0 km/h
2972 02-06-2009 12:03:51 21.8 C 7.87 g/m*3 21.8 C 0 km/h
2973 02-06-2009 12:15:51 22.4 C 7.75 g/m*3 22.4 C 0 km/h
2974 02-06-2009 12:27:51 23.8 C 7.74 g/m*3 23.8 C 0 km/h
2975 02-06-2009 12:39:50 23.2 C 7.28 g/m*3 23.2 C 0 km/h
Sensor: Nr:Datum:Temp:Abs-Feuchte:Windchill:Wind:
Aussen-T/F 2976 02-06-2009 12:51:51 23.8 C 7.31 g/m*3 23.8 C 0 km/h
2977 02-06-2009 13:03:50 24.1 C 7 g/m*3 24.1 C 0 km/h
2978 02-06-2009 13:15:50 24.3 C 6.86 g/m*3 24.3 C 0 km/h
2979 02-06-2009 13:27:50 24.4 C 6.45 g/m*3 24.4 C 0 km/h
2980 02-06-2009 13:39:50 24.6 C 5.85 g/m*3 24.6 C 0 km/h
2981 02-06-2009 13:51:50 24.4 C 5.56 g/m*3 24.4 C 0 km/h
2982 02-06-2009 14:03:50 24.3 C 5.53 g/m*3 24.3 C 0 km/h
2983 02-06-2009 14:15:49 24.6 C 5.85 g/m*3 24.6 C 0 km/h
2984 02-06-2009 14:27:49 24 C 5.87 g/m*3 24 C 0 km/h
2985 02-06-2009 14:39:50 25.2 C 5.82 g/m*3 25.2 C 0 km/h
2986 02-06-2009 14:51:49 24.6 C 5.63 g/m*3 24.6 C 0 km/h
2987 02-06-2009 15:03:49 24.7 C 5.21 g/m*3 24.7 C 0 km/h
2988 02-06-2009 15:15:48 25.4 C 5.41 g/m*3 25.4 C 0 km/h
2989 02-06-2009 15:27:48 25.7 C 5.03 g/m*3 25.7 C 0 km/h
2990 02-06-2009 15:39:49 25.9 C 5.57 g/m*3 25.9 C 0 km/h
2991 02-06-2009 15:51:48 27 C 5.4 g/m*3 27 C 0 km/h
2992 02-06-2009 16:03:48 26.5 C 5.76 g/m*3 26.5 C 0 km/h
2993 02-06-2009 16:15:49 26 C 5.11 g/m*3 26 C 0 km/h
2994 02-06-2009 16:27:49 26.7 C 5.06 g/m*3 26.7 C 0 km/h
2995 02-06-2009 16:39:48 27.1 C 5.18 g/m*3 27.1 C 0 km/h
2996 02-06-2009 16:51:48 27 C 5.15 g/m*3 27 C 0 km/h
2997 02-06-2009 17:03:48 27.8 C 5.38 g/m*3 27.8 C 0 km/h
2998 02-06-2009 17:15:48 27.5 C 5.29 g/m*3 27.5 C 0 km/h
2999 02-06-2009 17:27:49 27.1 C 5.18 g/m*3 27.1 C 0 km/h
3000 02-06-2009 17:39:47 27.8 C 5.38 g/m*3 27.8 C 0 km/h
Sensor: Nr:Datum:Temp:Abs-Feuchte:Windchill:Wind:
Aussen-T/F 3001 02-06-2009 17:51:48 27.6 C 5.32 g/m*3 27.6 C 0 km/h
3002 02-06-2009 18:03:48 27.8 C 5.38 g/m*3 27.8 C 0 km/h
3003 02-06-2009 18:15:47 28.1 C 5.47 g/m*3 28.1 C 0 km/h
3004 02-06-2009 18:27:47 28.5 C 5.59 g/m*3 28.5 C 0 km/h
3005 02-06-2009 18:39:47 29.2 C 5.81 g/m*3 29.2 C 0 km/h
3006 02-06-2009 18:51:47 27.5 C 5.29 g/m*3 27.5 C 0 km/h
3007 02-06-2009 19:03:47 28.6 C 5.62 g/m*3 28.6 C 0 km/h
3008 02-06-2009 19:15:46 28.2 C 5.5 g/m*3 28.2 C 0 km/h
3009 02-06-2009 19:27:46 28.1 C 5.47 g/m*3 28.1 C 0 km/h
3010 02-06-2009 19:39:47 27.4 C 5.26 g/m*3 27.4 C 0 km/h
3011 02-06-2009 19:51:46 27.9 C 5.68 g/m*3 27.9 C 0 km/h
3012 02-06-2009 20:03:46 27.6 C 5.59 g/m*3 27.6 C 0 km/h
3013 02-06-2009 20:15:46 27.3 C 5.49 g/m*3 27.3 C 0 km/h
3014 02-06-2009 20:27:46 26.4 C 5.73 g/m*3 26.4 C 0 km/h
3015 02-06-2009 20:39:46 25.3 C 5.85 g/m*3 25.3 C 0 km/h
3016 02-06-2009 20:51:46 24.2 C 5.72 g/m*3 24.2 C 0 km/h
3017 02-06-2009 21:03:45 23.9 C 5.62 g/m*3 23.9 C 0 km/h
3018 02-06-2009 21:15:46 23.3 C 5.23 g/m*3 23.3 C 0 km/h
3019 02-06-2009 21:27:46 22.7 C 5.46 g/m*3 22.7 C 0 km/h
3020 02-06-2009 21:39:45 22.4 C 5.56 g/m*3 22.4 C 0 km/h
3021 02-06-2009 21:51:13 22.1 C 5.47 g/m*3 22.1 C 0 km/h
3022 02-06-2009 22:03:13 21.7 C 5.72 g/m*3 21.7 C 0 km/h
3023 02-06-2009 22:15:13 21.5 C 5.66 g/m*3 21.5 C 0 km/h
3024 02-06-2009 22:27:13 21.2 C 5.56 g/m*3 21.2 C 0 km/h
3025 02-06-2009 22:39:13 20.9 C 5.83 g/m*3 20.9 C 0 km/h
Sensor: Nr:Datum:Temp:Abs-Feuchte:Windchill:Wind:
Aussen-T/F 3026 02-06-2009 22:51:13 20.6 C 5.91 g/m*3 20.6 C 0 km/h
3027 02-06-2009 23:03:13 20.3 C 5.8 g/m*3 20.3 C 0 km/h
3028 02-06-2009 23:15:13 20.2 C 5.77 g/m*3 20.2 C 0 km/h
3029 02-06-2009 23:27:45 19.9 C 5.84 g/m*3 19.9 C 0 km/h
3030 02-06-2009 23:39:45 19.7 C 5.77 g/m*3 19.7 C 0 km/h
3031 02-06-2009 23:51:45 19.9 C 6.01 g/m*3 19.9 C 0 km/h
3032 03-06-2009 00:03:45 19.7 C 5.77 g/m*3 19.7 C 0 km/h
3033 03-06-2009 00:15:45 19.4 C 5.67 g/m*3 19.4 C 0 km/h
3034 03-06-2009 00:27:45 19 C 5.38 g/m*3 19 C 0 km/h
3035 03-06-2009 00:39:44 18.6 C 5.57 g/m*3 18.6 C 0 km/h
3036 03-06-2009 00:51:45 18.2 C 5.44 g/m*3 18.2 C 0 km/h
3037 03-06-2009 01:03:44 17.9 C 5.5 g/m*3 17.9 C 0 km/h
3038 03-06-2009 01:15:44 17.7 C 5.43 g/m*3 17.7 C 0 km/h
3039 03-06-2009 01:27:44 17.3 C 5.3 g/m*3 17.3 C 0 km/h
3040 03-06-2009 01:39:44 17.1 C 5.24 g/m*3 17.1 C 0 km/h
3041 03-06-2009 01:51:44 16.8 C 5.29 g/m*3 16.8 C 0 km/h
3042 03-06-2009 02:03:44 16.4 C 5.16 g/m*3 16.4 C 0 km/h
3043 03-06-2009 02:15:43 16 C 5.18 g/m*3 16 C 0 km/h
3044 03-06-2009 02:27:43 15.7 C 5.22 g/m*3 15.7 C 0 km/h
3045 03-06-2009 02:39:44 15.4 C 5.65 g/m*3 15.4 C 0 km/h
3046 03-06-2009 02:52:45 15.1 C 5.81 g/m*3 15.1 C 0 km/h
3047 03-06-2009 03:04:45 15 C 5.77 g/m*3 15 C 0 km/h
3048 03-06-2009 03:16:45 14.6 C 5.88 g/m*3 14.6 C 0 km/h
3049 03-06-2009 03:28:45 14.4 C 5.81 g/m*3 14.4 C 0 km/h
3050 03-06-2009 03:40:45 14.2 C 5.74 g/m*3 14.2 C 0 km/h
Sensor: Nr:Datum:Temp:Abs-Feuchte:Windchill:Wind:
Aussen-T/F 3051 03-06-2009 03:52:45 13.8 C 5.96 g/m*3 13.8 C 0 km/h
3052 03-06-2009 04:04:45 13.7 C 6.04 g/m*3 13.7 C 0 km/h
3053 03-06-2009 04:16:44 13.6 C 6 g/m*3 13.6 C 0 km/h
3054 03-06-2009 04:28:44 13.5 C 5.97 g/m*3 13.5 C 0 km/h
3055 03-06-2009 04:40:45 13.3 C 6.01 g/m*3 13.3 C 0 km/h
3056 03-06-2009 04:52:44 13.1 C 5.93 g/m*3 13.1 C 0 km/h
3057 03-06-2009 05:04:44 13 C 5.9 g/m*3 13 C 0 km/h
3058 03-06-2009 05:16:44 13 C 5.9 g/m*3 13 C 0 km/h
3059 03-06-2009 05:28:44 12.8 C 5.94 g/m*3 12.8 C 0 km/h
3060 03-06-2009 05:40:44 12.7 C 6.01 g/m*3 12.7 C 0 km/h
3061 03-06-2009 05:52:44 12.7 C 6.01 g/m*3 12.7 C 0 km/h
3062 03-06-2009 06:04:43 12.9 C 6.2 g/m*3 12.9 C 0 km/h
3063 03-06-2009 06:16:43 13 C 6.24 g/m*3 13 C 0 km/h
3064 03-06-2009 06:28:43 13 C 6.24 g/m*3 13 C 0 km/h
3065 03-06-2009 06:40:43 13 C 6.35 g/m*3 13 C 0 km/h
3066 03-06-2009 06:52:43 12.9 C 6.54 g/m*3 12.9 C 0 km/h
3067 03-06-2009 07:04:42 12.8 C 6.27 g/m*3 12.8 C 0 km/h
3068 03-06-2009 07:16:43 12.7 C 6.35 g/m*3 12.7 C 0 km/h
3069 03-06-2009 07:28:43 12.5 C 6.05 g/m*3 12.5 C 0 km/h
3070 03-06-2009 07:40:43 12.8 C 6.16 g/m*3 12.8 C 0 km/h
3071 03-06-2009 07:52:42 12.9 C 6.2 g/m*3 12.9 C 0 km/h
3072 03-06-2009 08:04:43 12.8 C 5.94 g/m*3 12.8 C 0 km/h
3073 03-06-2009 08:16:42 12.8 C 5.94 g/m*3 12.8 C 0 km/h
3074 03-06-2009 08:28:42 13 C 5.9 g/m*3 13 C 0 km/h
3075 03-06-2009 08:40:42 13 C 5.67 g/m*3 13 C 0 km/h
Sensor: Nr:Datum:Temp:Abs-Feuchte:Windchill:Wind:
Aussen-T/F 3076 03-06-2009 08:52:42 13.1 C 5.48 g/m*3 13.1 C 0 km/h
3077 03-06-2009 09:04:42 13.5 C 5.5 g/m*3 13.5 C 0 km/h
3078 03-06-2009 09:16:41 13.9 C 5.39 g/m*3 13.9 C 0 km/h
3079 03-06-2009 09:28:41 13.9 C 5.04 g/m*3 13.9 C 0 km/h
3080 03-06-2009 09:40:41 14.6 C 5.13 g/m*3 14.6 C 0 km/h
3081 03-06-2009 09:52:41 14.7 C 5.67 g/m*3 14.7 C 0 km/h
3082 03-06-2009 10:04:41 14.2 C 5.62 g/m*3 14.2 C 0 km/h
3083 03-06-2009 10:16:41 14.9 C 5.23 g/m*3 14.9 C 0 km/h
3084 03-06-2009 10:28:41 14.6 C 5.63 g/m*3 14.6 C 0 km/h
3085 03-06-2009 10:40:41 15 C 5.39 g/m*3 15 C 0 km/h
3086 03-06-2009 10:52:41 15.4 C 5.26 g/m*3 15.4 C 0 km/h
3087 03-06-2009 11:04:40 14.9 C 5.23 g/m*3 14.9 C 0 km/h
3088 03-06-2009 11:16:41 15.2 C 5.19 g/m*3 15.2 C 0 km/h
3089 03-06-2009 11:28:41 16 C 5.31 g/m*3 16 C 0 km/h
3090 03-06-2009 11:40:40 16.8 C 5.43 g/m*3 16.8 C 0 km/h
3091 03-06-2009 11:52:40 17 C 5.21 g/m*3 17 C 0 km/h
3092 03-06-2009 12:04:40 16.7 C 4.97 g/m*3 16.7 C 0 km/h
3093 03-06-2009 12:16:40 16.8 C 4.86 g/m*3 16.8 C 0 km/h
3094 03-06-2009 12:28:40 17.7 C 4.98 g/m*3 17.7 C 0 km/h
3095 03-06-2009 12:40:39 17.9 C 4.73 g/m*3 17.9 C 0 km/h
3096 03-06-2009 12:52:40 18.8 C 4.83 g/m*3 18.8 C 0 km/h
3097 03-06-2009 13:04:40 17.3 C 4.42 g/m*3 17.3 C 0 km/h
3098 03-06-2009 13:16:39 18.2 C 4.66 g/m*3 18.2 C 0 km/h
3099 03-06-2009 13:28:39 19.5 C 4.53 g/m*3 19.5 C 0 km/h
3100 03-06-2009 13:40:39 18.4 C 4.09 g/m*3 18.4 C 0 km/h
Sensor: Nr:Datum:Temp:Abs-Feuchte:Windchill:Wind:
Aussen-T/F 3101 03-06-2009 13:52:39 19.8 C 4.27 g/m*3 19.8 C 0 km/h
3102 03-06-2009 14:04:39 19.3 C 4.15 g/m*3 19.3 C 0 km/h
3103 03-06-2009 14:16:38 20.1 C 4.35 g/m*3 20.1 C 0 km/h
3104 03-06-2009 14:28:38 19.3 C 4.31 g/m*3 19.3 C 0 km/h
3105 03-06-2009 14:40:39 19.1 C 4.43 g/m*3 19.1 C 0 km/h
3106 03-06-2009 14:52:38 19.7 C 4.92 g/m*3 19.7 C 0 km/h
3107 03-06-2009 15:04:38 20.5 C 4.45 g/m*3 20.5 C 0 km/h
3108 03-06-2009 15:16:39 20 C 4.67 g/m*3 20 C 0 km/h
3109 03-06-2009 15:28:39 20.8 C 4.53 g/m*3 20.8 C 0 km/h
3110 03-06-2009 15:40:38 20.4 C 4.6 g/m*3 20.4 C 0 km/h
3111 03-06-2009 15:52:37 20.9 C 4.55 g/m*3 20.9 C 0 km/h
3112 03-06-2009 16:04:38 20.1 C 4.52 g/m*3 20.1 C 0 km/h
3113 03-06-2009 16:16:38 20.4 C 4.42 g/m*3 20.4 C 0 km/h
3114 03-06-2009 16:28:38 20.2 C 4.55 g/m*3 20.2 C 0 km/h
3115 03-06-2009 16:40:37 20.3 C 4.75 g/m*3 20.3 C 0 km/h
3116 03-06-2009 16:52:38 20 C 4.32 g/m*3 20 C 0 km/h
3117 03-06-2009 17:04:37 20.3 C 4.57 g/m*3 20.3 C 0 km/h
3118 03-06-2009 17:16:37 20.6 C 4.65 g/m*3 20.6 C 0 km/h
3119 03-06-2009 17:28:37 20.7 C 4.32 g/m*3 20.7 C 0 km/h
3120 03-06-2009 17:40:36 19.4 C 4.34 g/m*3 19.4 C 0 km/h
3121 03-06-2009 17:52:37 20.6 C 4.12 g/m*3 20.6 C 0 km/h
3122 03-06-2009 18:04:36 19.2 C 3.79 g/m*3 19.2 C 0 km/h
3123 03-06-2009 18:16:36 20.3 C 4.05 g/m*3 20.3 C 0 km/h
3124 03-06-2009 18:28:36 19.3 C 3.98 g/m*3 19.3 C 0 km/h
3125 03-06-2009 18:40:37 20 C 4.32 g/m*3 20 C 0 km/h
Sensor: Nr:Datum:Temp:Abs-Feuchte:Windchill:Wind:
Aussen-T/F 3126 03-06-2009 18:52:36 19 C 4.24 g/m*3 19 C 0 km/h
3127 03-06-2009 19:04:36 19.1 C 4.26 g/m*3 19.1 C 0 km/h
3128 03-06-2009 19:16:36 18.8 C 4.51 g/m*3 18.8 C 0 km/h
3129 03-06-2009 19:28:36 18.1 C 4.64 g/m*3 18.1 C 0 km/h
3130 03-06-2009 19:40:36 18 C 4.61 g/m*3 18 C 0 km/h
3131 03-06-2009 19:52:36 18 C 4.76 g/m*3 18 C 0 km/h
3132 03-06-2009 20:04:36 17.7 C 4.83 g/m*3 17.7 C 0 km/h
3133 03-06-2009 20:16:36 16.9 C 5.03 g/m*3 16.9 C 0 km/h
3134 03-06-2009 20:28:36 16.6 C 5.09 g/m*3 16.6 C 0 km/h
3135 03-06-2009 20:40:35 16.4 C 5.02 g/m*3 16.4 C 0 km/h
3136 03-06-2009 20:52:34 16.5 C 4.91 g/m*3 16.5 C 0 km/h
3137 03-06-2009 21:04:35 16.1 C 4.8 g/m*3 16.1 C 0 km/h
3138 03-06-2009 21:16:35 16 C 4.77 g/m*3 16 C 0 km/h
3139 03-06-2009 21:28:35 15.9 C 4.88 g/m*3 15.9 C 0 km/h
3140 03-06-2009 21:40:34 15.5 C 4.63 g/m*3 15.5 C 0 km/h
3141 03-06-2009 21:52:35 15.4 C 4.73 g/m*3 15.4 C 0 km/h
3142 03-06-2009 22:05:35 15.3 C 4.7 g/m*3 15.3 C 0 km/h
3143 03-06-2009 22:17:35 15.2 C 4.67 g/m*3 15.2 C 0 km/h
3144 03-06-2009 22:29:35 15 C 4.62 g/m*3 15 C 0 km/h
3145 03-06-2009 22:41:35 14.7 C 4.78 g/m*3 14.7 C 0 km/h
3146 03-06-2009 22:53:35 14.9 C 4.84 g/m*3 14.9 C 0 km/h
3147 03-06-2009 23:05:35 14.8 C 4.69 g/m*3 14.8 C 0 km/h
3148 03-06-2009 23:17:35 14.6 C 4.88 g/m*3 14.6 C 0 km/h
3149 03-06-2009 23:29:36 14.5 C 4.97 g/m*3 14.5 C 0 km/h
3150 03-06-2009 23:41:36 14.2 C 5.01 g/m*3 14.2 C 0 km/h
Sensor: Nr:Datum:Temp:Abs-Feuchte:Windchill:Wind:
Aussen-T/F 3151 03-06-2009 23:53:36 14 C 5.07 g/m*3 14 C 0 km/h
3152 04-06-2009 00:05:36 13.7 C 5.21 g/m*3 13.7 C 0 km/h
3153 04-06-2009 00:17:36 13.7 C 5.33 g/m*3 13.7 C 0 km/h
3154 04-06-2009 00:29:36 13.4 C 5.23 g/m*3 13.4 C 0 km/h
3155 04-06-2009 00:41:36 13.1 C 5.14 g/m*3 13.1 C 0 km/h
3156 04-06-2009 00:53:36 13 C 5.22 g/m*3 13 C 0 km/h
3157 04-06-2009 01:05:36 12.7 C 5.34 g/m*3 12.7 C 0 km/h
3158 04-06-2009 01:17:36 12.6 C 5.42 g/m*3 12.6 C 0 km/h
3159 04-06-2009 01:29:36 12.7 C 5.45 g/m*3 12.7 C 0 km/h
3160 04-06-2009 01:41:36 12.6 C 5.42 g/m*3 12.6 C 0 km/h
3161 04-06-2009 01:53:36 12.5 C 5.5 g/m*3 12.5 C 0 km/h
3162 04-06-2009 02:05:36 12.5 C 4.95 g/m*3 12.5 C 0 km/h
3163 04-06-2009 02:17:36 12.4 C 4.7 g/m*3 12.4 C 0 km/h
3164 04-06-2009 02:29:36 12 C 4.48 g/m*3 12 C 0 km/h
3165 04-06-2009 02:41:36 11.9 C 4.45 g/m*3 11.9 C 0 km/h
3166 04-06-2009 02:53:36 11.7 C 4.18 g/m*3 11.7 C 0 km/h
3167 04-06-2009 03:05:36 11.5 C 4.13 g/m*3 11.5 C 0 km/h
3168 04-06-2009 03:17:37 11.2 C 3.95 g/m*3 11.2 C 0 km/h
3169 04-06-2009 03:29:37 11 C 4 g/m*3 11 C 0 km/h
3170 04-06-2009 03:41:37 10.8 C 4.15 g/m*3 10.8 C 0 km/h
3171 04-06-2009 03:53:37 10.9 C 4.28 g/m*3 10.9 C 0 km/h
3172 04-06-2009 04:05:37 10.8 C 4.15 g/m*3 10.8 C 0 km/h
3173 04-06-2009 04:17:37 10.7 C 4.22 g/m*3 10.7 C 0 km/h
3174 04-06-2009 04:29:37 10.6 C 4.29 g/m*3 10.6 C 0 km/h
3175 04-06-2009 04:41:37 10.6 C 4.39 g/m*3 10.6 C 0 km/h
Sensor: Nr:Datum:Temp:Abs-Feuchte:Windchill:Wind:
Aussen-T/F 3176 04-06-2009 04:53:37 10.7 C 4.62 g/m*3 10.7 C 0 km/h
3177 04-06-2009 05:05:37 10.5 C 4.85 g/m*3 10.5 C 0 km/h
3178 04-06-2009 05:17:37 10.5 C 4.95 g/m*3 10.5 C 0 km/h
3179 04-06-2009 05:29:37 10.6 C 5.08 g/m*3 10.6 C 0 km/h
3180 04-06-2009 05:41:37 10.7 C 5.11 g/m*3 10.7 C 0 km/h
3181 04-06-2009 05:53:37 10.7 C 5.01 g/m*3 10.7 C 0 km/h
3182 04-06-2009 06:05:37 10.7 C 5.11 g/m*3 10.7 C 0 km/h
3183 04-06-2009 06:17:37 10.7 C 5.01 g/m*3 10.7 C 0 km/h
3184 04-06-2009 06:29:37 10.5 C 4.75 g/m*3 10.5 C 0 km/h
3185 04-06-2009 06:41:37 10.6 C 4.78 g/m*3 10.6 C 0 km/h
3186 04-06-2009 06:53:35 10.7 C 4.91 g/m*3 10.7 C 0 km/h
3187 04-06-2009 07:05:35 10.7 C 4.91 g/m*3 10.7 C 0 km/h
3188 04-06-2009 07:17:35 11 C 4.8 g/m*3 11 C 0 km/h
3189 04-06-2009 07:29:35 10.8 C 5.04 g/m*3 10.8 C 0 km/h
3190 04-06-2009 07:41:35 10.8 C 5.34 g/m*3 10.8 C 0 km/h
3191 04-06-2009 07:53:35 11 C 5.31 g/m*3 11 C 0 km/h
3192 04-06-2009 08:05:34 11.6 C 5.4 g/m*3 11.6 C 0 km/h
3193 04-06-2009 08:17:34 11.8 C 5.37 g/m*3 11.8 C 0 km/h
3194 04-06-2009 08:29:34 11.9 C 5.3 g/m*3 11.9 C 0 km/h
3195 04-06-2009 08:41:34 12.2 C 5.18 g/m*3 12.2 C 0 km/h
3196 04-06-2009 08:53:34 12.5 C 5.17 g/m*3 12.5 C 0 km/h
3197 04-06-2009 09:05:33 13 C 4.88 g/m*3 13 C 0 km/h
3198 04-06-2009 09:17:34 12.8 C 4.59 g/m*3 12.8 C 0 km/h
3199 04-06-2009 09:29:34 12.3 C 4.13 g/m*3 12.3 C 0 km/h
3200 04-06-2009 09:41:34 12.7 C 4.23 g/m*3 12.7 C 0 km/h
Sensor: Nr:Datum:Temp:Abs-Feuchte:Windchill:Wind:
Aussen-T/F 3201 04-06-2009 09:53:33 12.9 C 4.51 g/m*3 12.9 C 0 km/h
3202 04-06-2009 10:05:34 13 C 4.2 g/m*3 13 C 0 km/h
3203 04-06-2009 10:17:33 13.1 C 4.45 g/m*3 13.1 C 0 km/h
3204 04-06-2009 10:29:33 14.1 C 4.49 g/m*3 14.1 C 0 km/h
3205 04-06-2009 10:41:33 13.5 C 4.33 g/m*3 13.5 C 0 km/h
3206 04-06-2009 10:53:33 13.2 C 4.36 g/m*3 13.2 C 0 km/h
3207 04-06-2009 11:05:33 14 C 4.46 g/m*3 14 C 0 km/h
3208 04-06-2009 11:17:32 14.7 C 4.53 g/m*3 14.7 C 0 km/h
3209 04-06-2009 11:29:32 13.3 C 4.04 g/m*3 13.3 C 0 km/h
3210 04-06-2009 11:41:32 13.1 C 3.99 g/m*3 13.1 C 0 km/h
3211 04-06-2009 11:53:32 13.5 C 4.33 g/m*3 13.5 C 0 km/h
3212 04-06-2009 12:05:32 14.7 C 4.53 g/m*3 14.7 C 0 km/h
3213 04-06-2009 12:17:32 14.5 C 4.35 g/m*3 14.5 C 0 km/h
3214 04-06-2009 12:29:32 14.6 C 4.25 g/m*3 14.6 C 0 km/h
3215 04-06-2009 12:41:32 14.4 C 3.96 g/m*3 14.4 C 0 km/h
3216 04-06-2009 12:53:32 14.7 C 4.28 g/m*3 14.7 C 0 km/h
3217 04-06-2009 13:05:31 14.7 C 4.41 g/m*3 14.7 C 0 km/h
3218 04-06-2009 13:17:32 15.7 C 4.01 g/m*3 15.7 C 0 km/h
3219 04-06-2009 13:29:32 15.6 C 3.72 g/m*3 15.6 C 0 km/h
3220 04-06-2009 13:41:31 14.9 C 3.95 g/m*3 14.9 C 0 km/h
3221 04-06-2009 13:53:31 14.4 C 3.96 g/m*3 14.4 C 0 km/h
3222 04-06-2009 14:05:31 15.1 C 4.13 g/m*3 15.1 C 0 km/h
3223 04-06-2009 14:17:31 16.2 C 4.14 g/m*3 16.2 C 0 km/h
3224 04-06-2009 14:29:31 15.3 C 3.79 g/m*3 15.3 C 0 km/h
3225 04-06-2009 14:41:31 14.8 C 3.67 g/m*3 14.8 C 0 km/h
Sensor: Nr:Datum:Temp:Abs-Feuchte:Windchill:Wind:
Aussen-T/F 3226 04-06-2009 14:53:30 15.8 C 3.9 g/m*3 15.8 C 0 km/h
3227 04-06-2009 15:05:30 16.3 C 4.16 g/m*3 16.3 C 0 km/h
3228 04-06-2009 15:17:30 17.5 C 3.88 g/m*3 17.5 C 0 km/h
3229 04-06-2009 15:29:30 16.1 C 3.56 g/m*3 16.1 C 0 km/h
3230 04-06-2009 15:41:30 15.9 C 3.79 g/m*3 15.9 C 0 km/h
3231 04-06-2009 15:53:30 16.4 C 3.77 g/m*3 16.4 C 0 km/h
3232 04-06-2009 16:05:30 16.3 C